<?xml version='1.0' encoding='UTF-8'?><gpx version="1.1" creator="JPX - https://github.com/jenetics/jpx" xmlns="http://www.topografix.com/GPX/1/1"><trk><trkseg><trkpt lat="45.61686132543644" lon="2.384416374835097"><ele>855.0</ele><time>2026-03-29T13:27:07Z</time></trkpt><trkpt lat="45.616937911678086" lon="2.384410934036123"><ele>855.0</ele><time>2026-03-29T13:27:11Z</time></trkpt><trkpt lat="45.61699886589771" lon="2.3843835468922614"><ele>855.0</ele><time>2026-03-29T13:27:14Z</time></trkpt><trkpt lat="45.617077070777555" lon="2.3843295946537624"><ele>855.0</ele><time>2026-03-29T13:27:19Z</time></trkpt><trkpt lat="45.617134013926574" lon="2.3842783060727446"><ele>855.0</ele><time>2026-03-29T13:27:24Z</time></trkpt><trkpt lat="45.61724868320744" lon="2.3842345613485203"><ele>855.0</ele><time>2026-03-29T13:27:28Z</time></trkpt><trkpt lat="45.61731225250485" lon="2.3841953802718336"><ele>855.1428571428572</ele><time>2026-03-29T13:27:31Z</time></trkpt><trkpt lat="45.617302932596765" lon="2.3841055401987052"><ele>855.2857142857142</ele><time>2026-03-29T13:27:37Z</time></trkpt><trkpt lat="45.617251505817855" lon="2.3840295422046154"><ele>855.4285714285714</ele><time>2026-03-29T13:27:41Z</time></trkpt><trkpt lat="45.61720796774701" lon="2.383958940173802"><ele>855.5714285714287</ele><time>2026-03-29T13:27:44Z</time></trkpt><trkpt lat="45.61716501029295" lon="2.3838906352629854"><ele>855.7142857142858</ele><time>2026-03-29T13:27:47Z</time></trkpt><trkpt lat="45.61712939183301" lon="2.38381506568059"><ele>855.8571428571429</ele><time>2026-03-29T13:27:50Z</time></trkpt><trkpt lat="45.617081361745605" lon="2.3837254609845755"><ele>856.0</ele><time>2026-03-29T13:27:54Z</time></trkpt><trkpt lat="45.617044425269924" lon="2.3836152124238956"><ele>855.9999999999999</ele><time>2026-03-29T13:27:57Z</time></trkpt><trkpt lat="45.616994799337895" lon="2.383492142064676"><ele>856.0</ele><time>2026-03-29T13:28:00Z</time></trkpt><trkpt lat="45.616955655001476" lon="2.383375645111814"><ele>856.0</ele><time>2026-03-29T13:28:03Z</time></trkpt><trkpt lat="45.61692331589676" lon="2.3832749629152628"><ele>856.0</ele><time>2026-03-29T13:28:06Z</time></trkpt><trkpt lat="45.61687187654757" lon="2.3831554691468106"><ele>855.9999999999999</ele><time>2026-03-29T13:28:09Z</time></trkpt><trkpt lat="45.61685202894648" lon="2.3830694824253578"><ele>856.0</ele><time>2026-03-29T13:28:10.999Z</time></trkpt><trkpt lat="45.616805592133986" lon="2.382955947859195"><ele>855.1428571428572</ele><time>2026-03-29T13:28:14.999Z</time></trkpt><trkpt lat="45.61678523560745" lon="2.3828671162233452"><ele>854.2857142857143</ele><time>2026-03-29T13:28:16.999Z</time></trkpt><trkpt lat="45.61676935729812" lon="2.3827601697081566"><ele>853.4285714285714</ele><time>2026-03-29T13:28:18.999Z</time></trkpt><trkpt lat="45.61674507476945" lon="2.3826551175271433"><ele>852.5714285714287</ele><time>2026-03-29T13:28:22.999Z</time></trkpt><trkpt lat="45.61670578076041" lon="2.382582521874031"><ele>851.7142857142857</ele><time>2026-03-29T13:28:24.999Z</time></trkpt><trkpt lat="45.616655234056616" lon="2.382480530410975"><ele>850.8571428571429</ele><time>2026-03-29T13:28:27.999Z</time></trkpt><trkpt lat="45.616612445170155" lon="2.3824070939340523"><ele>850.0</ele><time>2026-03-29T13:28:29.999Z</time></trkpt><trkpt lat="45.616547728543814" lon="2.3823607393837354"><ele>849.9999999999999</ele><time>2026-03-29T13:28:31.999Z</time></trkpt><trkpt lat="45.61646569482586" lon="2.3823222983681553"><ele>850.0</ele><time>2026-03-29T13:28:33.999Z</time></trkpt><trkpt lat="45.616380246138014" lon="2.382260222661263"><ele>850.0</ele><time>2026-03-29T13:28:35.999Z</time></trkpt><trkpt lat="45.61631143127639" lon="2.3821999351163323"><ele>850.0</ele><time>2026-03-29T13:28:37.999Z</time></trkpt><trkpt lat="45.61624804431438" lon="2.382142994763252"><ele>849.9999999999999</ele><time>2026-03-29T13:28:39.999Z</time></trkpt><trkpt lat="45.61620863691401" lon="2.3820718868082755"><ele>850.0</ele><time>2026-03-29T13:28:41.999Z</time></trkpt><trkpt lat="45.61619032043718" lon="2.3819740359841948"><ele>848.8333333333333</ele><time>2026-03-29T13:28:44.999Z</time></trkpt><trkpt lat="45.61623142875138" lon="2.381893501535857"><ele>847.6666666666666</ele><time>2026-03-29T13:28:46.999Z</time></trkpt><trkpt lat="45.61629803865667" lon="2.3817986552620907"><ele>846.5</ele><time>2026-03-29T13:28:49.999Z</time></trkpt><trkpt lat="45.61635995254609" lon="2.381725478134559"><ele>845.3333333333333</ele><time>2026-03-29T13:28:52.999Z</time></trkpt><trkpt lat="45.61640331902921" lon="2.3816496188452088"><ele>844.1666666666666</ele><time>2026-03-29T13:28:54.999Z</time></trkpt><trkpt lat="45.616446149748086" lon="2.381581097733773"><ele>843.0</ele><time>2026-03-29T13:28:56.999Z</time></trkpt><trkpt lat="45.61648305350676" lon="2.381480658789318"><ele>843.0</ele><time>2026-03-29T13:28:59.999Z</time></trkpt><trkpt lat="45.61652405410227" lon="2.3813934417452622"><ele>843.0</ele><time>2026-03-29T13:29:01.999Z</time></trkpt><trkpt lat="45.61654369578041" lon="2.3812860642612"><ele>843.0</ele><time>2026-03-29T13:29:03.999Z</time></trkpt><trkpt lat="45.616588141632185" lon="2.3812065625212977"><ele>843.0</ele><time>2026-03-29T13:29:05.999Z</time></trkpt><trkpt lat="45.616625271387434" lon="2.3811326490786424"><ele>843.0</ele><time>2026-03-29T13:29:07.999Z</time></trkpt><trkpt lat="45.61667655528623" lon="2.381044686085474"><ele>843.0</ele><time>2026-03-29T13:29:09.999Z</time></trkpt><trkpt lat="45.61671161997396" lon="2.3809388435350427"><ele>843.0</ele><time>2026-03-29T13:29:11.999Z</time></trkpt><trkpt lat="45.616748959338665" lon="2.38086255458701"><ele>842.6666666666666</ele><time>2026-03-29T13:29:14Z</time></trkpt><trkpt lat="45.61679134256409" lon="2.3807708575270716"><ele>842.3333333333333</ele><time>2026-03-29T13:29:16Z</time></trkpt><trkpt lat="45.61683167164666" lon="2.3806696618794447"><ele>842.0</ele><time>2026-03-29T13:29:18Z</time></trkpt><trkpt lat="45.61686848628967" lon="2.3805757408874517"><ele>841.6666666666666</ele><time>2026-03-29T13:29:20Z</time></trkpt><trkpt lat="45.61691108619182" lon="2.380487107108795"><ele>841.3333333333333</ele><time>2026-03-29T13:29:22Z</time></trkpt><trkpt lat="45.61694708153141" lon="2.3803980075093816"><ele>841.0</ele><time>2026-03-29T13:29:25Z</time></trkpt><trkpt lat="45.61700075027185" lon="2.380309376114188"><ele>840.9999999999999</ele><time>2026-03-29T13:29:28Z</time></trkpt><trkpt lat="45.61701969624291" lon="2.380187225338678"><ele>841.0</ele><time>2026-03-29T13:29:31Z</time></trkpt><trkpt lat="45.61706966989811" lon="2.380110091732088"><ele>841.0</ele><time>2026-03-29T13:29:34Z</time></trkpt><trkpt lat="45.61710780125455" lon="2.3800292185896104"><ele>841.0</ele><time>2026-03-29T13:29:36Z</time></trkpt><trkpt lat="45.617146454970396" lon="2.3799526119523002"><ele>840.9999999999999</ele><time>2026-03-29T13:29:38Z</time></trkpt><trkpt lat="45.61718703379947" lon="2.3798691092448263"><ele>841.0</ele><time>2026-03-29T13:29:40Z</time></trkpt><trkpt lat="45.61722823026489" lon="2.379751927360918"><ele>841.5714285714286</ele><time>2026-03-29T13:29:43Z</time></trkpt><trkpt lat="45.617259759875665" lon="2.379662007475018"><ele>842.1428571428571</ele><time>2026-03-29T13:29:45Z</time></trkpt><trkpt lat="45.617287171611785" lon="2.3795691331462727"><ele>842.7142857142857</ele><time>2026-03-29T13:29:47Z</time></trkpt><trkpt lat="45.617318696468985" lon="2.379479492622732"><ele>843.2857142857142</ele><time>2026-03-29T13:29:49Z</time></trkpt><trkpt lat="45.6173499248884" lon="2.379375000690818"><ele>843.8571428571429</ele><time>2026-03-29T13:29:53Z</time></trkpt><trkpt lat="45.617404008759685" lon="2.379297390850036"><ele>844.4285714285713</ele><time>2026-03-29T13:29:55Z</time></trkpt><trkpt lat="45.61744135814535" lon="2.3792003597307283"><ele>845.0</ele><time>2026-03-29T13:29:58Z</time></trkpt><trkpt lat="45.617485450209486" lon="2.379094890465325"><ele>845.0000000000001</ele><time>2026-03-29T13:30:01Z</time></trkpt><trkpt lat="45.61752633222511" lon="2.3789790254314918"><ele>845.0</ele><time>2026-03-29T13:30:04Z</time></trkpt><trkpt lat="45.61757870954033" lon="2.3789208433036224"><ele>845.0</ele><time>2026-03-29T13:30:06Z</time></trkpt><trkpt lat="45.61764205375209" lon="2.3788133199888235"><ele>845.0</ele><time>2026-03-29T13:30:09Z</time></trkpt><trkpt lat="45.6176908890274" lon="2.3787080409476977"><ele>845.0000000000001</ele><time>2026-03-29T13:30:12Z</time></trkpt><trkpt lat="45.61774495711853" lon="2.378591854115681"><ele>845.0</ele><time>2026-03-29T13:30:14.999Z</time></trkpt><trkpt lat="45.617805982961634" lon="2.3784992791838273"><ele>846.8333333333334</ele><time>2026-03-29T13:30:17.999Z</time></trkpt><trkpt lat="45.61785088557388" lon="2.378407901038035"><ele>848.6666666666667</ele><time>2026-03-29T13:30:19.999Z</time></trkpt><trkpt lat="45.61787477470521" lon="2.3782931813704713"><ele>850.5</ele><time>2026-03-29T13:30:21.999Z</time></trkpt><trkpt lat="45.617929266530986" lon="2.3782286925309513"><ele>852.3333333333333</ele><time>2026-03-29T13:30:24.999Z</time></trkpt><trkpt lat="45.61797782849314" lon="2.378131250270367"><ele>854.1666666666666</ele><time>2026-03-29T13:30:27.999Z</time></trkpt><trkpt lat="45.61803648550798" lon="2.378049497044964"><ele>856.0</ele><time>2026-03-29T13:30:31.999Z</time></trkpt><trkpt lat="45.61809301967545" lon="2.377958621372481"><ele>856.1428571428572</ele><time>2026-03-29T13:30:35.999Z</time></trkpt><trkpt lat="45.618135892396275" lon="2.377889529062225"><ele>856.2857142857143</ele><time>2026-03-29T13:30:38.999Z</time></trkpt><trkpt lat="45.61818175392926" lon="2.377813077175027"><ele>856.4285714285714</ele><time>2026-03-29T13:30:42.999Z</time></trkpt><trkpt lat="45.61821929318863" lon="2.377709146245755"><ele>856.5714285714287</ele><time>2026-03-29T13:30:46.999Z</time></trkpt><trkpt lat="45.618272814711645" lon="2.3776412572374563"><ele>856.7142857142857</ele><time>2026-03-29T13:30:50.999Z</time></trkpt><trkpt lat="45.61831498409467" lon="2.3775723009437746"><ele>856.8571428571429</ele><time>2026-03-29T13:30:53.999Z</time></trkpt><trkpt lat="45.61836009849048" lon="2.377502690625925"><ele>857.0</ele><time>2026-03-29T13:30:56.999Z</time></trkpt><trkpt lat="45.61841636387464" lon="2.377428877090264"><ele>857.0</ele><time>2026-03-29T13:31:00.999Z</time></trkpt><trkpt lat="45.61847935699449" lon="2.377354607207355"><ele>857.0</ele><time>2026-03-29T13:31:04.999Z</time></trkpt><trkpt lat="45.61851597810657" lon="2.3772764608140333"><ele>857.0</ele><time>2026-03-29T13:31:07.999Z</time></trkpt><trkpt lat="45.618569702285285" lon="2.3772201699085334"><ele>857.0</ele><time>2026-03-29T13:31:10.999Z</time></trkpt><trkpt lat="45.618621964213155" lon="2.377169330405728"><ele>857.0</ele><time>2026-03-29T13:31:13.999Z</time></trkpt><trkpt lat="45.61869232283703" lon="2.3771035251495296"><ele>857.0</ele><time>2026-03-29T13:31:17.999Z</time></trkpt><trkpt lat="45.61874198766821" lon="2.377047000225358"><ele>857.0</ele><time>2026-03-29T13:31:21Z</time></trkpt><trkpt lat="45.61881337249793" lon="2.377013427746257"><ele>856.3333333333334</ele><time>2026-03-29T13:31:24Z</time></trkpt><trkpt lat="45.618903532934326" lon="2.3769871948751478"><ele>855.6666666666667</ele><time>2026-03-29T13:31:28Z</time></trkpt><trkpt lat="45.61897599215543" lon="2.3769624401231257"><ele>855.0</ele><time>2026-03-29T13:31:32Z</time></trkpt><trkpt lat="45.619054848363646" lon="2.376939298919393"><ele>854.3333333333333</ele><time>2026-03-29T13:31:36Z</time></trkpt><trkpt lat="45.61912939923905" lon="2.376916475626083"><ele>853.6666666666666</ele><time>2026-03-29T13:31:40Z</time></trkpt><trkpt lat="45.61919285231273" lon="2.3768992734101273"><ele>853.0</ele><time>2026-03-29T13:31:43Z</time></trkpt><trkpt lat="45.61926222901881" lon="2.3769159017071897"><ele>853.0</ele><time>2026-03-29T13:31:47Z</time></trkpt><trkpt lat="45.61932402904199" lon="2.376938527257485"><ele>853.0</ele><time>2026-03-29T13:31:51Z</time></trkpt><trkpt lat="45.619400077304824" lon="2.376908034996516"><ele>853.0</ele><time>2026-03-29T13:31:56Z</time></trkpt><trkpt lat="45.61947517587177" lon="2.3769322236381245"><ele>853.0</ele><time>2026-03-29T13:32:00Z</time></trkpt><trkpt lat="45.61956100473291" lon="2.376920601388083"><ele>853.0</ele><time>2026-03-29T13:32:05Z</time></trkpt><trkpt lat="45.61962956380139" lon="2.37693519954615"><ele>853.0</ele><time>2026-03-29T13:32:10Z</time></trkpt><trkpt lat="45.61969292766438" lon="2.3769153047069254"><ele>853.0</ele><time>2026-03-29T13:32:14Z</time></trkpt><trkpt lat="45.61977477776635" lon="2.376944364752042"><ele>853.5714285714286</ele><time>2026-03-29T13:32:18Z</time></trkpt><trkpt lat="45.619835166983236" lon="2.3769894956874187"><ele>854.1428571428572</ele><time>2026-03-29T13:32:21Z</time></trkpt><trkpt lat="45.6199118173196" lon="2.377030224769717"><ele>854.7142857142858</ele><time>2026-03-29T13:32:23.999Z</time></trkpt><trkpt lat="45.61997539279422" lon="2.3770524242496034"><ele>855.2857142857142</ele><time>2026-03-29T13:32:26.999Z</time></trkpt><trkpt lat="45.620045230030364" lon="2.377062119913103"><ele>855.8571428571429</ele><time>2026-03-29T13:32:32.999Z</time></trkpt><trkpt lat="45.620104915627316" lon="2.3771011816708305"><ele>856.4285714285714</ele><time>2026-03-29T13:32:42.999Z</time></trkpt><trkpt lat="45.620188385992506" lon="2.3770899602042306"><ele>857.0</ele><time>2026-03-29T13:32:47.999Z</time></trkpt><trkpt lat="45.620255473869626" lon="2.377121767808343"><ele>857.2857142857142</ele><time>2026-03-29T13:32:50.999Z</time></trkpt><trkpt lat="45.62032011223876" lon="2.3771764724151243"><ele>857.5714285714286</ele><time>2026-03-29T13:32:53.999Z</time></trkpt><trkpt lat="45.62039123076742" lon="2.3772008651991134"><ele>857.8571428571429</ele><time>2026-03-29T13:32:57.999Z</time></trkpt><trkpt lat="45.62045835821032" lon="2.3772252788527006"><ele>858.1428571428571</ele><time>2026-03-29T13:33:01.999Z</time></trkpt><trkpt lat="45.62051982091511" lon="2.3772483177594266"><ele>858.4285714285714</ele><time>2026-03-29T13:33:05.999Z</time></trkpt><trkpt lat="45.6205800593469" lon="2.3772809564022515"><ele>858.7142857142857</ele><time>2026-03-29T13:33:09.999Z</time></trkpt><trkpt lat="45.62064409827392" lon="2.3773187776600575"><ele>859.0</ele><time>2026-03-29T13:33:13.999Z</time></trkpt><trkpt lat="45.62071493972079" lon="2.377306653629845"><ele>859.2857142857142</ele><time>2026-03-29T13:34:23Z</time></trkpt><trkpt lat="45.620775228937454" lon="2.377347114330154"><ele>859.5714285714286</ele><time>2026-03-29T13:34:27Z</time></trkpt><trkpt lat="45.62085373201306" lon="2.3773902927316204"><ele>859.8571428571429</ele><time>2026-03-29T13:34:31Z</time></trkpt><trkpt lat="45.62093265714815" lon="2.377420751984898"><ele>860.1428571428571</ele><time>2026-03-29T13:34:35.999Z</time></trkpt><trkpt lat="45.62099544494299" lon="2.37744828718794"><ele>860.4285714285714</ele><time>2026-03-29T13:34:39.999Z</time></trkpt><trkpt lat="45.62105442706772" lon="2.377494582094086"><ele>860.7142857142857</ele><time>2026-03-29T13:34:43.999Z</time></trkpt><trkpt lat="45.62112051857581" lon="2.3775465572044197"><ele>861.0</ele><time>2026-03-29T13:34:47.999Z</time></trkpt><trkpt lat="45.62118641929852" lon="2.3775763333481925"><ele>861.2857142857143</ele><time>2026-03-29T13:34:51.999Z</time></trkpt><trkpt lat="45.62124532468987" lon="2.3776129729285502"><ele>861.5714285714286</ele><time>2026-03-29T13:34:55.999Z</time></trkpt><trkpt lat="45.62131541362719" lon="2.3776487170979372"><ele>861.8571428571429</ele><time>2026-03-29T13:34:59.999Z</time></trkpt><trkpt lat="45.621382127403905" lon="2.37770270079512"><ele>862.1428571428571</ele><time>2026-03-29T13:35:03.999Z</time></trkpt><trkpt lat="45.6214519700764" lon="2.377762022132477"><ele>862.4285714285714</ele><time>2026-03-29T13:35:08.999Z</time></trkpt><trkpt lat="45.62151993910063" lon="2.3777857413120684"><ele>862.7142857142858</ele><time>2026-03-29T13:35:12.999Z</time></trkpt><trkpt lat="45.6215827979336" lon="2.3778166082017673"><ele>863.0</ele><time>2026-03-29T13:35:16.999Z</time></trkpt><trkpt lat="45.621647467312926" lon="2.377834057609157"><ele>863.0000000000001</ele><time>2026-03-29T13:35:20.999Z</time></trkpt><trkpt lat="45.621711935140695" lon="2.377887814949343"><ele>863.0</ele><time>2026-03-29T13:35:24.999Z</time></trkpt><trkpt lat="45.621769789557405" lon="2.3779400172249416"><ele>863.0</ele><time>2026-03-29T13:35:27.999Z</time></trkpt><trkpt lat="45.62184248765274" lon="2.3779669851622756"><ele>863.0</ele><time>2026-03-29T13:35:32Z</time></trkpt><trkpt lat="45.621902704844246" lon="2.3780129772184897"><ele>863.0</ele><time>2026-03-29T13:35:35Z</time></trkpt><trkpt lat="45.62196730757051" lon="2.3780414771081024"><ele>863.0000000000001</ele><time>2026-03-29T13:35:40Z</time></trkpt><trkpt lat="45.62203229139863" lon="2.378061898468057"><ele>863.0</ele><time>2026-03-29T13:35:45Z</time></trkpt><trkpt lat="45.62209341180442" lon="2.378092950980697"><ele>864.1428571428572</ele><time>2026-03-29T13:35:51Z</time></trkpt><trkpt lat="45.62215785209402" lon="2.378104936273397"><ele>865.2857142857143</ele><time>2026-03-29T13:35:57Z</time></trkpt><trkpt lat="45.62222557800992" lon="2.3781340611415156"><ele>866.4285714285714</ele><time>2026-03-29T13:36:00Z</time></trkpt><trkpt lat="45.62229731152979" lon="2.3781558768867503"><ele>867.5714285714287</ele><time>2026-03-29T13:36:04Z</time></trkpt><trkpt lat="45.62237414857827" lon="2.3781719231282694"><ele>868.7142857142857</ele><time>2026-03-29T13:36:08Z</time></trkpt><trkpt lat="45.6224516400477" lon="2.3781508432240925"><ele>869.8571428571429</ele><time>2026-03-29T13:36:12Z</time></trkpt><trkpt lat="45.62252393822882" lon="2.3781654631302094"><ele>871.0</ele><time>2026-03-29T13:36:17Z</time></trkpt><trkpt lat="45.622590543773995" lon="2.378183106397529"><ele>871.0</ele><time>2026-03-29T13:36:22Z</time></trkpt><trkpt lat="45.62267263357491" lon="2.3782017938587434"><ele>871.0</ele><time>2026-03-29T13:36:27Z</time></trkpt><trkpt lat="45.622740679426514" lon="2.3782351607690955"><ele>871.0</ele><time>2026-03-29T13:36:32Z</time></trkpt><trkpt lat="45.62280330767218" lon="2.3782604663822546"><ele>871.0</ele><time>2026-03-29T13:36:35Z</time></trkpt><trkpt lat="45.62287094895307" lon="2.3782432661002795"><ele>871.0</ele><time>2026-03-29T13:36:39Z</time></trkpt><trkpt lat="45.62293116815503" lon="2.378271694543341"><ele>871.0</ele><time>2026-03-29T13:36:42Z</time></trkpt><trkpt lat="45.623015229002974" lon="2.3782926660226953"><ele>871.0</ele><time>2026-03-29T13:36:45.999Z</time></trkpt><trkpt lat="45.623079154141195" lon="2.3782897044480635"><ele>871.1428571428571</ele><time>2026-03-29T13:36:48.999Z</time></trkpt><trkpt lat="45.62315528520953" lon="2.3782968001681715"><ele>871.2857142857142</ele><time>2026-03-29T13:36:54.999Z</time></trkpt><trkpt lat="45.623218970566626" lon="2.3783147311275874"><ele>871.4285714285714</ele><time>2026-03-29T13:36:58.999Z</time></trkpt><trkpt lat="45.62329098868127" lon="2.378313861042726"><ele>871.5714285714286</ele><time>2026-03-29T13:37:01.999Z</time></trkpt><trkpt lat="45.62336667662128" lon="2.3783379300201655"><ele>871.7142857142858</ele><time>2026-03-29T13:37:05.999Z</time></trkpt><trkpt lat="45.62343654958438" lon="2.378369901667722"><ele>871.8571428571429</ele><time>2026-03-29T13:37:09.999Z</time></trkpt><trkpt lat="45.623519728467286" lon="2.378385938817991"><ele>872.0</ele><time>2026-03-29T13:37:14.999Z</time></trkpt><trkpt lat="45.62358797057136" lon="2.3783879929035874"><ele>872.2857142857143</ele><time>2026-03-29T13:37:18.999Z</time></trkpt><trkpt lat="45.62365683036282" lon="2.3784157680813727"><ele>872.5714285714287</ele><time>2026-03-29T13:37:22.999Z</time></trkpt><trkpt lat="45.6237224635098" lon="2.3784353814861943"><ele>872.8571428571429</ele><time>2026-03-29T13:37:25.999Z</time></trkpt><trkpt lat="45.62379191123266" lon="2.3784582116679127"><ele>873.1428571428571</ele><time>2026-03-29T13:37:29.999Z</time></trkpt><trkpt lat="45.62386549861013" lon="2.3784326737448356"><ele>873.4285714285714</ele><time>2026-03-29T13:37:34.999Z</time></trkpt><trkpt lat="45.62394309921208" lon="2.3784606924100444"><ele>873.7142857142857</ele><time>2026-03-29T13:37:39Z</time></trkpt><trkpt lat="45.62400818519601" lon="2.378484052828867"><ele>874.0</ele><time>2026-03-29T13:37:44Z</time></trkpt><trkpt lat="45.62410402081796" lon="2.3785204657323056"><ele>874.0</ele><time>2026-03-29T13:37:48Z</time></trkpt><trkpt lat="45.624176744086846" lon="2.378536213364063"><ele>874.0</ele><time>2026-03-29T13:37:52Z</time></trkpt><trkpt lat="45.62424572190642" lon="2.3785560731147037"><ele>874.0</ele><time>2026-03-29T13:37:57Z</time></trkpt><trkpt lat="45.624313548450516" lon="2.3785675138619826"><ele>874.0</ele><time>2026-03-29T13:38:02Z</time></trkpt><trkpt lat="45.624386968284256" lon="2.378555226573484"><ele>874.0</ele><time>2026-03-29T13:38:07Z</time></trkpt><trkpt lat="45.62444943827899" lon="2.3785418848866837"><ele>874.0</ele><time>2026-03-29T13:38:11Z</time></trkpt><trkpt lat="45.624533362434434" lon="2.378539764245811"><ele>874.0</ele><time>2026-03-29T13:38:16Z</time></trkpt><trkpt lat="45.62461193023254" lon="2.3785633110321087"><ele>874.1666666666666</ele><time>2026-03-29T13:38:20Z</time></trkpt><trkpt lat="45.62468803968975" lon="2.3785626337665207"><ele>874.3333333333333</ele><time>2026-03-29T13:38:25Z</time></trkpt><trkpt lat="45.62475581648164" lon="2.3785800767046537"><ele>874.5</ele><time>2026-03-29T13:38:29Z</time></trkpt><trkpt lat="45.62482558038365" lon="2.378568458730611"><ele>874.6666666666667</ele><time>2026-03-29T13:38:33Z</time></trkpt><trkpt lat="45.62490679054522" lon="2.3785555028409107"><ele>874.8333333333334</ele><time>2026-03-29T13:38:38Z</time></trkpt><trkpt lat="45.6250077418493" lon="2.3785514672652006"><ele>875.0</ele><time>2026-03-29T13:38:41Z</time></trkpt><trkpt lat="45.62507941673586" lon="2.378549722168011"><ele>875.0</ele><time>2026-03-29T13:38:43Z</time></trkpt><trkpt lat="45.62515585298771" lon="2.3785627969703933"><ele>875.0</ele><time>2026-03-29T13:38:54.999Z</time></trkpt><trkpt lat="45.6252243358268" lon="2.3785087278998125"><ele>875.0</ele><time>2026-03-29T13:38:58.999Z</time></trkpt><trkpt lat="45.62528970908339" lon="2.3784465225420095"><ele>875.0</ele><time>2026-03-29T13:39:02.999Z</time></trkpt><trkpt lat="45.62534551652503" lon="2.3783944574049403"><ele>875.0</ele><time>2026-03-29T13:39:06.999Z</time></trkpt><trkpt lat="45.625407044673736" lon="2.3783548980616924"><ele>875.0</ele><time>2026-03-29T13:39:10.999Z</time></trkpt><trkpt lat="45.62545703542012" lon="2.3782791222107726"><ele>875.0</ele><time>2026-03-29T13:39:14.999Z</time></trkpt><trkpt lat="45.6255132150655" lon="2.3782158144559298"><ele>874.4285714285714</ele><time>2026-03-29T13:39:18.999Z</time></trkpt><trkpt lat="45.62557366733282" lon="2.3781685536356294"><ele>873.8571428571429</ele><time>2026-03-29T13:39:22.999Z</time></trkpt><trkpt lat="45.62562449657264" lon="2.3780915917737064"><ele>873.2857142857142</ele><time>2026-03-29T13:39:26.999Z</time></trkpt><trkpt lat="45.62568438329786" lon="2.3780278296712223"><ele>872.7142857142858</ele><time>2026-03-29T13:39:30.999Z</time></trkpt><trkpt lat="45.625737197300076" lon="2.3779615087563584"><ele>872.1428571428571</ele><time>2026-03-29T13:39:34.999Z</time></trkpt><trkpt lat="45.62579480396884" lon="2.3778933711017065"><ele>871.5714285714286</ele><time>2026-03-29T13:39:38.999Z</time></trkpt><trkpt lat="45.625842832002334" lon="2.377789891961965"><ele>871.0</ele><time>2026-03-29T13:39:42.999Z</time></trkpt><trkpt lat="45.625895390863725" lon="2.3777178152127147"><ele>870.9999999999999</ele><time>2026-03-29T13:39:47Z</time></trkpt><trkpt lat="45.62594784212078" lon="2.377637298788618"><ele>871.0</ele><time>2026-03-29T13:39:51Z</time></trkpt><trkpt lat="45.62598383150668" lon="2.3775344823991063"><ele>871.0</ele><time>2026-03-29T13:39:55Z</time></trkpt><trkpt lat="45.6260249295467" lon="2.377456437353262"><ele>871.0</ele><time>2026-03-29T13:39:58Z</time></trkpt><trkpt lat="45.62607868875743" lon="2.3773556347714644"><ele>870.9999999999999</ele><time>2026-03-29T13:40:02Z</time></trkpt><trkpt lat="45.62613520274694" lon="2.377297581834904"><ele>871.0</ele><time>2026-03-29T13:40:05Z</time></trkpt><trkpt lat="45.62618150968852" lon="2.3772293290969126"><ele>870.8571428571429</ele><time>2026-03-29T13:40:08Z</time></trkpt><trkpt lat="45.62623667533661" lon="2.377163778828433"><ele>870.7142857142857</ele><time>2026-03-29T13:40:11Z</time></trkpt><trkpt lat="45.62629387694955" lon="2.377106629397524"><ele>870.5714285714287</ele><time>2026-03-29T13:40:14Z</time></trkpt><trkpt lat="45.62635054738744" lon="2.3770232455420555"><ele>870.4285714285714</ele><time>2026-03-29T13:40:18Z</time></trkpt><trkpt lat="45.62638699300558" lon="2.376949063065994"><ele>870.2857142857143</ele><time>2026-03-29T13:40:21Z</time></trkpt><trkpt lat="45.62643731122632" lon="2.376891781910155"><ele>870.1428571428572</ele><time>2026-03-29T13:40:24Z</time></trkpt><trkpt lat="45.62650070122635" lon="2.376842589191967"><ele>870.0</ele><time>2026-03-29T13:40:27Z</time></trkpt><trkpt lat="45.626557628870074" lon="2.37676654445938"><ele>870.0</ele><time>2026-03-29T13:40:31Z</time></trkpt><trkpt lat="45.62662586416437" lon="2.376711062961911"><ele>870.0</ele><time>2026-03-29T13:40:35Z</time></trkpt><trkpt lat="45.626678333799674" lon="2.376631896691486"><ele>870.0</ele><time>2026-03-29T13:40:39Z</time></trkpt><trkpt lat="45.62673663641443" lon="2.376570208088626"><ele>870.0</ele><time>2026-03-29T13:40:42Z</time></trkpt><trkpt lat="45.62679710191222" lon="2.3764848771589846"><ele>870.0</ele><time>2026-03-29T13:40:46Z</time></trkpt><trkpt lat="45.62684911603349" lon="2.376425400258347"><ele>870.0</ele><time>2026-03-29T13:40:49Z</time></trkpt><trkpt lat="45.626910863304055" lon="2.3763413727085267"><ele>870.1666666666666</ele><time>2026-03-29T13:40:53Z</time></trkpt><trkpt lat="45.626971353762976" lon="2.376283192702673"><ele>870.3333333333333</ele><time>2026-03-29T13:40:55.999Z</time></trkpt><trkpt lat="45.627030916457265" lon="2.376207512903546"><ele>870.5</ele><time>2026-03-29T13:40:59.999Z</time></trkpt><trkpt lat="45.627084244863184" lon="2.376145406420118"><ele>870.6666666666666</ele><time>2026-03-29T13:41:02.999Z</time></trkpt><trkpt lat="45.627143481557056" lon="2.3760778113203638"><ele>870.8333333333333</ele><time>2026-03-29T13:41:05.999Z</time></trkpt><trkpt lat="45.62720556659885" lon="2.3760125685547564"><ele>871.0</ele><time>2026-03-29T13:41:08.999Z</time></trkpt><trkpt lat="45.6272661297786" lon="2.375925806318058"><ele>870.9999999999999</ele><time>2026-03-29T13:41:11.999Z</time></trkpt><trkpt lat="45.627331832714" lon="2.3758439212286935"><ele>871.0</ele><time>2026-03-29T13:41:14.999Z</time></trkpt><trkpt lat="45.6273929543999" lon="2.3757666163389444"><ele>871.0</ele><time>2026-03-29T13:41:17.999Z</time></trkpt><trkpt lat="45.62743581235341" lon="2.3756969148448017"><ele>871.0</ele><time>2026-03-29T13:41:19.999Z</time></trkpt><trkpt lat="45.62750762363553" lon="2.3756099719337893"><ele>870.9999999999999</ele><time>2026-03-29T13:41:22.999Z</time></trkpt><trkpt lat="45.627555585493695" lon="2.3755493020381007"><ele>871.0</ele><time>2026-03-29T13:41:24.999Z</time></trkpt><trkpt lat="45.627613850810434" lon="2.375495424553511"><ele>871.7142857142857</ele><time>2026-03-29T13:41:26.999Z</time></trkpt><trkpt lat="45.62766520592974" lon="2.3754268504799985"><ele>872.4285714285713</ele><time>2026-03-29T13:41:28.999Z</time></trkpt><trkpt lat="45.627738189348015" lon="2.375339997726577"><ele>873.1428571428571</ele><time>2026-03-29T13:41:31.999Z</time></trkpt><trkpt lat="45.627791195102056" lon="2.375285718340019"><ele>873.8571428571429</ele><time>2026-03-29T13:41:33.999Z</time></trkpt><trkpt lat="45.62784240052744" lon="2.375226045060306"><ele>874.5714285714286</ele><time>2026-03-29T13:41:35.999Z</time></trkpt><trkpt lat="45.62788663859423" lon="2.3751594706044696"><ele>875.2857142857143</ele><time>2026-03-29T13:41:37.999Z</time></trkpt><trkpt lat="45.627941275398165" lon="2.3750957648731488"><ele>876.0</ele><time>2026-03-29T13:41:39.999Z</time></trkpt><trkpt lat="45.62799056501569" lon="2.375037436882843"><ele>874.6666666666666</ele><time>2026-03-29T13:41:41.999Z</time></trkpt><trkpt lat="45.62805319419113" lon="2.3749539031994007"><ele>873.3333333333333</ele><time>2026-03-29T13:41:44.999Z</time></trkpt><trkpt lat="45.62811628184138" lon="2.374870050320792"><ele>872.0</ele><time>2026-03-29T13:41:47.999Z</time></trkpt><trkpt lat="45.62818931130598" lon="2.3748042824847144"><ele>870.6666666666666</ele><time>2026-03-29T13:41:51Z</time></trkpt><trkpt lat="45.62825439372231" lon="2.374721202406826"><ele>869.3333333333333</ele><time>2026-03-29T13:41:54Z</time></trkpt><trkpt lat="45.62829820134342" lon="2.374633937589158"><ele>868.0</ele><time>2026-03-29T13:41:57Z</time></trkpt><trkpt lat="45.62837152948663" lon="2.3745665690768685"><ele>867.9999999999999</ele><time>2026-03-29T13:42:00Z</time></trkpt><trkpt lat="45.62843059702279" lon="2.374465189219441"><ele>868.0</ele><time>2026-03-29T13:42:04Z</time></trkpt><trkpt lat="45.62849505064329" lon="2.374403392396175"><ele>868.0</ele><time>2026-03-29T13:42:07Z</time></trkpt><trkpt lat="45.62855451995821" lon="2.374347172488917"><ele>868.0</ele><time>2026-03-29T13:42:10Z</time></trkpt><trkpt lat="45.62860748409147" lon="2.374279596224313"><ele>867.9999999999999</ele><time>2026-03-29T13:42:13Z</time></trkpt><trkpt lat="45.628662961505164" lon="2.3742104372718598"><ele>868.0</ele><time>2026-03-29T13:42:16Z</time></trkpt><trkpt lat="45.62872258585523" lon="2.3741749723025363"><ele>867.9999999999999</ele><time>2026-03-29T13:42:19Z</time></trkpt><trkpt lat="45.62878670918777" lon="2.374109996479402"><ele>868.0</ele><time>2026-03-29T13:42:23Z</time></trkpt><trkpt lat="45.628850208296285" lon="2.3740270426100563"><ele>868.0</ele><time>2026-03-29T13:42:27Z</time></trkpt><trkpt lat="45.62890875624148" lon="2.3739852545948676"><ele>868.0</ele><time>2026-03-29T13:42:30Z</time></trkpt><trkpt lat="45.628965671175244" lon="2.3739285331324407"><ele>867.9999999999999</ele><time>2026-03-29T13:42:33Z</time></trkpt><trkpt lat="45.62903149525162" lon="2.3738691473636595"><ele>868.0</ele><time>2026-03-29T13:42:36Z</time></trkpt><trkpt lat="45.629104024009436" lon="2.3737959105814816"><ele>867.9999999999999</ele><time>2026-03-29T13:42:39Z</time></trkpt><trkpt lat="45.629179744248596" lon="2.3737284158447247"><ele>868.0</ele><time>2026-03-29T13:42:42Z</time></trkpt><trkpt lat="45.62922439570671" lon="2.3736576609031705"><ele>868.0</ele><time>2026-03-29T13:42:44Z</time></trkpt><trkpt lat="45.62929112369171" lon="2.373618410584429"><ele>868.0</ele><time>2026-03-29T13:42:46Z</time></trkpt><trkpt lat="45.62934212302313" lon="2.3735480378551266"><ele>867.9999999999999</ele><time>2026-03-29T13:42:48Z</time></trkpt><trkpt lat="45.62940501497751" lon="2.373468967978864"><ele>868.0</ele><time>2026-03-29T13:42:50Z</time></trkpt><trkpt lat="45.62946274032072" lon="2.373393976961423"><ele>867.3333333333333</ele><time>2026-03-29T13:42:52Z</time></trkpt><trkpt lat="45.629506481950884" lon="2.373313501439696"><ele>866.6666666666666</ele><time>2026-03-29T13:42:54Z</time></trkpt><trkpt lat="45.62955866145934" lon="2.3732555660650108"><ele>866.0</ele><time>2026-03-29T13:42:56Z</time></trkpt><trkpt lat="45.62962956939739" lon="2.3731789942616803"><ele>865.3333333333333</ele><time>2026-03-29T13:42:58Z</time></trkpt><trkpt lat="45.6297007659133" lon="2.3730915847613216"><ele>864.6666666666666</ele><time>2026-03-29T13:43:00.999Z</time></trkpt><trkpt lat="45.629769172603304" lon="2.373005605118528"><ele>864.0</ele><time>2026-03-29T13:43:03.999Z</time></trkpt><trkpt lat="45.62982414541076" lon="2.3729457961749096"><ele>864.0</ele><time>2026-03-29T13:43:05.999Z</time></trkpt><trkpt lat="45.62990023919624" lon="2.372851146293079"><ele>864.0000000000001</ele><time>2026-03-29T13:43:08.999Z</time></trkpt><trkpt lat="45.62996769715395" lon="2.372762211615482"><ele>864.0000000000001</ele><time>2026-03-29T13:43:11.999Z</time></trkpt><trkpt lat="45.63002322299387" lon="2.3727100196749884"><ele>864.0</ele><time>2026-03-29T13:43:13.999Z</time></trkpt><trkpt lat="45.63006948930585" lon="2.3725967256555367"><ele>864.0</ele><time>2026-03-29T13:43:16.999Z</time></trkpt><trkpt lat="45.63013372488628" lon="2.3724854359362073"><ele>864.0</ele><time>2026-03-29T13:43:19.999Z</time></trkpt><trkpt lat="45.63016652134725" lon="2.372387337545006"><ele>864.0</ele><time>2026-03-29T13:43:22.999Z</time></trkpt><trkpt lat="45.63019585647788" lon="2.3722806784343575"><ele>864.0</ele><time>2026-03-29T13:43:25.999Z</time></trkpt><trkpt lat="45.63019904738858" lon="2.3721601141898763"><ele>864.0</ele><time>2026-03-29T13:43:27.999Z</time></trkpt><trkpt lat="45.630250094848" lon="2.372050988296881"><ele>864.0</ele><time>2026-03-29T13:43:30.999Z</time></trkpt><trkpt lat="45.63029607489194" lon="2.3719509370273943"><ele>864.0</ele><time>2026-03-29T13:43:33.999Z</time></trkpt><trkpt lat="45.630326898095994" lon="2.3718569566806296"><ele>863.0</ele><time>2026-03-29T13:43:35.999Z</time></trkpt><trkpt lat="45.63036265327375" lon="2.3717589595684943"><ele>862.0</ele><time>2026-03-29T13:43:37.999Z</time></trkpt><trkpt lat="45.63040125620147" lon="2.3716686774216527"><ele>861.0</ele><time>2026-03-29T13:43:40.999Z</time></trkpt><trkpt lat="45.63044025608209" lon="2.371550613583918"><ele>860.0</ele><time>2026-03-29T13:43:43.999Z</time></trkpt><trkpt lat="45.63049131587108" lon="2.371458219036806"><ele>859.0</ele><time>2026-03-29T13:43:46.999Z</time></trkpt><trkpt lat="45.630540430238" lon="2.3713499045573654"><ele>858.0</ele><time>2026-03-29T13:43:49.999Z</time></trkpt><trkpt lat="45.630597585453955" lon="2.3712620216993217"><ele>857.7142857142858</ele><time>2026-03-29T13:43:52.999Z</time></trkpt><trkpt lat="45.630610447721544" lon="2.3711574607223396"><ele>857.4285714285714</ele><time>2026-03-29T13:43:54.999Z</time></trkpt><trkpt lat="45.630653680802574" lon="2.371061357841706"><ele>857.1428571428571</ele><time>2026-03-29T13:43:58Z</time></trkpt><trkpt lat="45.63069542281599" lon="2.3709609731098817"><ele>856.8571428571429</ele><time>2026-03-29T13:44:01Z</time></trkpt><trkpt lat="45.63072166053259" lon="2.370876917290751"><ele>856.5714285714286</ele><time>2026-03-29T13:44:04Z</time></trkpt><trkpt lat="45.63079438967305" lon="2.3708382515600066"><ele>856.2857142857143</ele><time>2026-03-29T13:44:09Z</time></trkpt><trkpt lat="45.630845221568094" lon="2.3707736371507155"><ele>856.0</ele><time>2026-03-29T13:44:12Z</time></trkpt><trkpt lat="45.63089780561977" lon="2.370703065272528"><ele>856.0000000000001</ele><time>2026-03-29T13:44:15Z</time></trkpt><trkpt lat="45.63093190599061" lon="2.3706248753628585"><ele>856.0</ele><time>2026-03-29T13:44:18Z</time></trkpt><trkpt lat="45.630959735014905" lon="2.3705438862052794"><ele>856.0</ele><time>2026-03-29T13:44:21Z</time></trkpt><trkpt lat="45.631000866753844" lon="2.3704454933791568"><ele>856.0</ele><time>2026-03-29T13:44:25Z</time></trkpt><trkpt lat="45.63104122425201" lon="2.3703523608461"><ele>856.0</ele><time>2026-03-29T13:44:29Z</time></trkpt><trkpt lat="45.63109050943582" lon="2.370271705352861"><ele>856.0000000000001</ele><time>2026-03-29T13:44:34Z</time></trkpt><trkpt lat="45.63114874454037" lon="2.37017693680173"><ele>856.0</ele><time>2026-03-29T13:44:39Z</time></trkpt><trkpt lat="45.63121369107531" lon="2.3701561200758103"><ele>855.9999999999999</ele><time>2026-03-29T13:44:42Z</time></trkpt><trkpt lat="45.63127628780364" lon="2.370218707644746"><ele>856.0</ele><time>2026-03-29T13:44:46Z</time></trkpt><trkpt lat="45.631327243649004" lon="2.37029445708223"><ele>856.0</ele><time>2026-03-29T13:44:49Z</time></trkpt><trkpt lat="45.6314127332799" lon="2.370366275774042"><ele>856.0</ele><time>2026-03-29T13:44:53Z</time></trkpt><trkpt lat="45.631482637576" lon="2.370436492964421"><ele>855.9999999999999</ele><time>2026-03-29T13:44:58Z</time></trkpt><trkpt lat="45.63154867392582" lon="2.3704481873919017"><ele>856.0</ele><time>2026-03-29T13:45:01Z</time></trkpt><trkpt lat="45.63158339795635" lon="2.370530540907177"><ele>856.0000000000001</ele><time>2026-03-29T13:45:05Z</time></trkpt><trkpt lat="45.631638046196414" lon="2.370612640436081"><ele>856.0</ele><time>2026-03-29T13:45:08.999Z</time></trkpt><trkpt lat="45.63169802232523" lon="2.3706948643972043"><ele>856.0</ele><time>2026-03-29T13:45:13.999Z</time></trkpt><trkpt lat="45.63174442969903" lon="2.3707729050529007"><ele>856.0</ele><time>2026-03-29T13:45:17.999Z</time></trkpt><trkpt lat="45.6317916256445" lon="2.370837340458867"><ele>856.0</ele><time>2026-03-29T13:45:24.999Z</time></trkpt><trkpt lat="45.631845507453306" lon="2.370916533370891"><ele>856.0000000000001</ele><time>2026-03-29T13:45:26.999Z</time></trkpt><trkpt lat="45.631879992631006" lon="2.3710002028619006"><ele>856.0</ele><time>2026-03-29T13:45:31.999Z</time></trkpt><trkpt lat="45.63190770623637" lon="2.371084324551577"><ele>856.0000000000001</ele><time>2026-03-29T13:45:35.999Z</time></trkpt><trkpt lat="45.63195199408864" lon="2.3711624493559276"><ele>856.0</ele><time>2026-03-29T13:45:39.999Z</time></trkpt><trkpt lat="45.63199245170291" lon="2.37123746794921"><ele>856.0</ele><time>2026-03-29T13:45:43.999Z</time></trkpt><trkpt lat="45.63202717702287" lon="2.371320780547052"><ele>856.0</ele><time>2026-03-29T13:45:48.999Z</time></trkpt><trkpt lat="45.63208692291643" lon="2.371411504259305"><ele>856.0</ele><time>2026-03-29T13:45:53.999Z</time></trkpt><trkpt lat="45.63214762797316" lon="2.3714896930937033"><ele>856.0000000000001</ele><time>2026-03-29T13:45:57.999Z</time></trkpt><trkpt lat="45.632180694616174" lon="2.3715879308884804"><ele>856.0</ele><time>2026-03-29T13:46:02Z</time></trkpt><trkpt lat="45.63222512963237" lon="2.3716592057858294"><ele>855.5714285714287</ele><time>2026-03-29T13:46:06Z</time></trkpt><trkpt lat="45.63228847371181" lon="2.371677180219588"><ele>855.1428571428571</ele><time>2026-03-29T13:46:11Z</time></trkpt><trkpt lat="45.632353639421794" lon="2.3716807423688766"><ele>854.7142857142858</ele><time>2026-03-29T13:46:16Z</time></trkpt><trkpt lat="45.63241695982746" lon="2.3716930922831136"><ele>854.2857142857143</ele><time>2026-03-29T13:46:22Z</time></trkpt><trkpt lat="45.632460058288366" lon="2.3717799509458986"><ele>853.8571428571429</ele><time>2026-03-29T13:46:38Z</time></trkpt><trkpt lat="45.63248987938743" lon="2.371868435494611"><ele>853.4285714285714</ele><time>2026-03-29T13:46:43Z</time></trkpt><trkpt lat="45.63251802641119" lon="2.3719729048702183"><ele>853.0</ele><time>2026-03-29T13:46:48Z</time></trkpt><trkpt lat="45.63253545733551" lon="2.372062006329073"><ele>852.9999999999999</ele><time>2026-03-29T13:46:52Z</time></trkpt><trkpt lat="45.632546078404125" lon="2.372159539000059"><ele>853.0</ele><time>2026-03-29T13:46:55Z</time></trkpt><trkpt lat="45.63254655513035" lon="2.3722563533667445"><ele>853.0</ele><time>2026-03-29T13:46:57Z</time></trkpt><trkpt lat="45.63253470523014" lon="2.372404721160561"><ele>853.0</ele><time>2026-03-29T13:47:01Z</time></trkpt><trkpt lat="45.632506679163846" lon="2.3724887851261336"><ele>852.9999999999999</ele><time>2026-03-29T13:47:02Z</time></trkpt><trkpt lat="45.632469479614656" lon="2.3726039775757597"><ele>853.0</ele><time>2026-03-29T13:47:04Z</time></trkpt><trkpt lat="45.6324511472309" lon="2.372719616711608"><ele>852.2857142857142</ele><time>2026-03-29T13:47:06Z</time></trkpt><trkpt lat="45.632442303176106" lon="2.3728110710656174"><ele>851.5714285714287</ele><time>2026-03-29T13:47:08.999Z</time></trkpt><trkpt lat="45.6324747973739" lon="2.3728912242482076"><ele>850.8571428571429</ele><time>2026-03-29T13:47:48.999Z</time></trkpt><trkpt lat="45.632514111691314" lon="2.372979957931217"><ele>850.1428571428571</ele><time>2026-03-29T13:47:51.999Z</time></trkpt><trkpt lat="45.63254876184174" lon="2.373058981385222"><ele>849.4285714285713</ele><time>2026-03-29T13:47:53.999Z</time></trkpt><trkpt lat="45.632587225095584" lon="2.3731334405825617"><ele>848.7142857142858</ele><time>2026-03-29T13:47:55.999Z</time></trkpt><trkpt lat="45.63261756845466" lon="2.3732162270118518"><ele>848.0</ele><time>2026-03-29T13:47:58.999Z</time></trkpt><trkpt lat="45.63264118578683" lon="2.373314304380897"><ele>846.0000000000001</ele><time>2026-03-29T13:48:02.999Z</time></trkpt><trkpt lat="45.63267944555515" lon="2.3733878831427337"><ele>844.0</ele><time>2026-03-29T13:48:04.999Z</time></trkpt><trkpt lat="45.632721059518175" lon="2.373504292957318"><ele>842.0</ele><time>2026-03-29T13:48:08Z</time></trkpt><trkpt lat="45.632746981462944" lon="2.373600824477573"><ele>840.0</ele><time>2026-03-29T13:48:10Z</time></trkpt><trkpt lat="45.632770227292895" lon="2.373692338341177"><ele>838.0000000000001</ele><time>2026-03-29T13:48:12Z</time></trkpt><trkpt lat="45.63280811434736" lon="2.37380326875853"><ele>836.0</ele><time>2026-03-29T13:48:15Z</time></trkpt><trkpt lat="45.6328629185297" lon="2.373907070250822"><ele>833.5000000000001</ele><time>2026-03-29T13:48:17Z</time></trkpt><trkpt lat="45.63292810846477" lon="2.373983143379773"><ele>831.0</ele><time>2026-03-29T13:48:19Z</time></trkpt><trkpt lat="45.6329789709156" lon="2.3740439436562903"><ele>828.5</ele><time>2026-03-29T13:48:21Z</time></trkpt><trkpt lat="45.63303690958992" lon="2.374113788112738"><ele>826.0</ele><time>2026-03-29T13:48:23Z</time></trkpt><trkpt lat="45.63312611908483" lon="2.3742251326838266"><ele>823.5000000000001</ele><time>2026-03-29T13:48:25Z</time></trkpt><trkpt lat="45.6331762258962" lon="2.3743220267691303"><ele>821.0</ele><time>2026-03-29T13:48:27Z</time></trkpt><trkpt lat="45.63324901244314" lon="2.3743616189797794"><ele>821.0000000000001</ele><time>2026-03-29T13:48:29Z</time></trkpt><trkpt lat="45.63329240546746" lon="2.3744736275134106"><ele>821.0</ele><time>2026-03-29T13:48:32Z</time></trkpt><trkpt lat="45.633333750843796" lon="2.374564947936569"><ele>821.0</ele><time>2026-03-29T13:48:36Z</time></trkpt><trkpt lat="45.633412313110384" lon="2.374643691341579"><ele>821.0</ele><time>2026-03-29T13:48:39Z</time></trkpt><trkpt lat="45.633391739481674" lon="2.3747433506401006"><ele>821.0000000000001</ele><time>2026-03-29T13:48:50Z</time></trkpt><trkpt lat="45.63341534482589" lon="2.374849916765459"><ele>821.0</ele><time>2026-03-29T13:49:23.999Z</time></trkpt><trkpt lat="45.63344899374819" lon="2.374939684289557"><ele>820.4285714285714</ele><time>2026-03-29T13:49:25.999Z</time></trkpt><trkpt lat="45.633482682258375" lon="2.3750327030375455"><ele>819.8571428571429</ele><time>2026-03-29T13:49:27.999Z</time></trkpt><trkpt lat="45.63352678399851" lon="2.3751015392410872"><ele>819.2857142857142</ele><time>2026-03-29T13:49:32.999Z</time></trkpt><trkpt lat="45.633518300615506" lon="2.375193290699606"><ele>818.7142857142858</ele><time>2026-03-29T13:49:41.999Z</time></trkpt><trkpt lat="45.633530215001485" lon="2.375281814162242"><ele>818.1428571428571</ele><time>2026-03-29T13:49:43.999Z</time></trkpt><trkpt lat="45.63356017034377" lon="2.3753736874888"><ele>817.5714285714286</ele><time>2026-03-29T13:49:47.999Z</time></trkpt><trkpt lat="45.63357304374647" lon="2.375464249920043"><ele>817.0</ele><time>2026-03-29T13:49:49.999Z</time></trkpt><trkpt lat="45.63359758442795" lon="2.375581256820514"><ele>816.6666666666666</ele><time>2026-03-29T13:49:52.999Z</time></trkpt><trkpt lat="45.63364819243381" lon="2.375666643381553"><ele>816.3333333333333</ele><time>2026-03-29T13:49:55.999Z</time></trkpt><trkpt lat="45.63368170634302" lon="2.3757438505863875"><ele>816.0</ele><time>2026-03-29T13:49:57.999Z</time></trkpt><trkpt lat="45.63366763373204" lon="2.3758559381946407"><ele>815.6666666666667</ele><time>2026-03-29T13:49:59.999Z</time></trkpt><trkpt lat="45.63367602451302" lon="2.3759747763180745"><ele>815.3333333333334</ele><time>2026-03-29T13:50:01.999Z</time></trkpt><trkpt lat="45.6337117980905" lon="2.376069063807765"><ele>815.0</ele><time>2026-03-29T13:50:03.999Z</time></trkpt><trkpt lat="45.633740837306064" lon="2.3761816630919403"><ele>815.0</ele><time>2026-03-29T13:50:05.999Z</time></trkpt><trkpt lat="45.63371759093313" lon="2.376319658566886"><ele>815.0</ele><time>2026-03-29T13:50:07.999Z</time></trkpt><trkpt lat="45.63373067262183" lon="2.3764382604651333"><ele>815.0</ele><time>2026-03-29T13:50:09.999Z</time></trkpt><trkpt lat="45.63372121353077" lon="2.37655851507456"><ele>815.0</ele><time>2026-03-29T13:50:11.999Z</time></trkpt><trkpt lat="45.633746364055476" lon="2.376697277446647"><ele>815.0</ele><time>2026-03-29T13:50:15Z</time></trkpt><trkpt lat="45.63374011726794" lon="2.3768443799321433"><ele>813.4</ele><time>2026-03-29T13:50:17Z</time></trkpt><trkpt lat="45.633722777158425" lon="2.376966360390753"><ele>811.8</ele><time>2026-03-29T13:50:19Z</time></trkpt><trkpt lat="45.633719765981226" lon="2.377088335273347"><ele>810.2</ele><time>2026-03-29T13:50:21Z</time></trkpt><trkpt lat="45.633699798667784" lon="2.3772635962073783"><ele>808.6</ele><time>2026-03-29T13:50:23Z</time></trkpt><trkpt lat="45.63367520064405" lon="2.3773770414619673"><ele>807.0</ele><time>2026-03-29T13:50:25Z</time></trkpt><trkpt lat="45.633660408064664" lon="2.3775169891119923"><ele>805.2</ele><time>2026-03-29T13:50:28Z</time></trkpt><trkpt lat="45.63366479041607" lon="2.377666874870098"><ele>803.4000000000001</ele><time>2026-03-29T13:50:30Z</time></trkpt><trkpt lat="45.633705568475364" lon="2.377808346422656"><ele>801.5999999999999</ele><time>2026-03-29T13:50:32Z</time></trkpt><trkpt lat="45.63366243540616" lon="2.3778963103987625"><ele>799.8</ele><time>2026-03-29T13:50:35Z</time></trkpt><trkpt lat="45.63371230869401" lon="2.3780330110811048"><ele>798.0</ele><time>2026-03-29T13:55:10.999Z</time></trkpt><trkpt lat="45.63371729395728" lon="2.37813909502993"><ele>796.8333333333334</ele><time>2026-03-29T13:55:13.999Z</time></trkpt><trkpt lat="45.63373979998432" lon="2.378240907037283"><ele>795.6666666666667</ele><time>2026-03-29T13:55:16.999Z</time></trkpt><trkpt lat="45.63378609659499" lon="2.3783194553127216"><ele>794.5</ele><time>2026-03-29T13:55:19.999Z</time></trkpt><trkpt lat="45.63379024907669" lon="2.378414186406289"><ele>793.3333333333334</ele><time>2026-03-29T13:55:21.999Z</time></trkpt><trkpt lat="45.63384470338781" lon="2.3785234601233993"><ele>792.1666666666667</ele><time>2026-03-29T13:55:25.999Z</time></trkpt><trkpt lat="45.63385905467244" lon="2.37865713180884"><ele>791.0</ele><time>2026-03-29T13:55:28.999Z</time></trkpt><trkpt lat="45.63388315895871" lon="2.378759549480711"><ele>790.3333333333334</ele><time>2026-03-29T13:55:30.999Z</time></trkpt><trkpt lat="45.633914124007966" lon="2.3788519407737296"><ele>789.6666666666667</ele><time>2026-03-29T13:55:33.999Z</time></trkpt><trkpt lat="45.633913419970774" lon="2.3789766382446866"><ele>789.0</ele><time>2026-03-29T13:55:36.999Z</time></trkpt><trkpt lat="45.63390332021975" lon="2.3790704093006525"><ele>788.3333333333333</ele><time>2026-03-29T13:55:38.999Z</time></trkpt><trkpt lat="45.6339230809382" lon="2.379181994611046"><ele>787.6666666666666</ele><time>2026-03-29T13:55:41.999Z</time></trkpt><trkpt lat="45.63391748392653" lon="2.3792852091744914"><ele>787.0</ele><time>2026-03-29T13:55:44.999Z</time></trkpt><trkpt lat="45.633922971104354" lon="2.3794038029739544"><ele>787.0</ele><time>2026-03-29T13:55:47.999Z</time></trkpt><trkpt lat="45.633899250647374" lon="2.3794874250994766"><ele>787.0</ele><time>2026-03-29T13:55:50.999Z</time></trkpt><trkpt lat="45.63388374436598" lon="2.379612293091372"><ele>787.0</ele><time>2026-03-29T13:55:54.999Z</time></trkpt><trkpt lat="45.633895640188896" lon="2.3797076560917625"><ele>787.0</ele><time>2026-03-29T13:55:57.999Z</time></trkpt><trkpt lat="45.63391374785632" lon="2.3798141436484026"><ele>787.0</ele><time>2026-03-29T13:56:01.999Z</time></trkpt><trkpt lat="45.63391724928015" lon="2.3799172959763553"><ele>787.0</ele><time>2026-03-29T13:56:04.999Z</time></trkpt><trkpt lat="45.63391677028842" lon="2.3800240343181085"><ele>787.0</ele><time>2026-03-29T13:56:09.999Z</time></trkpt><trkpt lat="45.63390427206654" lon="2.380123747836431"><ele>786.4285714285714</ele><time>2026-03-29T13:56:19.999Z</time></trkpt><trkpt lat="45.633906363721984" lon="2.380226370648521"><ele>785.8571428571429</ele><time>2026-03-29T13:56:26.999Z</time></trkpt><trkpt lat="45.63390294689409" lon="2.380316450336857"><ele>785.2857142857142</ele><time>2026-03-29T13:56:32.999Z</time></trkpt><trkpt lat="45.63391222016588" lon="2.3804217616287517"><ele>784.7142857142858</ele><time>2026-03-29T13:56:37.999Z</time></trkpt><trkpt lat="45.63391731694046" lon="2.3805327107678433"><ele>784.1428571428572</ele><time>2026-03-29T13:56:41.999Z</time></trkpt><trkpt lat="45.63392190180683" lon="2.3806262370754028"><ele>783.5714285714286</ele><time>2026-03-29T13:56:44.999Z</time></trkpt><trkpt lat="45.633914616331666" lon="2.380728645752454"><ele>783.0</ele><time>2026-03-29T13:56:48.999Z</time></trkpt><trkpt lat="45.6339064392161" lon="2.380818976808805"><ele>783.0</ele><time>2026-03-29T13:56:51.999Z</time></trkpt><trkpt lat="45.63390757826884" lon="2.380924017808495"><ele>783.0</ele><time>2026-03-29T13:56:54.999Z</time></trkpt><trkpt lat="45.6339055582163" lon="2.3810371607933023"><ele>783.0</ele><time>2026-03-29T13:56:57.999Z</time></trkpt><trkpt lat="45.63389994720881" lon="2.3811558390804874"><ele>783.0</ele><time>2026-03-29T13:57:00.999Z</time></trkpt><trkpt lat="45.633896137666895" lon="2.3812766716087186"><ele>783.0</ele><time>2026-03-29T13:57:03.999Z</time></trkpt><trkpt lat="45.63389790868642" lon="2.381387859686861"><ele>783.0</ele><time>2026-03-29T13:57:06.999Z</time></trkpt><trkpt lat="45.6338966413736" lon="2.381493709412214"><ele>782.8333333333334</ele><time>2026-03-29T13:57:09.999Z</time></trkpt><trkpt lat="45.633883999894884" lon="2.3815973830567727"><ele>782.6666666666667</ele><time>2026-03-29T13:57:12.999Z</time></trkpt><trkpt lat="45.63389427976209" lon="2.3817228451808026"><ele>782.5</ele><time>2026-03-29T13:57:15.999Z</time></trkpt><trkpt lat="45.6338879793209" lon="2.3818336515442464"><ele>782.3333333333334</ele><time>2026-03-29T13:57:18.999Z</time></trkpt><trkpt lat="45.63388740602873" lon="2.381961257301824"><ele>782.1666666666667</ele><time>2026-03-29T13:57:21.999Z</time></trkpt><trkpt lat="45.63388061520212" lon="2.382082139599539"><ele>782.0</ele><time>2026-03-29T13:57:24.999Z</time></trkpt><trkpt lat="45.6338896308836" lon="2.3821771364249025"><ele>781.7142857142857</ele><time>2026-03-29T13:57:26.999Z</time></trkpt><trkpt lat="45.633892000489574" lon="2.3822776448441085"><ele>781.4285714285714</ele><time>2026-03-29T13:57:28.999Z</time></trkpt><trkpt lat="45.63389612881943" lon="2.3823886850947993"><ele>781.1428571428571</ele><time>2026-03-29T13:57:30.999Z</time></trkpt><trkpt lat="45.633908464646936" lon="2.382490540971521"><ele>780.8571428571429</ele><time>2026-03-29T13:57:32.999Z</time></trkpt><trkpt lat="45.63390772913247" lon="2.3825865356309173"><ele>780.5714285714286</ele><time>2026-03-29T13:57:34.999Z</time></trkpt><trkpt lat="45.63390550920911" lon="2.382695033738172"><ele>780.2857142857142</ele><time>2026-03-29T13:57:36.999Z</time></trkpt><trkpt lat="45.633900763471246" lon="2.382798557253168"><ele>780.0</ele><time>2026-03-29T13:57:39.999Z</time></trkpt><trkpt lat="45.6338900912936" lon="2.3829193613634616"><ele>779.4285714285714</ele><time>2026-03-29T13:57:42.999Z</time></trkpt><trkpt lat="45.63388366775845" lon="2.3830261655387335"><ele>778.8571428571429</ele><time>2026-03-29T13:57:45.999Z</time></trkpt><trkpt lat="45.63388217673927" lon="2.3831481949736895"><ele>778.2857142857142</ele><time>2026-03-29T13:57:48.999Z</time></trkpt><trkpt lat="45.63389153142699" lon="2.383243237509416"><ele>777.7142857142858</ele><time>2026-03-29T13:57:50.999Z</time></trkpt><trkpt lat="45.6338863944195" lon="2.383342140474928"><ele>777.1428571428572</ele><time>2026-03-29T13:57:52.999Z</time></trkpt><trkpt lat="45.6338819974646" lon="2.383448938183404"><ele>776.5714285714286</ele><time>2026-03-29T13:57:54.999Z</time></trkpt><trkpt lat="45.63388441597678" lon="2.383559175462486"><ele>776.0</ele><time>2026-03-29T13:57:56.999Z</time></trkpt><trkpt lat="45.633887774678996" lon="2.3836702080151806"><ele>776.0000000000001</ele><time>2026-03-29T13:57:58.999Z</time></trkpt><trkpt lat="45.633891121706355" lon="2.383783358550195"><ele>776.0</ele><time>2026-03-29T13:58:00.999Z</time></trkpt><trkpt lat="45.633889107493836" lon="2.383888387044373"><ele>776.0</ele><time>2026-03-29T13:58:02.999Z</time></trkpt><trkpt lat="45.63389365543023" lon="2.383991325476708"><ele>776.0</ele><time>2026-03-29T13:58:04.999Z</time></trkpt><trkpt lat="45.63389269739716" lon="2.3841218406439624"><ele>776.0000000000001</ele><time>2026-03-29T13:58:07.999Z</time></trkpt><trkpt lat="45.6338331369993" lon="2.3841995707977"><ele>776.0</ele><time>2026-03-29T13:58:09.999Z</time></trkpt><trkpt lat="45.633843815757224" lon="2.3842944034646365"><ele>776.0000000000001</ele><time>2026-03-29T13:58:11.999Z</time></trkpt><trkpt lat="45.63384951830395" lon="2.384413530082037"><ele>776.0</ele><time>2026-03-29T13:58:13.999Z</time></trkpt><trkpt lat="45.633848899204544" lon="2.3845358841996345"><ele>776.0</ele><time>2026-03-29T13:58:16.999Z</time></trkpt><trkpt lat="45.63386479728847" lon="2.3846378103339565"><ele>776.0</ele><time>2026-03-29T13:58:18.999Z</time></trkpt><trkpt lat="45.633853061637524" lon="2.3847484401332473"><ele>776.0000000000001</ele><time>2026-03-29T13:58:21.999Z</time></trkpt><trkpt lat="45.6338656324044" lon="2.3848533561672682"><ele>776.0</ele><time>2026-03-29T13:58:24.999Z</time></trkpt><trkpt lat="45.63388903159488" lon="2.3849374901349494"><ele>775.7142857142857</ele><time>2026-03-29T13:58:27.999Z</time></trkpt><trkpt lat="45.63392668930748" lon="2.3850274897687123"><ele>775.4285714285714</ele><time>2026-03-29T13:58:31.999Z</time></trkpt><trkpt lat="45.633985217863845" lon="2.3850655131499745"><ele>775.1428571428571</ele><time>2026-03-29T13:58:35.999Z</time></trkpt><trkpt lat="45.63406175098002" lon="2.385050441801172"><ele>774.8571428571429</ele><time>2026-03-29T13:58:42Z</time></trkpt><trkpt lat="45.63412865324014" lon="2.3850320073633005"><ele>774.5714285714287</ele><time>2026-03-29T13:58:46Z</time></trkpt><trkpt lat="45.63421080851084" lon="2.385027980084986"><ele>774.2857142857143</ele><time>2026-03-29T13:58:50Z</time></trkpt><trkpt lat="45.63427962430707" lon="2.3850162507692927"><ele>774.0</ele><time>2026-03-29T13:58:54Z</time></trkpt><trkpt lat="45.6343637351066" lon="2.3849889018832546"><ele>774.0</ele><time>2026-03-29T13:58:58Z</time></trkpt><trkpt lat="45.63444850975888" lon="2.3849620780959264"><ele>774.0</ele><time>2026-03-29T13:59:01Z</time></trkpt><trkpt lat="45.63452321270245" lon="2.384935939577052"><ele>774.0</ele><time>2026-03-29T13:59:04Z</time></trkpt><trkpt lat="45.63459613289486" lon="2.384920466691768"><ele>774.0</ele><time>2026-03-29T13:59:07Z</time></trkpt><trkpt lat="45.63467623355568" lon="2.3849181256804877"><ele>774.0</ele><time>2026-03-29T13:59:10Z</time></trkpt><trkpt lat="45.63474709882114" lon="2.384881410383895"><ele>774.0</ele><time>2026-03-29T13:59:13Z</time></trkpt><trkpt lat="45.63482794365853" lon="2.3848619934993067"><ele>774.0</ele><time>2026-03-29T13:59:16Z</time></trkpt><trkpt lat="45.63490681009973" lon="2.3848626617931794"><ele>774.0</ele><time>2026-03-29T13:59:19Z</time></trkpt><trkpt lat="45.63497169401049" lon="2.384820371927724"><ele>774.0</ele><time>2026-03-29T13:59:21Z</time></trkpt><trkpt lat="45.63503849794984" lon="2.3848364667876045"><ele>774.0</ele><time>2026-03-29T13:59:23Z</time></trkpt><trkpt lat="45.635110285683915" lon="2.3848526073521694"><ele>774.0</ele><time>2026-03-29T13:59:28Z</time></trkpt><trkpt lat="45.635176558899516" lon="2.384818244551574"><ele>774.0</ele><time>2026-03-29T13:59:32Z</time></trkpt><trkpt lat="45.63524748260423" lon="2.3847859970395775"><ele>774.0</ele><time>2026-03-29T13:59:37Z</time></trkpt><trkpt lat="45.63532940527995" lon="2.3847690606234417"><ele>774.0</ele><time>2026-03-29T13:59:41Z</time></trkpt><trkpt lat="45.63540588057289" lon="2.384757451471667"><ele>774.0</ele><time>2026-03-29T13:59:44Z</time></trkpt><trkpt lat="45.63548102053422" lon="2.384735195525046"><ele>774.0</ele><time>2026-03-29T13:59:47Z</time></trkpt><trkpt lat="45.635550173987525" lon="2.3847099374257814"><ele>774.0</ele><time>2026-03-29T13:59:50Z</time></trkpt><trkpt lat="45.635632740448614" lon="2.3846979722892825"><ele>774.0</ele><time>2026-03-29T13:59:53Z</time></trkpt><trkpt lat="45.63570297558424" lon="2.384657042833927"><ele>774.0</ele><time>2026-03-29T13:59:57Z</time></trkpt><trkpt lat="45.63578426727039" lon="2.3846251198329194"><ele>774.0</ele><time>2026-03-29T14:00:01Z</time></trkpt><trkpt lat="45.63585533041796" lon="2.3846443424217987"><ele>774.0</ele><time>2026-03-29T14:00:04Z</time></trkpt><trkpt lat="45.63593181648467" lon="2.3846250947056"><ele>774.0</ele><time>2026-03-29T14:00:08Z</time></trkpt><trkpt lat="45.636003744555296" lon="2.384593776681686"><ele>774.0</ele><time>2026-03-29T14:00:11Z</time></trkpt><trkpt lat="45.63608226170805" lon="2.384600998983478"><ele>774.0</ele><time>2026-03-29T14:00:15Z</time></trkpt><trkpt lat="45.63615008179987" lon="2.384633023511585"><ele>774.0</ele><time>2026-03-29T14:00:20Z</time></trkpt><trkpt lat="45.636225635235526" lon="2.3846548460443007"><ele>775.1428571428571</ele><time>2026-03-29T14:00:24Z</time></trkpt><trkpt lat="45.63628116557595" lon="2.384699325081089"><ele>776.2857142857143</ele><time>2026-03-29T14:00:28Z</time></trkpt><trkpt lat="45.63633504102666" lon="2.384759420555537"><ele>777.4285714285713</ele><time>2026-03-29T14:00:33Z</time></trkpt><trkpt lat="45.63640168435498" lon="2.384790267217512"><ele>778.5714285714286</ele><time>2026-03-29T14:00:49Z</time></trkpt><trkpt lat="45.63645820008647" lon="2.384836010531281"><ele>779.7142857142857</ele><time>2026-03-29T14:00:55Z</time></trkpt><trkpt lat="45.63651634434126" lon="2.3848871421524684"><ele>780.8571428571428</ele><time>2026-03-29T14:01:03Z</time></trkpt><trkpt lat="45.6365755875372" lon="2.3849177900034517"><ele>782.0</ele><time>2026-03-29T14:01:10Z</time></trkpt><trkpt lat="45.63662865648523" lon="2.3849679186114368"><ele>781.9999999999999</ele><time>2026-03-29T14:01:18Z</time></trkpt><trkpt lat="45.63668676078711" lon="2.3850123310234106"><ele>782.0</ele><time>2026-03-29T14:01:26Z</time></trkpt><trkpt lat="45.63674543974295" lon="2.3850614137111856"><ele>782.0</ele><time>2026-03-29T14:01:37Z</time></trkpt><trkpt lat="45.636805468247175" lon="2.3851005443428726"><ele>782.0</ele><time>2026-03-29T14:02:11Z</time></trkpt><trkpt lat="45.636868397087774" lon="2.385147538357892"><ele>782.0</ele><time>2026-03-29T14:02:21Z</time></trkpt><trkpt lat="45.6369279647305" lon="2.3851920222981438"><ele>781.9999999999999</ele><time>2026-03-29T14:02:31Z</time></trkpt><trkpt lat="45.63698485385124" lon="2.385234505974783"><ele>782.0</ele><time>2026-03-29T14:02:38Z</time></trkpt><trkpt lat="45.63704495076656" lon="2.385279385166953"><ele>783.7142857142857</ele><time>2026-03-29T14:02:45Z</time></trkpt><trkpt lat="45.63710430260414" lon="2.3853307519811917"><ele>785.4285714285714</ele><time>2026-03-29T14:03:08Z</time></trkpt><trkpt lat="45.63717490197256" lon="2.3853814305879353"><ele>787.1428571428571</ele><time>2026-03-29T14:03:15Z</time></trkpt><trkpt lat="45.637235175968755" lon="2.3854085804051"><ele>788.8571428571429</ele><time>2026-03-29T14:03:25Z</time></trkpt><trkpt lat="45.63730004237622" lon="2.385453322861271"><ele>790.5714285714286</ele><time>2026-03-29T14:03:35Z</time></trkpt><trkpt lat="45.63735482065241" lon="2.385498341074654"><ele>792.2857142857142</ele><time>2026-03-29T14:03:46Z</time></trkpt><trkpt lat="45.63741498712808" lon="2.385549703119891"><ele>794.0</ele><time>2026-03-29T14:04:15Z</time></trkpt><trkpt lat="45.637476418972035" lon="2.385595007837517"><ele>794.2857142857142</ele><time>2026-03-29T14:04:34Z</time></trkpt><trkpt lat="45.63753395139827" lon="2.3856392966806363"><ele>794.5714285714286</ele><time>2026-03-29T14:04:45Z</time></trkpt><trkpt lat="45.63760636375332" lon="2.3856950401894497"><ele>794.8571428571429</ele><time>2026-03-29T14:04:58.001Z</time></trkpt><trkpt lat="45.63767593860427" lon="2.3857502911164103"><ele>795.1428571428571</ele><time>2026-03-29T14:05:26Z</time></trkpt><trkpt lat="45.63773129680593" lon="2.3857947138007516"><ele>795.4285714285714</ele><time>2026-03-29T14:05:34Z</time></trkpt><trkpt lat="45.63778755116267" lon="2.3858424284316277"><ele>795.7142857142857</ele><time>2026-03-29T14:05:48Z</time></trkpt><trkpt lat="45.637844777077554" lon="2.3858918958360484"><ele>796.0</ele><time>2026-03-29T14:05:59Z</time></trkpt><trkpt lat="45.637906956700505" lon="2.3859251142920055"><ele>797.9999999999999</ele><time>2026-03-29T14:06:10Z</time></trkpt><trkpt lat="45.637973484145384" lon="2.3859630921068593"><ele>800.0</ele><time>2026-03-29T14:06:19Z</time></trkpt><trkpt lat="45.63803839511471" lon="2.3859853351679665"><ele>802.0</ele><time>2026-03-29T14:06:30Z</time></trkpt><trkpt lat="45.63811559155182" lon="2.385970007176002"><ele>804.0</ele><time>2026-03-29T14:07:37Z</time></trkpt><trkpt lat="45.63817954017387" lon="2.3859519135823235"><ele>806.0</ele><time>2026-03-29T14:07:47Z</time></trkpt><trkpt lat="45.638251623430065" lon="2.385966673955776"><ele>807.9999999999999</ele><time>2026-03-29T14:07:51Z</time></trkpt><trkpt lat="45.63830405992865" lon="2.3860465514946547"><ele>810.0</ele><time>2026-03-29T14:09:33Z</time></trkpt><trkpt lat="45.6383682820761" lon="2.386045449277313"><ele>809.9999999999999</ele><time>2026-03-29T14:09:35Z</time></trkpt><trkpt lat="45.63843306427113" lon="2.3860382674897136"><ele>810.0</ele><time>2026-03-29T14:09:38Z</time></trkpt><trkpt lat="45.63849815863322" lon="2.3860487540564317"><ele>810.0</ele><time>2026-03-29T14:09:41Z</time></trkpt><trkpt lat="45.638565846597615" lon="2.386072261681069"><ele>810.0</ele><time>2026-03-29T14:09:46Z</time></trkpt><trkpt lat="45.638631228161536" lon="2.3860575361743037"><ele>810.0</ele><time>2026-03-29T14:09:50Z</time></trkpt><trkpt lat="45.63870533175495" lon="2.386069601404742"><ele>809.9999999999999</ele><time>2026-03-29T14:09:55Z</time></trkpt><trkpt lat="45.63877617700802" lon="2.3860793404234526"><ele>810.0</ele><time>2026-03-29T14:09:59Z</time></trkpt><trkpt lat="45.63884051730274" lon="2.3861061450300616"><ele>812.1666666666666</ele><time>2026-03-29T14:10:03Z</time></trkpt><trkpt lat="45.63891438980465" lon="2.3861505960152236"><ele>814.3333333333333</ele><time>2026-03-29T14:10:09Z</time></trkpt><trkpt lat="45.638999643070804" lon="2.3861504266307816"><ele>816.5</ele><time>2026-03-29T14:10:13Z</time></trkpt><trkpt lat="45.6390862920793" lon="2.386126506410686"><ele>818.6666666666666</ele><time>2026-03-29T14:10:17Z</time></trkpt><trkpt lat="45.63916112560092" lon="2.3861499518343763"><ele>820.8333333333333</ele><time>2026-03-29T14:10:23Z</time></trkpt><trkpt lat="45.63923211895946" lon="2.3861616351788877"><ele>823.0</ele><time>2026-03-29T14:10:28Z</time></trkpt><trkpt lat="45.63929727888971" lon="2.38617151533715"><ele>823.0</ele><time>2026-03-29T14:10:32.999Z</time></trkpt><trkpt lat="45.639370737353644" lon="2.386170305069875"><ele>823.0</ele><time>2026-03-29T14:10:37.999Z</time></trkpt><trkpt lat="45.63944411731319" lon="2.3861668183561444"><ele>823.0</ele><time>2026-03-29T14:10:42.999Z</time></trkpt><trkpt lat="45.639525754470185" lon="2.3861764151842824"><ele>823.0</ele><time>2026-03-29T14:10:47.999Z</time></trkpt><trkpt lat="45.639581855077516" lon="2.3862247537964922"><ele>823.0</ele><time>2026-03-29T14:11:03.999Z</time></trkpt><trkpt lat="45.63964677357443" lon="2.3862222317811828"><ele>823.0</ele><time>2026-03-29T14:11:12.999Z</time></trkpt><trkpt lat="45.63970099405252" lon="2.3862711720950105"><ele>823.0</ele><time>2026-03-29T14:11:34Z</time></trkpt><trkpt lat="45.63976588831181" lon="2.3862536388930007"><ele>823.8571428571429</ele><time>2026-03-29T14:11:37Z</time></trkpt><trkpt lat="45.63983023544265" lon="2.3862636414118765"><ele>824.7142857142858</ele><time>2026-03-29T14:11:47Z</time></trkpt><trkpt lat="45.63989787947544" lon="2.3862494113571953"><ele>825.5714285714286</ele><time>2026-03-29T14:11:55Z</time></trkpt><trkpt lat="45.63997454048579" lon="2.3862601224985074"><ele>826.4285714285714</ele><time>2026-03-29T14:12:03Z</time></trkpt><trkpt lat="45.640038065691456" lon="2.386285037824754"><ele>827.2857142857142</ele><time>2026-03-29T14:12:12Z</time></trkpt><trkpt lat="45.640111160970946" lon="2.386317163015634"><ele>828.1428571428571</ele><time>2026-03-29T14:12:19Z</time></trkpt><trkpt lat="45.64016032140022" lon="2.38625224342203"><ele>829.0</ele><time>2026-03-29T14:12:57.999Z</time></trkpt><trkpt lat="45.64021941587348" lon="2.3861584311761344"><ele>828.9999999999999</ele><time>2026-03-29T14:13:01.999Z</time></trkpt><trkpt lat="45.640244010114266" lon="2.386065286190106"><ele>829.0</ele><time>2026-03-29T14:13:06.999Z</time></trkpt><trkpt lat="45.640281345622576" lon="2.3859571974622082"><ele>829.0</ele><time>2026-03-29T14:13:10.999Z</time></trkpt><trkpt lat="45.64034198960595" lon="2.3858728978641173"><ele>829.0</ele><time>2026-03-29T14:13:13.999Z</time></trkpt><trkpt lat="45.64038788108134" lon="2.3857966498665153"><ele>828.9999999999999</ele><time>2026-03-29T14:13:17.999Z</time></trkpt><trkpt lat="45.64041766540756" lon="2.3856934394084868"><ele>829.0</ele><time>2026-03-29T14:13:22Z</time></trkpt><trkpt lat="45.640447496171035" lon="2.385612809212719"><ele>828.9999999999999</ele><time>2026-03-29T14:13:26Z</time></trkpt><trkpt lat="45.64049495929634" lon="2.3855435316548075"><ele>829.0</ele><time>2026-03-29T14:13:30Z</time></trkpt><trkpt lat="45.64053781616379" lon="2.3854369762213694"><ele>829.0</ele><time>2026-03-29T14:13:35Z</time></trkpt><trkpt lat="45.640584917388864" lon="2.385346445117552"><ele>829.0</ele><time>2026-03-29T14:13:39Z</time></trkpt><trkpt lat="45.64062510828285" lon="2.385267819372162"><ele>828.9999999999999</ele><time>2026-03-29T14:13:43Z</time></trkpt><trkpt lat="45.64065428346285" lon="2.385176262261976"><ele>829.0</ele><time>2026-03-29T14:13:47Z</time></trkpt><trkpt lat="45.64069724974607" lon="2.385081151963799"><ele>828.9999999999999</ele><time>2026-03-29T14:13:51Z</time></trkpt><trkpt lat="45.640742142155474" lon="2.384993400433598"><ele>829.0</ele><time>2026-03-29T14:13:55Z</time></trkpt><trkpt lat="45.64078152360427" lon="2.384905896982969"><ele>829.0</ele><time>2026-03-29T14:13:59Z</time></trkpt><trkpt lat="45.64081785614483" lon="2.38480337372574"><ele>829.0</ele><time>2026-03-29T14:14:03Z</time></trkpt><trkpt lat="45.64085128677824" lon="2.384704969752732"><ele>828.9999999999999</ele><time>2026-03-29T14:14:07Z</time></trkpt><trkpt lat="45.640879969721865" lon="2.3846107986351366"><ele>829.0</ele><time>2026-03-29T14:14:11Z</time></trkpt><trkpt lat="45.64091432718931" lon="2.384515471165337"><ele>828.2857142857142</ele><time>2026-03-29T14:14:15Z</time></trkpt><trkpt lat="45.64092847463511" lon="2.3844124233443957"><ele>827.5714285714286</ele><time>2026-03-29T14:14:19Z</time></trkpt><trkpt lat="45.64095634559397" lon="2.3843050425101344"><ele>826.8571428571429</ele><time>2026-03-29T14:14:23Z</time></trkpt><trkpt lat="45.64097396173947" lon="2.3842152343327125"><ele>826.1428571428571</ele><time>2026-03-29T14:14:26Z</time></trkpt><trkpt lat="45.64100003847527" lon="2.3841079261453455"><ele>825.4285714285714</ele><time>2026-03-29T14:14:28.999Z</time></trkpt><trkpt lat="45.64101474676428" lon="2.383997113757769"><ele>824.7142857142857</ele><time>2026-03-29T14:14:31.999Z</time></trkpt><trkpt lat="45.64104125823204" lon="2.383908202613779"><ele>824.0</ele><time>2026-03-29T14:14:34.999Z</time></trkpt><trkpt lat="45.64105827799842" lon="2.3838101718175713"><ele>823.3333333333334</ele><time>2026-03-29T14:14:37.999Z</time></trkpt><trkpt lat="45.64108205481068" lon="2.38370786864673"><ele>822.6666666666667</ele><time>2026-03-29T14:14:40.999Z</time></trkpt><trkpt lat="45.64109491140273" lon="2.38359457651503"><ele>822.0</ele><time>2026-03-29T14:14:43.999Z</time></trkpt><trkpt lat="45.64110566963422" lon="2.3834881082022554"><ele>821.3333333333333</ele><time>2026-03-29T14:14:46.999Z</time></trkpt><trkpt lat="45.6411212460155" lon="2.3833904571380984"><ele>820.6666666666666</ele><time>2026-03-29T14:14:50.999Z</time></trkpt><trkpt lat="45.641141281088466" lon="2.3832819418155657"><ele>820.0</ele><time>2026-03-29T14:14:54.999Z</time></trkpt><trkpt lat="45.64116068304912" lon="2.383162911269995"><ele>819.8333333333333</ele><time>2026-03-29T14:14:58.999Z</time></trkpt><trkpt lat="45.641168348696915" lon="2.3830719705475287"><ele>819.6666666666666</ele><time>2026-03-29T14:15:01.999Z</time></trkpt><trkpt lat="45.64118930804187" lon="2.3829571215156315"><ele>819.5</ele><time>2026-03-29T14:15:05.999Z</time></trkpt><trkpt lat="45.641190079705325" lon="2.3828520176876116"><ele>819.3333333333333</ele><time>2026-03-29T14:15:08.999Z</time></trkpt><trkpt lat="45.64120579650458" lon="2.3827505625188308"><ele>819.1666666666666</ele><time>2026-03-29T14:15:11.999Z</time></trkpt><trkpt lat="45.64120753461743" lon="2.3826459660718475"><ele>819.0</ele><time>2026-03-29T14:15:14.999Z</time></trkpt><trkpt lat="45.6412500289495" lon="2.3825428068371606"><ele>818.1666666666666</ele><time>2026-03-29T14:15:17.999Z</time></trkpt><trkpt lat="45.64129232754615" lon="2.382429064611692"><ele>817.3333333333333</ele><time>2026-03-29T14:15:20.999Z</time></trkpt><trkpt lat="45.64135910066038" lon="2.3823226622809233"><ele>816.5</ele><time>2026-03-29T14:15:23.999Z</time></trkpt><trkpt lat="45.64140599333988" lon="2.3822332517355966"><ele>815.6666666666666</ele><time>2026-03-29T14:15:26Z</time></trkpt><trkpt lat="45.64144145357799" lon="2.3821538654289385"><ele>814.8333333333333</ele><time>2026-03-29T14:15:28Z</time></trkpt><trkpt lat="45.641506118105426" lon="2.3820880463085543"><ele>814.0</ele><time>2026-03-29T14:15:33Z</time></trkpt><trkpt lat="45.64157533970472" lon="2.3819927722270835"><ele>812.8571428571429</ele><time>2026-03-29T14:15:37Z</time></trkpt><trkpt lat="45.64162440083176" lon="2.381904849430761"><ele>811.7142857142858</ele><time>2026-03-29T14:15:40Z</time></trkpt><trkpt lat="45.64167655159619" lon="2.381851588498256"><ele>810.5714285714287</ele><time>2026-03-29T14:15:43Z</time></trkpt><trkpt lat="45.6417309883536" lon="2.3817631943723927"><ele>809.4285714285714</ele><time>2026-03-29T14:15:45Z</time></trkpt><trkpt lat="45.64176086859502" lon="2.3816833051194135"><ele>808.2857142857142</ele><time>2026-03-29T14:15:47Z</time></trkpt><trkpt lat="45.64180879368786" lon="2.3815877404164967"><ele>807.1428571428572</ele><time>2026-03-29T14:15:50Z</time></trkpt><trkpt lat="45.641858035776174" lon="2.381528959656791"><ele>806.0</ele><time>2026-03-29T14:15:53Z</time></trkpt><trkpt lat="45.641926791285776" lon="2.381423103372338"><ele>806.5714285714286</ele><time>2026-03-29T14:15:56Z</time></trkpt><trkpt lat="45.641979325601184" lon="2.3813301516402765"><ele>807.1428571428571</ele><time>2026-03-29T14:15:58Z</time></trkpt><trkpt lat="45.64203817717147" lon="2.3812619016610155"><ele>807.7142857142857</ele><time>2026-03-29T14:16:01Z</time></trkpt><trkpt lat="45.6420357836055" lon="2.3811554864073488"><ele>808.2857142857142</ele><time>2026-03-29T14:16:03Z</time></trkpt><trkpt lat="45.64207394339298" lon="2.381068318968892"><ele>808.8571428571429</ele><time>2026-03-29T14:17:01.999Z</time></trkpt><trkpt lat="45.6421019803445" lon="2.380977535471326"><ele>809.4285714285713</ele><time>2026-03-29T14:17:04.999Z</time></trkpt><trkpt lat="45.642132650552796" lon="2.3808923316675057"><ele>810.0</ele><time>2026-03-29T14:17:06.999Z</time></trkpt><trkpt lat="45.64217995144194" lon="2.380811554572333"><ele>810.0</ele><time>2026-03-29T14:17:08.999Z</time></trkpt><trkpt lat="45.642217461759316" lon="2.380738695131276"><ele>810.0</ele><time>2026-03-29T14:17:10.999Z</time></trkpt><trkpt lat="45.64226131772793" lon="2.380655463638108"><ele>810.0</ele><time>2026-03-29T14:17:12.999Z</time></trkpt><trkpt lat="45.64232693253369" lon="2.3805689594380075"><ele>810.0</ele><time>2026-03-29T14:17:15.999Z</time></trkpt><trkpt lat="45.64239363241655" lon="2.380479161530865"><ele>810.0</ele><time>2026-03-29T14:17:18.999Z</time></trkpt><trkpt lat="45.64244906215801" lon="2.380382633575485"><ele>810.0</ele><time>2026-03-29T14:17:21.999Z</time></trkpt><trkpt lat="45.642508137577856" lon="2.380293103107726"><ele>809.1428571428571</ele><time>2026-03-29T14:17:24.999Z</time></trkpt><trkpt lat="45.64257184994799" lon="2.380195479551255"><ele>808.2857142857142</ele><time>2026-03-29T14:17:27.999Z</time></trkpt><trkpt lat="45.642624494400806" lon="2.3801336613686157"><ele>807.4285714285713</ele><time>2026-03-29T14:17:29.999Z</time></trkpt><trkpt lat="45.64266781969932" lon="2.380057866762925"><ele>806.5714285714286</ele><time>2026-03-29T14:17:32Z</time></trkpt><trkpt lat="45.64269475944182" lon="2.3799725480228813"><ele>805.7142857142858</ele><time>2026-03-29T14:17:34Z</time></trkpt><trkpt lat="45.64272604832653" lon="2.3798771553875073"><ele>804.8571428571428</ele><time>2026-03-29T14:17:37Z</time></trkpt><trkpt lat="45.64275374724773" lon="2.379796094004965"><ele>804.0</ele><time>2026-03-29T14:17:41Z</time></trkpt><trkpt lat="45.642722057297576" lon="2.3797050065528795"><ele>804.2857142857142</ele><time>2026-03-29T14:17:45Z</time></trkpt><trkpt lat="45.642727991363664" lon="2.3795988534707697"><ele>804.5714285714287</ele><time>2026-03-29T14:17:50Z</time></trkpt><trkpt lat="45.64270670313704" lon="2.3795026341446435"><ele>804.8571428571429</ele><time>2026-03-29T14:17:54Z</time></trkpt><trkpt lat="45.64268847277602" lon="2.3794044833303825"><ele>805.1428571428571</ele><time>2026-03-29T14:17:57Z</time></trkpt><trkpt lat="45.64267112116117" lon="2.3793064281998095"><ele>805.4285714285713</ele><time>2026-03-29T14:18:00Z</time></trkpt><trkpt lat="45.64266558607212" lon="2.3792062957600524"><ele>805.7142857142858</ele><time>2026-03-29T14:18:03Z</time></trkpt><trkpt lat="45.64267049058661" lon="2.379099516500504"><ele>806.0</ele><time>2026-03-29T14:18:06Z</time></trkpt><trkpt lat="45.642682605066895" lon="2.3789957520782674"><ele>806.0</ele><time>2026-03-29T14:18:09Z</time></trkpt><trkpt lat="45.642712273053995" lon="2.3789149988133547"><ele>806.0</ele><time>2026-03-29T14:18:12Z</time></trkpt><trkpt lat="45.64274016384228" lon="2.3788200389430556"><ele>806.0</ele><time>2026-03-29T14:18:15Z</time></trkpt><trkpt lat="45.64278569577338" lon="2.378739032210552"><ele>806.0</ele><time>2026-03-29T14:18:19Z</time></trkpt><trkpt lat="45.642810484252806" lon="2.3786523507301185"><ele>806.0</ele><time>2026-03-29T14:18:22Z</time></trkpt><trkpt lat="45.64283362089217" lon="2.3785603430141604"><ele>806.0</ele><time>2026-03-29T14:18:25Z</time></trkpt><trkpt lat="45.642852672444995" lon="2.3784647263950154"><ele>806.0</ele><time>2026-03-29T14:18:28Z</time></trkpt><trkpt lat="45.6428901016612" lon="2.3783853272996187"><ele>807.2857142857143</ele><time>2026-03-29T14:18:31Z</time></trkpt><trkpt lat="45.642917363135695" lon="2.37827924167383"><ele>808.5714285714286</ele><time>2026-03-29T14:18:35Z</time></trkpt><trkpt lat="45.64293946521013" lon="2.378187318981609"><ele>809.8571428571429</ele><time>2026-03-29T14:18:39Z</time></trkpt><trkpt lat="45.64296558469947" lon="2.37810185032787"><ele>811.1428571428571</ele><time>2026-03-29T14:18:43Z</time></trkpt><trkpt lat="45.643010924069124" lon="2.378032013963746"><ele>812.4285714285713</ele><time>2026-03-29T14:18:46.999Z</time></trkpt><trkpt lat="45.643049851028216" lon="2.3779562053162255"><ele>813.7142857142857</ele><time>2026-03-29T14:18:50.999Z</time></trkpt><trkpt lat="45.64309146213056" lon="2.377862455617167"><ele>815.0</ele><time>2026-03-29T14:18:54.999Z</time></trkpt><trkpt lat="45.64314626497747" lon="2.3777944044551886"><ele>815.0</ele><time>2026-03-29T14:19:00.999Z</time></trkpt><trkpt lat="45.64320004425843" lon="2.3777310830467187"><ele>815.0</ele><time>2026-03-29T14:19:04.999Z</time></trkpt><trkpt lat="45.643251337874865" lon="2.3776582307282563"><ele>815.0</ele><time>2026-03-29T14:19:09.999Z</time></trkpt><trkpt lat="45.64331226766238" lon="2.3776043100599726"><ele>815.0</ele><time>2026-03-29T14:19:38Z</time></trkpt><trkpt lat="45.64336293238157" lon="2.377512255542848"><ele>815.0</ele><time>2026-03-29T14:19:40Z</time></trkpt><trkpt lat="45.6434283347457" lon="2.3774523237229745"><ele>815.0</ele><time>2026-03-29T14:19:45Z</time></trkpt><trkpt lat="45.64348286121348" lon="2.377384205317561"><ele>815.0</ele><time>2026-03-29T14:19:50Z</time></trkpt><trkpt lat="45.643553924933364" lon="2.377383858791349"><ele>815.0</ele><time>2026-03-29T14:19:54Z</time></trkpt><trkpt lat="45.64361351339037" lon="2.377348924794905"><ele>815.0</ele><time>2026-03-29T14:19:59Z</time></trkpt><trkpt lat="45.6436763769477" lon="2.3773213440677345"><ele>815.0</ele><time>2026-03-29T14:20:05Z</time></trkpt><trkpt lat="45.64374318034845" lon="2.3773132953662452"><ele>815.0</ele><time>2026-03-29T14:20:10Z</time></trkpt><trkpt lat="45.64380109622956" lon="2.3773552221082914"><ele>815.0</ele><time>2026-03-29T14:20:15Z</time></trkpt><trkpt lat="45.643852598911884" lon="2.3774096135935117"><ele>815.0</ele><time>2026-03-29T14:22:24Z</time></trkpt><trkpt lat="45.643914878990444" lon="2.377427092350706"><ele>815.0</ele><time>2026-03-29T14:22:30Z</time></trkpt><trkpt lat="45.644002280836055" lon="2.3773920667941066"><ele>815.7142857142857</ele><time>2026-03-29T14:22:42Z</time></trkpt><trkpt lat="45.64407147751907" lon="2.3774194384941607"><ele>816.4285714285713</ele><time>2026-03-29T14:22:48Z</time></trkpt><trkpt lat="45.64413636072072" lon="2.3774511748814198"><ele>817.1428571428571</ele><time>2026-03-29T14:22:59Z</time></trkpt><trkpt lat="45.64420567581748" lon="2.377453266407818"><ele>817.8571428571429</ele><time>2026-03-29T14:23:08.999Z</time></trkpt><trkpt lat="45.64426954170527" lon="2.3774809340859733"><ele>818.5714285714286</ele><time>2026-03-29T14:23:16.999Z</time></trkpt><trkpt lat="45.644341608755234" lon="2.3774843572967552"><ele>819.2857142857143</ele><time>2026-03-29T14:23:29.999Z</time></trkpt><trkpt lat="45.644404546611945" lon="2.377489857935496"><ele>820.0</ele><time>2026-03-29T14:23:36.999Z</time></trkpt><trkpt lat="45.644468374949824" lon="2.377491844033308"><ele>822.1666666666666</ele><time>2026-03-29T14:23:42.999Z</time></trkpt><trkpt lat="45.644551338617774" lon="2.377502174911863"><ele>824.3333333333333</ele><time>2026-03-29T14:23:57Z</time></trkpt><trkpt lat="45.644622563921516" lon="2.3775018188672115"><ele>826.5</ele><time>2026-03-29T14:24:12Z</time></trkpt><trkpt lat="45.64469423377811" lon="2.377503672787414"><ele>828.6666666666667</ele><time>2026-03-29T14:24:18Z</time></trkpt><trkpt lat="45.64479773260731" lon="2.377506350047121"><ele>830.8333333333334</ele><time>2026-03-29T14:24:39Z</time></trkpt><trkpt lat="45.64490800831413" lon="2.3775094281270004"><ele>833.0</ele><time>2026-03-29T14:25:07.999Z</time></trkpt><trkpt lat="45.64497678323804" lon="2.377511318170292"><ele>833.0</ele><time>2026-03-29T14:25:20.999Z</time></trkpt><trkpt lat="45.64505476240751" lon="2.377521682421376"><ele>833.0</ele><time>2026-03-29T14:25:42.999Z</time></trkpt><trkpt lat="45.645126610585955" lon="2.3775381610862993"><ele>833.0</ele><time>2026-03-29T14:26:00Z</time></trkpt><trkpt lat="45.64519322597811" lon="2.3775782522521904"><ele>833.0</ele><time>2026-03-29T14:26:18Z</time></trkpt><trkpt lat="45.645233291421555" lon="2.377654222365082"><ele>833.0</ele><time>2026-03-29T14:26:26Z</time></trkpt><trkpt lat="45.64523463994392" lon="2.3777620482771513"><ele>833.0</ele><time>2026-03-29T14:26:43Z</time></trkpt><trkpt lat="45.64524164900029" lon="2.3778617801956625"><ele>833.0</ele><time>2026-03-29T14:26:54Z</time></trkpt><trkpt lat="45.64525453876423" lon="2.3779536054465504"><ele>833.8571428571429</ele><time>2026-03-29T14:27:04Z</time></trkpt><trkpt lat="45.64526294437735" lon="2.3780483252956577"><ele>834.7142857142858</ele><time>2026-03-29T14:27:22.999Z</time></trkpt><trkpt lat="45.645274800859596" lon="2.378138531174125"><ele>835.5714285714286</ele><time>2026-03-29T14:27:32.999Z</time></trkpt><trkpt lat="45.645277922536586" lon="2.378229610992457"><ele>836.4285714285714</ele><time>2026-03-29T14:27:37.999Z</time></trkpt><trkpt lat="45.64528172117609" lon="2.378320113016837"><ele>837.2857142857143</ele><time>2026-03-29T14:27:44.999Z</time></trkpt><trkpt lat="45.64528476135103" lon="2.3784237133334094"><ele>838.1428571428571</ele><time>2026-03-29T14:27:52.999Z</time></trkpt><trkpt lat="45.645291113520365" lon="2.3785138119499147"><ele>839.0</ele><time>2026-03-29T14:28:00.999Z</time></trkpt><trkpt lat="45.64529318288631" lon="2.3786070175262366"><ele>839.0</ele><time>2026-03-29T14:28:10Z</time></trkpt><trkpt lat="45.64529670625219" lon="2.378713209375542"><ele>850.0</ele><time>2026-03-29T14:28:51Z</time></trkpt></trkseg><trkseg><trkpt lat="45.64529795949138" lon="2.3787466132502906"><ele>848.8571428571429</ele><time>2026-03-29T14:43:39Z</time></trkpt><trkpt lat="45.64528527135953" lon="2.378846802824953"><ele>847.7142857142857</ele><time>2026-03-29T14:43:44Z</time></trkpt><trkpt lat="45.64528274069675" lon="2.378956806898733"><ele>846.5714285714287</ele><time>2026-03-29T14:43:49Z</time></trkpt><trkpt lat="45.64528313171341" lon="2.379053788603044"><ele>845.4285714285714</ele><time>2026-03-29T14:43:55Z</time></trkpt><trkpt lat="45.6452792655361" lon="2.3791567299569287"><ele>844.2857142857143</ele><time>2026-03-29T14:43:59Z</time></trkpt><trkpt lat="45.64526943783045" lon="2.3792506066843826"><ele>843.1428571428572</ele><time>2026-03-29T14:44:03Z</time></trkpt><trkpt lat="45.64525636840543" lon="2.379344122407371"><ele>842.0</ele><time>2026-03-29T14:44:08Z</time></trkpt><trkpt lat="45.64526372494157" lon="2.3794453752551594"><ele>842.0000000000001</ele><time>2026-03-29T14:44:12Z</time></trkpt><trkpt lat="45.64526588816224" lon="2.3795365016144676"><ele>842.0</ele><time>2026-03-29T14:44:15Z</time></trkpt><trkpt lat="45.64526530073874" lon="2.3796582461853695"><ele>842.0</ele><time>2026-03-29T14:44:19Z</time></trkpt><trkpt lat="45.645247780656526" lon="2.3797637447842646"><ele>842.0</ele><time>2026-03-29T14:44:23Z</time></trkpt><trkpt lat="45.645252050712735" lon="2.3798582441621647"><ele>842.0</ele><time>2026-03-29T14:44:26Z</time></trkpt><trkpt lat="45.64525502845055" lon="2.3799624164580826"><ele>842.0000000000001</ele><time>2026-03-29T14:44:29Z</time></trkpt><trkpt lat="45.64525124485855" lon="2.380059325733978"><ele>842.0</ele><time>2026-03-29T14:44:31Z</time></trkpt><trkpt lat="45.64526573263838" lon="2.380199412583799"><ele>841.0</ele><time>2026-03-29T14:44:34Z</time></trkpt><trkpt lat="45.645269038995906" lon="2.3803126333242175"><ele>840.0</ele><time>2026-03-29T14:44:36Z</time></trkpt><trkpt lat="45.64528240283851" lon="2.3804311029679828"><ele>839.0</ele><time>2026-03-29T14:44:38Z</time></trkpt><trkpt lat="45.64527313283106" lon="2.3805754655295908"><ele>838.0</ele><time>2026-03-29T14:44:39.999Z</time></trkpt><trkpt lat="45.64527564961657" lon="2.380708429996818"><ele>837.0</ele><time>2026-03-29T14:44:41.999Z</time></trkpt><trkpt lat="45.6452828844127" lon="2.3808571632002904"><ele>837.8</ele><time>2026-03-29T14:44:43.999Z</time></trkpt><trkpt lat="45.64531558802097" lon="2.3810026495316032"><ele>838.6</ele><time>2026-03-29T14:44:45.999Z</time></trkpt><trkpt lat="45.645314662016204" lon="2.3811558780850834"><ele>839.4</ele><time>2026-03-29T14:44:47.999Z</time></trkpt><trkpt lat="45.645323149840856" lon="2.3812957409555344"><ele>840.1999999999999</ele><time>2026-03-29T14:44:49.999Z</time></trkpt><trkpt lat="45.64533277816625" lon="2.381460103795873"><ele>841.0</ele><time>2026-03-29T14:44:51.999Z</time></trkpt><trkpt lat="45.645360538871664" lon="2.381586669700712"><ele>840.9999999999999</ele><time>2026-03-29T14:44:53.999Z</time></trkpt><trkpt lat="45.645359902320266" lon="2.381707756567701"><ele>841.0</ele><time>2026-03-29T14:44:55.999Z</time></trkpt><trkpt lat="45.645338403399094" lon="2.3818218008320886"><ele>841.0</ele><time>2026-03-29T14:44:57.999Z</time></trkpt><trkpt lat="45.645348080560886" lon="2.3819565747494345"><ele>841.0</ele><time>2026-03-29T14:44:59.999Z</time></trkpt><trkpt lat="45.64534317591813" lon="2.3820841546054923"><ele>840.9999999999999</ele><time>2026-03-29T14:45:01.999Z</time></trkpt><trkpt lat="45.645325341659536" lon="2.3821880726000355"><ele>841.0</ele><time>2026-03-29T14:45:03.999Z</time></trkpt><trkpt lat="45.645312474711645" lon="2.382290347854157"><ele>839.9999999999999</ele><time>2026-03-29T14:45:05.999Z</time></trkpt><trkpt lat="45.645308694862464" lon="2.382396082840104"><ele>839.0</ele><time>2026-03-29T14:45:07.999Z</time></trkpt><trkpt lat="45.64528752783892" lon="2.382498322237812"><ele>838.0</ele><time>2026-03-29T14:45:09.999Z</time></trkpt><trkpt lat="45.64526641183235" lon="2.3826103310428426"><ele>837.0</ele><time>2026-03-29T14:45:13.999Z</time></trkpt><trkpt lat="45.645196673256265" lon="2.3826584644124873"><ele>835.9999999999999</ele><time>2026-03-29T14:45:16.999Z</time></trkpt><trkpt lat="45.645106692096626" lon="2.3826984479944646"><ele>835.0</ele><time>2026-03-29T14:45:19.999Z</time></trkpt><trkpt lat="45.64501852261755" lon="2.382734980042653"><ele>833.9999999999999</ele><time>2026-03-29T14:45:22.999Z</time></trkpt><trkpt lat="45.64494256287789" lon="2.382801165405585"><ele>833.0</ele><time>2026-03-29T14:45:25.999Z</time></trkpt><trkpt lat="45.64486690416477" lon="2.382840627543718"><ele>832.0</ele><time>2026-03-29T14:45:28.999Z</time></trkpt><trkpt lat="45.64477489326838" lon="2.382873640844779"><ele>831.0</ele><time>2026-03-29T14:45:32Z</time></trkpt><trkpt lat="45.64471497760228" lon="2.3829019780279808"><ele>829.9999999999999</ele><time>2026-03-29T14:45:34Z</time></trkpt><trkpt lat="45.644636505539864" lon="2.382906486634588"><ele>829.0</ele><time>2026-03-29T14:45:37Z</time></trkpt><trkpt lat="45.64455956660738" lon="2.382916324158124"><ele>828.9999999999999</ele><time>2026-03-29T14:45:40Z</time></trkpt><trkpt lat="45.64448626128301" lon="2.382978152740665"><ele>829.0</ele><time>2026-03-29T14:45:46Z</time></trkpt><trkpt lat="45.64447563015885" lon="2.3830766066336726"><ele>829.0</ele><time>2026-03-29T14:45:49Z</time></trkpt><trkpt lat="45.64446332740733" lon="2.3831938305995197"><ele>829.0</ele><time>2026-03-29T14:45:53Z</time></trkpt><trkpt lat="45.64445632113236" lon="2.383286510064328"><ele>828.9999999999999</ele><time>2026-03-29T14:45:55Z</time></trkpt><trkpt lat="45.64445084237446" lon="2.3834112693693172"><ele>829.0</ele><time>2026-03-29T14:45:58Z</time></trkpt><trkpt lat="45.64445139982785" lon="2.3835417505841714"><ele>827.9999999999999</ele><time>2026-03-29T14:46:01Z</time></trkpt><trkpt lat="45.6444389804657" lon="2.383670553712634"><ele>827.0</ele><time>2026-03-29T14:46:04Z</time></trkpt><trkpt lat="45.644446047558944" lon="2.3838087147158133"><ele>826.0</ele><time>2026-03-29T14:46:07Z</time></trkpt><trkpt lat="45.64442006868001" lon="2.3839077572576852"><ele>825.0</ele><time>2026-03-29T14:46:09Z</time></trkpt><trkpt lat="45.644422492744766" lon="2.384001253206668"><ele>823.9999999999999</ele><time>2026-03-29T14:46:11Z</time></trkpt><trkpt lat="45.64441711209645" lon="2.3841057904150906"><ele>823.0</ele><time>2026-03-29T14:46:13Z</time></trkpt><trkpt lat="45.64441428329451" lon="2.3842131760748932"><ele>822.1666666666666</ele><time>2026-03-29T14:46:15Z</time></trkpt><trkpt lat="45.644406818701846" lon="2.384339946338176"><ele>821.3333333333333</ele><time>2026-03-29T14:46:18Z</time></trkpt><trkpt lat="45.6443985101701" lon="2.384434999704482"><ele>820.5</ele><time>2026-03-29T14:46:20Z</time></trkpt><trkpt lat="45.644406143776735" lon="2.3845464614713725"><ele>819.6666666666667</ele><time>2026-03-29T14:46:22Z</time></trkpt><trkpt lat="45.64440001129843" lon="2.384688087388027"><ele>818.8333333333334</ele><time>2026-03-29T14:46:25Z</time></trkpt><trkpt lat="45.64439769118214" lon="2.3847852111606858"><ele>818.0</ele><time>2026-03-29T14:46:27Z</time></trkpt><trkpt lat="45.64440162028591" lon="2.384899084194857"><ele>818.0000000000001</ele><time>2026-03-29T14:46:30Z</time></trkpt><trkpt lat="45.644400495627835" lon="2.385035062535251"><ele>818.0</ele><time>2026-03-29T14:46:32Z</time></trkpt><trkpt lat="45.64439302479542" lon="2.3851415790227466"><ele>818.0</ele><time>2026-03-29T14:46:34Z</time></trkpt><trkpt lat="45.64437763614571" lon="2.385252573283773"><ele>818.0</ele><time>2026-03-29T14:46:36Z</time></trkpt><trkpt lat="45.64437846938042" lon="2.3853773187288514"><ele>818.0000000000001</ele><time>2026-03-29T14:46:38Z</time></trkpt><trkpt lat="45.64437269871037" lon="2.3854877552685294"><ele>818.0</ele><time>2026-03-29T14:46:40Z</time></trkpt><trkpt lat="45.6443667899072" lon="2.3855966542495675"><ele>817.5000000000001</ele><time>2026-03-29T14:46:42Z</time></trkpt><trkpt lat="45.644365347804516" lon="2.385718478038928"><ele>817.0</ele><time>2026-03-29T14:46:45Z</time></trkpt><trkpt lat="45.64434734423095" lon="2.3858106264136487"><ele>816.5</ele><time>2026-03-29T14:46:47Z</time></trkpt><trkpt lat="45.6443443975973" lon="2.3859101988378657"><ele>816.0</ele><time>2026-03-29T14:46:49Z</time></trkpt><trkpt lat="45.64435336075887" lon="2.386044435024197"><ele>815.5000000000001</ele><time>2026-03-29T14:46:52Z</time></trkpt><trkpt lat="45.644339894385" lon="2.386145709644939"><ele>815.0</ele><time>2026-03-29T14:46:56Z</time></trkpt><trkpt lat="45.64435185992516" lon="2.386268840807364"><ele>814.7142857142857</ele><time>2026-03-29T14:46:59Z</time></trkpt><trkpt lat="45.64435259435103" lon="2.386388902298546"><ele>814.4285714285713</ele><time>2026-03-29T14:47:02Z</time></trkpt><trkpt lat="45.64434686118867" lon="2.386491775332134"><ele>814.1428571428571</ele><time>2026-03-29T14:47:05.999Z</time></trkpt><trkpt lat="45.64433324655124" lon="2.3866083838128263"><ele>813.8571428571429</ele><time>2026-03-29T14:47:09.999Z</time></trkpt><trkpt lat="45.644332628738255" lon="2.386703685147942"><ele>813.5714285714286</ele><time>2026-03-29T14:47:12.999Z</time></trkpt><trkpt lat="45.64432755567186" lon="2.386796082208098"><ele>813.2857142857143</ele><time>2026-03-29T14:47:15.999Z</time></trkpt><trkpt lat="45.64432692505155" lon="2.386894922498294"><ele>813.0</ele><time>2026-03-29T14:47:18.999Z</time></trkpt><trkpt lat="45.644334755106996" lon="2.38699279375302"><ele>813.0</ele><time>2026-03-29T14:47:21.999Z</time></trkpt><trkpt lat="45.64432883866363" lon="2.3870884275570035"><ele>813.0</ele><time>2026-03-29T14:47:24.999Z</time></trkpt><trkpt lat="45.644318866587454" lon="2.3872030861345364"><ele>813.0</ele><time>2026-03-29T14:47:28.999Z</time></trkpt><trkpt lat="45.64431052719579" lon="2.387303349967171"><ele>813.0</ele><time>2026-03-29T14:47:31.999Z</time></trkpt><trkpt lat="45.64432587003835" lon="2.3874089545402053"><ele>813.0</ele><time>2026-03-29T14:47:34.999Z</time></trkpt><trkpt lat="45.64433529205202" lon="2.3875085642083285"><ele>813.0</ele><time>2026-03-29T14:47:38Z</time></trkpt><trkpt lat="45.64434246067511" lon="2.38761409074543"><ele>813.0</ele><time>2026-03-29T14:47:41Z</time></trkpt><trkpt lat="45.644343205709674" lon="2.3877275792982675"><ele>813.1666666666666</ele><time>2026-03-29T14:47:44Z</time></trkpt><trkpt lat="45.64434483417017" lon="2.3878286248602514"><ele>813.3333333333333</ele><time>2026-03-29T14:47:47Z</time></trkpt><trkpt lat="45.6443277195995" lon="2.3879175165684376"><ele>813.5</ele><time>2026-03-29T14:47:50Z</time></trkpt><trkpt lat="45.644338348295285" lon="2.388021057733164"><ele>813.6666666666666</ele><time>2026-03-29T14:47:53Z</time></trkpt><trkpt lat="45.6443350528168" lon="2.3881663015885057"><ele>813.8333333333333</ele><time>2026-03-29T14:47:55Z</time></trkpt><trkpt lat="45.644357481775664" lon="2.388303095876631"><ele>814.0</ele><time>2026-03-29T14:47:56Z</time></trkpt><trkpt lat="45.644367751407856" lon="2.388430976188345"><ele>813.4999999999999</ele><time>2026-03-29T14:47:57Z</time></trkpt><trkpt lat="45.644384506964265" lon="2.388536492075691"><ele>813.0</ele><time>2026-03-29T14:47:58Z</time></trkpt><trkpt lat="45.64439005073037" lon="2.3886322263781072"><ele>812.5</ele><time>2026-03-29T14:47:59Z</time></trkpt><trkpt lat="45.644405930078904" lon="2.388735986624893"><ele>812.0</ele><time>2026-03-29T14:48:00Z</time></trkpt><trkpt lat="45.644415226676216" lon="2.3888653543790226"><ele>811.4999999999999</ele><time>2026-03-29T14:48:01Z</time></trkpt><trkpt lat="45.64442316072088" lon="2.3889595690373224"><ele>811.0</ele><time>2026-03-29T14:48:02Z</time></trkpt><trkpt lat="45.64445160726714" lon="2.3891200238430725"><ele>811.1999999999999</ele><time>2026-03-29T14:48:04Z</time></trkpt><trkpt lat="45.64446102363989" lon="2.3892795075453104"><ele>811.4</ele><time>2026-03-29T14:48:06Z</time></trkpt><trkpt lat="45.644481742339565" lon="2.3894129510331914"><ele>811.6</ele><time>2026-03-29T14:48:08Z</time></trkpt><trkpt lat="45.64450261394962" lon="2.389557962463359"><ele>811.8</ele><time>2026-03-29T14:48:10Z</time></trkpt><trkpt lat="45.64452426124278" lon="2.38968467832534"><ele>812.0</ele><time>2026-03-29T14:48:12Z</time></trkpt><trkpt lat="45.64454832662903" lon="2.389769465353416"><ele>812.0000000000001</ele><time>2026-03-29T14:48:14Z</time></trkpt><trkpt lat="45.644580358244326" lon="2.3898763912234524"><ele>812.0</ele><time>2026-03-29T14:48:17Z</time></trkpt><trkpt lat="45.64458670136441" lon="2.390001410181926"><ele>812.0</ele><time>2026-03-29T14:48:19Z</time></trkpt><trkpt lat="45.64460504516326" lon="2.3901079905014333"><ele>812.0</ele><time>2026-03-29T14:48:21Z</time></trkpt><trkpt lat="45.6446258516802" lon="2.390206823598627"><ele>812.0000000000001</ele><time>2026-03-29T14:48:23Z</time></trkpt><trkpt lat="45.64463844171954" lon="2.390328658222809"><ele>812.0</ele><time>2026-03-29T14:48:26Z</time></trkpt><trkpt lat="45.64460846481121" lon="2.390440040631776"><ele>812.3333333333334</ele><time>2026-03-29T14:48:29Z</time></trkpt><trkpt lat="45.644591127879245" lon="2.390566481781574"><ele>812.6666666666667</ele><time>2026-03-29T14:48:31Z</time></trkpt><trkpt lat="45.644509024025076" lon="2.390642213207202"><ele>813.0</ele><time>2026-03-29T14:48:33Z</time></trkpt><trkpt lat="45.64443530824892" lon="2.3906983738263636"><ele>813.3333333333333</ele><time>2026-03-29T14:48:36Z</time></trkpt><trkpt lat="45.64437160392554" lon="2.3907543975517433"><ele>813.6666666666666</ele><time>2026-03-29T14:48:38Z</time></trkpt><trkpt lat="45.64432367894058" lon="2.3908242843481675"><ele>814.0</ele><time>2026-03-29T14:48:40Z</time></trkpt><trkpt lat="45.64427430707909" lon="2.390891929008223"><ele>813.3333333333333</ele><time>2026-03-29T14:48:43Z</time></trkpt><trkpt lat="45.64420657058527" lon="2.3909917438879122"><ele>812.6666666666666</ele><time>2026-03-29T14:48:45Z</time></trkpt><trkpt lat="45.64413648107793" lon="2.3910873303846625"><ele>812.0</ele><time>2026-03-29T14:48:47Z</time></trkpt><trkpt lat="45.64407388568723" lon="2.391169083344107"><ele>811.3333333333333</ele><time>2026-03-29T14:48:49Z</time></trkpt><trkpt lat="45.643999821669944" lon="2.3912142913978816"><ele>810.6666666666666</ele><time>2026-03-29T14:48:51Z</time></trkpt><trkpt lat="45.64394922129714" lon="2.3912747106561643"><ele>810.0</ele><time>2026-03-29T14:48:53Z</time></trkpt><trkpt lat="45.64388885200225" lon="2.3913206588873517"><ele>809.2857142857142</ele><time>2026-03-29T14:48:55Z</time></trkpt><trkpt lat="45.643825218147235" lon="2.391394382145736"><ele>808.5714285714286</ele><time>2026-03-29T14:48:57Z</time></trkpt><trkpt lat="45.643747638400846" lon="2.3914636429483624"><ele>807.8571428571429</ele><time>2026-03-29T14:48:59Z</time></trkpt><trkpt lat="45.64368790676147" lon="2.3915287632207964"><ele>807.1428571428571</ele><time>2026-03-29T14:49:01Z</time></trkpt><trkpt lat="45.643625815411625" lon="2.391570021718354"><ele>806.4285714285714</ele><time>2026-03-29T14:49:03Z</time></trkpt><trkpt lat="45.64356518075097" lon="2.3916028846734"><ele>805.7142857142857</ele><time>2026-03-29T14:49:05Z</time></trkpt><trkpt lat="45.6435127161036" lon="2.39166107274225"><ele>805.0</ele><time>2026-03-29T14:49:07Z</time></trkpt><trkpt lat="45.64345986169083" lon="2.3917376029794144"><ele>804.3333333333333</ele><time>2026-03-29T14:49:09Z</time></trkpt><trkpt lat="45.64340430433999" lon="2.3918087884576607"><ele>803.6666666666666</ele><time>2026-03-29T14:49:10.999Z</time></trkpt><trkpt lat="45.643341899406195" lon="2.3918449533719"><ele>803.0</ele><time>2026-03-29T14:49:12.999Z</time></trkpt><trkpt lat="45.64325158758246" lon="2.391944751977533"><ele>802.3333333333333</ele><time>2026-03-29T14:49:15.999Z</time></trkpt><trkpt lat="45.64320568590113" lon="2.392020240817518"><ele>801.6666666666666</ele><time>2026-03-29T14:49:17.999Z</time></trkpt><trkpt lat="45.64320305027399" lon="2.3921261440903665"><ele>801.0</ele><time>2026-03-29T14:49:19.999Z</time></trkpt><trkpt lat="45.64321137768863" lon="2.392250857437843"><ele>800.1666666666666</ele><time>2026-03-29T14:49:22.999Z</time></trkpt><trkpt lat="45.64318921287559" lon="2.392371299074886"><ele>799.3333333333333</ele><time>2026-03-29T14:49:25.999Z</time></trkpt><trkpt lat="45.64319826228375" lon="2.392518029560148"><ele>798.5</ele><time>2026-03-29T14:49:28.999Z</time></trkpt><trkpt lat="45.64317938308813" lon="2.3926328808148227"><ele>797.6666666666666</ele><time>2026-03-29T14:49:31.999Z</time></trkpt><trkpt lat="45.64316003776343" lon="2.392722743832972"><ele>796.8333333333333</ele><time>2026-03-29T14:49:33.999Z</time></trkpt><trkpt lat="45.64314703025322" lon="2.3928648662766725"><ele>796.0</ele><time>2026-03-29T14:49:35.999Z</time></trkpt><trkpt lat="45.64314576490675" lon="2.3929580456799022"><ele>795.4999999999999</ele><time>2026-03-29T14:49:39.999Z</time></trkpt><trkpt lat="45.64314382445316" lon="2.3930638715478834"><ele>795.0</ele><time>2026-03-29T14:50:34Z</time></trkpt><trkpt lat="45.643142275622665" lon="2.393171617320288"><ele>794.5</ele><time>2026-03-29T14:50:37Z</time></trkpt><trkpt lat="45.64315026136508" lon="2.393281150821818"><ele>794.0</ele><time>2026-03-29T14:50:39Z</time></trkpt><trkpt lat="45.64315638534935" lon="2.393403612544219"><ele>793.4999999999999</ele><time>2026-03-29T14:50:41Z</time></trkpt><trkpt lat="45.64314152380794" lon="2.3935309828482394"><ele>793.0</ele><time>2026-03-29T14:50:44Z</time></trkpt><trkpt lat="45.64311919540304" lon="2.3936181653170343"><ele>792.9999999999999</ele><time>2026-03-29T14:50:47Z</time></trkpt><trkpt lat="45.64312858933207" lon="2.393724563454463"><ele>793.0</ele><time>2026-03-29T14:50:50Z</time></trkpt><trkpt lat="45.64311958742573" lon="2.393822669048002"><ele>793.0</ele><time>2026-03-29T14:50:53Z</time></trkpt><trkpt lat="45.64310655031013" lon="2.3939393617803844"><ele>793.0</ele><time>2026-03-29T14:50:57Z</time></trkpt><trkpt lat="45.64309725982697" lon="2.3940553789143464"><ele>792.9999999999999</ele><time>2026-03-29T14:51:00Z</time></trkpt><trkpt lat="45.64307791951196" lon="2.3941607643519096"><ele>793.0</ele><time>2026-03-29T14:51:03Z</time></trkpt><trkpt lat="45.643070305902256" lon="2.3942926323578955"><ele>792.6666666666666</ele><time>2026-03-29T14:51:06Z</time></trkpt><trkpt lat="45.64308431210416" lon="2.394427644034058"><ele>792.3333333333333</ele><time>2026-03-29T14:51:09Z</time></trkpt><trkpt lat="45.643105696249826" lon="2.3945235292612255"><ele>792.0</ele><time>2026-03-29T14:51:10.999Z</time></trkpt><trkpt lat="45.64314324571964" lon="2.3946139706064367"><ele>791.6666666666667</ele><time>2026-03-29T14:51:12.999Z</time></trkpt><trkpt lat="45.6431939892652" lon="2.3946936810923765"><ele>791.3333333333334</ele><time>2026-03-29T14:51:14.999Z</time></trkpt><trkpt lat="45.643217035064986" lon="2.394790474628458"><ele>791.0</ele><time>2026-03-29T14:51:18.999Z</time></trkpt><trkpt lat="45.643258718759924" lon="2.394882238050014"><ele>790.3333333333334</ele><time>2026-03-29T14:51:20.999Z</time></trkpt><trkpt lat="45.64329157645327" lon="2.3949721656973706"><ele>789.6666666666667</ele><time>2026-03-29T14:51:22.999Z</time></trkpt><trkpt lat="45.64331130324458" lon="2.3950738961703184"><ele>789.0</ele><time>2026-03-29T14:51:27.999Z</time></trkpt><trkpt lat="45.64331969869842" lon="2.3951858378690507"><ele>788.3333333333333</ele><time>2026-03-29T14:51:30.999Z</time></trkpt><trkpt lat="45.64333739253861" lon="2.395277131390763"><ele>787.6666666666666</ele><time>2026-03-29T14:51:34.999Z</time></trkpt><trkpt lat="45.643373671102964" lon="2.3953936666599773"><ele>787.0</ele><time>2026-03-29T14:51:39.999Z</time></trkpt><trkpt lat="45.64339270816471" lon="2.3954943741884502"><ele>786.5714285714286</ele><time>2026-03-29T14:51:44.999Z</time></trkpt><trkpt lat="45.643404451359416" lon="2.395598311505947"><ele>786.1428571428571</ele><time>2026-03-29T14:51:49Z</time></trkpt><trkpt lat="45.64341534882351" lon="2.3957008752417477"><ele>785.7142857142858</ele><time>2026-03-29T14:51:54Z</time></trkpt><trkpt lat="45.64342535876273" lon="2.3958016700057785"><ele>785.2857142857142</ele><time>2026-03-29T14:51:58Z</time></trkpt><trkpt lat="45.643431301042156" lon="2.3958945030631438"><ele>784.8571428571429</ele><time>2026-03-29T14:52:02Z</time></trkpt><trkpt lat="45.64346499327653" lon="2.395987057749978"><ele>784.4285714285714</ele><time>2026-03-29T14:52:06Z</time></trkpt><trkpt lat="45.64344249339101" lon="2.3960791571824647"><ele>784.0</ele><time>2026-03-29T14:52:10Z</time></trkpt><trkpt lat="45.64340940193325" lon="2.396180224082789"><ele>783.9999999999999</ele><time>2026-03-29T14:52:15Z</time></trkpt><trkpt lat="45.643379511692125" lon="2.3962793031814758"><ele>784.0</ele><time>2026-03-29T14:52:20Z</time></trkpt><trkpt lat="45.64333810111707" lon="2.3963717581070667"><ele>784.0</ele><time>2026-03-29T14:52:23Z</time></trkpt><trkpt lat="45.64329431490796" lon="2.3964512724504767"><ele>784.0</ele><time>2026-03-29T14:52:26Z</time></trkpt><trkpt lat="45.64325466102164" lon="2.3965529704646205"><ele>783.9999999999999</ele><time>2026-03-29T14:52:29Z</time></trkpt><trkpt lat="45.64322643386426" lon="2.3966586033347"><ele>784.0</ele><time>2026-03-29T14:52:32Z</time></trkpt><trkpt lat="45.64315518875597" lon="2.3967502344546894"><ele>783.3333333333333</ele><time>2026-03-29T14:52:34Z</time></trkpt><trkpt lat="45.643134582665844" lon="2.39685003868437"><ele>782.6666666666666</ele><time>2026-03-29T14:52:38Z</time></trkpt><trkpt lat="45.64303576994192" lon="2.396960443190347"><ele>782.0</ele><time>2026-03-29T14:54:13Z</time></trkpt><trkpt lat="45.64297781297253" lon="2.397001800581232"><ele>781.3333333333333</ele><time>2026-03-29T14:54:16Z</time></trkpt><trkpt lat="45.642919603737006" lon="2.397079720950673"><ele>780.6666666666666</ele><time>2026-03-29T14:54:19Z</time></trkpt><trkpt lat="45.64286708317592" lon="2.3971303573593867"><ele>780.0</ele><time>2026-03-29T14:54:22Z</time></trkpt><trkpt lat="45.64280598983476" lon="2.3971811677318913"><ele>779.0</ele><time>2026-03-29T14:54:25Z</time></trkpt><trkpt lat="45.64274137214215" lon="2.3972216404359257"><ele>778.0</ele><time>2026-03-29T14:54:28Z</time></trkpt><trkpt lat="45.642667031917334" lon="2.397268621932692"><ele>777.0</ele><time>2026-03-29T14:54:31Z</time></trkpt><trkpt lat="45.64259124577472" lon="2.397268642666944"><ele>776.0</ele><time>2026-03-29T14:54:35Z</time></trkpt><trkpt lat="45.64251690739812" lon="2.397225680060267"><ele>775.0</ele><time>2026-03-29T14:54:39Z</time></trkpt><trkpt lat="45.642428403452726" lon="2.397243214489134"><ele>774.0</ele><time>2026-03-29T14:54:43Z</time></trkpt><trkpt lat="45.64234319566357" lon="2.3972630603858165"><ele>774.0</ele><time>2026-03-29T14:54:47Z</time></trkpt><trkpt lat="45.64226906974238" lon="2.3972358415590684"><ele>774.0</ele><time>2026-03-29T14:54:52Z</time></trkpt><trkpt lat="45.642184607585754" lon="2.3972532515417586"><ele>774.0</ele><time>2026-03-29T14:54:54Z</time></trkpt><trkpt lat="45.64210026877389" lon="2.3972684675722014"><ele>774.0</ele><time>2026-03-29T14:54:57Z</time></trkpt><trkpt lat="45.6420290351158" lon="2.397228120283741"><ele>774.0</ele><time>2026-03-29T14:55:00Z</time></trkpt><trkpt lat="45.641973686427974" lon="2.3971523167379694"><ele>774.0</ele><time>2026-03-29T14:55:03Z</time></trkpt><trkpt lat="45.6419402494244" lon="2.397054586538514"><ele>773.3333333333334</ele><time>2026-03-29T14:55:04.999Z</time></trkpt><trkpt lat="45.64188354287453" lon="2.396971148852502"><ele>772.6666666666667</ele><time>2026-03-29T14:55:07.999Z</time></trkpt><trkpt lat="45.64184430553174" lon="2.3968787809695256"><ele>772.0</ele><time>2026-03-29T14:55:10.999Z</time></trkpt><trkpt lat="45.64178774751257" lon="2.3967952695792443"><ele>771.3333333333334</ele><time>2026-03-29T14:55:14.999Z</time></trkpt><trkpt lat="45.64171416899041" lon="2.396758897063182"><ele>770.6666666666667</ele><time>2026-03-29T14:55:17.999Z</time></trkpt><trkpt lat="45.641639685653686" lon="2.39676060946255"><ele>770.0</ele><time>2026-03-29T14:55:21.999Z</time></trkpt><trkpt lat="45.64156782431025" lon="2.396767199383946"><ele>770.0</ele><time>2026-03-29T14:55:25.999Z</time></trkpt><trkpt lat="45.64149643200463" lon="2.396764171640079"><ele>770.0</ele><time>2026-03-29T14:55:29.999Z</time></trkpt><trkpt lat="45.6414291556082" lon="2.396770681019007"><ele>770.0</ele><time>2026-03-29T14:55:33.999Z</time></trkpt><trkpt lat="45.64135551832935" lon="2.3968080347180947"><ele>770.0</ele><time>2026-03-29T14:55:37.999Z</time></trkpt><trkpt lat="45.64128694134497" lon="2.3968404411156983"><ele>770.0</ele><time>2026-03-29T14:55:41.999Z</time></trkpt><trkpt lat="45.641215580417416" lon="2.396873911587394"><ele>770.0</ele><time>2026-03-29T14:55:45.999Z</time></trkpt><trkpt lat="45.64115744146059" lon="2.3969122395868085"><ele>770.0</ele><time>2026-03-29T14:55:48.999Z</time></trkpt><trkpt lat="45.64107945335392" lon="2.396950292944812"><ele>770.1666666666667</ele><time>2026-03-29T14:55:52.999Z</time></trkpt><trkpt lat="45.641013734114715" lon="2.396988333381284"><ele>770.3333333333334</ele><time>2026-03-29T14:55:57.999Z</time></trkpt><trkpt lat="45.64095674913312" lon="2.3970460556309456"><ele>770.5</ele><time>2026-03-29T14:56:01Z</time></trkpt><trkpt lat="45.640906700293826" lon="2.3971398176473144"><ele>770.6666666666667</ele><time>2026-03-29T14:56:05Z</time></trkpt><trkpt lat="45.64086900142881" lon="2.397240283673798"><ele>770.8333333333334</ele><time>2026-03-29T14:56:07Z</time></trkpt><trkpt lat="45.64081356261251" lon="2.3973002512993316"><ele>771.0</ele><time>2026-03-29T14:56:09Z</time></trkpt><trkpt lat="45.64075154672026" lon="2.397228257307596"><ele>771.0</ele><time>2026-03-29T14:56:12Z</time></trkpt><trkpt lat="45.64069477766001" lon="2.3971721541464324"><ele>771.0</ele><time>2026-03-29T14:56:16Z</time></trkpt><trkpt lat="45.64065670190054" lon="2.3970916048323665"><ele>771.0</ele><time>2026-03-29T14:56:21Z</time></trkpt><trkpt lat="45.64061866640003" lon="2.3970193345905795"><ele>771.0</ele><time>2026-03-29T14:56:25Z</time></trkpt><trkpt lat="45.64055926020493" lon="2.396949783637437"><ele>771.0</ele><time>2026-03-29T14:56:30Z</time></trkpt><trkpt lat="45.6404900178225" lon="2.3969098970267653"><ele>771.0</ele><time>2026-03-29T14:56:34Z</time></trkpt><trkpt lat="45.6404208342908" lon="2.396879950412831"><ele>771.0</ele><time>2026-03-29T14:56:37Z</time></trkpt><trkpt lat="45.64036298091859" lon="2.396842951600045"><ele>771.2857142857143</ele><time>2026-03-29T14:56:40Z</time></trkpt><trkpt lat="45.64027665051198" lon="2.3968115395728247"><ele>771.5714285714286</ele><time>2026-03-29T14:56:46Z</time></trkpt><trkpt lat="45.6402169525956" lon="2.3967668380144587"><ele>771.8571428571429</ele><time>2026-03-29T14:56:51Z</time></trkpt><trkpt lat="45.64014015401734" lon="2.3967421099350177"><ele>772.1428571428571</ele><time>2026-03-29T14:56:55Z</time></trkpt><trkpt lat="45.640064669222056" lon="2.396707668641332"><ele>772.4285714285713</ele><time>2026-03-29T14:57:01Z</time></trkpt><trkpt lat="45.64001136836816" lon="2.3967598019672365"><ele>772.7142857142857</ele><time>2026-03-29T14:57:20.999Z</time></trkpt><trkpt lat="45.639947872870614" lon="2.396733381318141"><ele>773.0</ele><time>2026-03-29T14:57:34.999Z</time></trkpt><trkpt lat="45.63990596269577" lon="2.3966632262058503"><ele>773.0</ele><time>2026-03-29T14:57:39.999Z</time></trkpt><trkpt lat="45.639836191253906" lon="2.3966754819690936"><ele>773.0</ele><time>2026-03-29T14:57:46.999Z</time></trkpt><trkpt lat="45.63976943164253" lon="2.396647333087659"><ele>773.0</ele><time>2026-03-29T14:57:49.999Z</time></trkpt><trkpt lat="45.63970818365002" lon="2.396669293621946"><ele>773.0</ele><time>2026-03-29T14:57:53.999Z</time></trkpt><trkpt lat="45.639645678064845" lon="2.396689022145424"><ele>773.0</ele><time>2026-03-29T14:57:59.999Z</time></trkpt><trkpt lat="45.63957013857831" lon="2.3966621669733787"><ele>773.0</ele><time>2026-03-29T14:58:04.999Z</time></trkpt><trkpt lat="45.639493264843416" lon="2.3966571743171374"><ele>773.0</ele><time>2026-03-29T14:58:09Z</time></trkpt><trkpt lat="45.639414387487015" lon="2.3966703218629504"><ele>773.1428571428571</ele><time>2026-03-29T14:58:12Z</time></trkpt><trkpt lat="45.639351947111976" lon="2.3967052571824317"><ele>773.2857142857142</ele><time>2026-03-29T14:58:15Z</time></trkpt><trkpt lat="45.63928883221057" lon="2.3966777519547096"><ele>773.4285714285714</ele><time>2026-03-29T14:58:19Z</time></trkpt><trkpt lat="45.639219454492235" lon="2.3966788251327085"><ele>773.5714285714286</ele><time>2026-03-29T14:58:22Z</time></trkpt><trkpt lat="45.639181893950905" lon="2.3966028931256154"><ele>773.7142857142858</ele><time>2026-03-29T14:58:26Z</time></trkpt><trkpt lat="45.63914951938918" lon="2.3965234458035303"><ele>773.8571428571429</ele><time>2026-03-29T14:58:30Z</time></trkpt><trkpt lat="45.63911558535949" lon="2.396433662710884"><ele>774.0</ele><time>2026-03-29T14:58:35Z</time></trkpt><trkpt lat="45.63908924983756" lon="2.396341005276032"><ele>773.8571428571429</ele><time>2026-03-29T14:58:40Z</time></trkpt><trkpt lat="45.63906353838983" lon="2.396257931227519"><ele>773.7142857142858</ele><time>2026-03-29T14:58:44Z</time></trkpt><trkpt lat="45.63903688773613" lon="2.3961746688573005"><ele>773.5714285714286</ele><time>2026-03-29T14:58:48Z</time></trkpt><trkpt lat="45.639001861378894" lon="2.3960888860091596"><ele>773.4285714285714</ele><time>2026-03-29T14:58:53Z</time></trkpt><trkpt lat="45.6389736967783" lon="2.3960030253532487"><ele>773.2857142857142</ele><time>2026-03-29T14:58:57Z</time></trkpt><trkpt lat="45.63894896418598" lon="2.3959135366661752"><ele>773.1428571428571</ele><time>2026-03-29T14:59:01Z</time></trkpt><trkpt lat="45.63892171523062" lon="2.395817818847851"><ele>773.0</ele><time>2026-03-29T14:59:10.999Z</time></trkpt><trkpt lat="45.63895850853528" lon="2.395735897574762"><ele>773.0</ele><time>2026-03-29T14:59:15.999Z</time></trkpt><trkpt lat="45.63889612002947" lon="2.3957236772698955"><ele>773.0</ele><time>2026-03-29T14:59:27.999Z</time></trkpt><trkpt lat="45.638884826847374" lon="2.395632386177069"><ele>773.0</ele><time>2026-03-29T14:59:40.999Z</time></trkpt><trkpt lat="45.63882767795587" lon="2.3955811418596054"><ele>773.0</ele><time>2026-03-29T14:59:43.999Z</time></trkpt><trkpt lat="45.638784441789674" lon="2.3955091906880206"><ele>773.0</ele><time>2026-03-29T14:59:51.999Z</time></trkpt><trkpt lat="45.63876391691738" lon="2.395413216767019"><ele>773.0</ele><time>2026-03-29T15:00:08.999Z</time></trkpt><trkpt lat="45.638721514930246" lon="2.395323150116591"><ele>773.0</ele><time>2026-03-29T15:00:17Z</time></trkpt><trkpt lat="45.638684585854634" lon="2.395246961313867"><ele>774.2857142857142</ele><time>2026-03-29T15:00:26Z</time></trkpt><trkpt lat="45.63868899206452" lon="2.3951470235433057"><ele>775.5714285714286</ele><time>2026-03-29T15:00:40Z</time></trkpt><trkpt lat="45.63861956286146" lon="2.3951207070185645"><ele>776.8571428571429</ele><time>2026-03-29T15:00:50Z</time></trkpt><trkpt lat="45.63858613313482" lon="2.3950206935366922"><ele>778.1428571428571</ele><time>2026-03-29T15:00:57Z</time></trkpt><trkpt lat="45.638567593345236" lon="2.394916039317109"><ele>779.4285714285714</ele><time>2026-03-29T15:01:13Z</time></trkpt><trkpt lat="45.63851038706692" lon="2.3948505802396696"><ele>780.7142857142857</ele><time>2026-03-29T15:01:19Z</time></trkpt><trkpt lat="45.63847812794048" lon="2.3947545493908673"><ele>782.0</ele><time>2026-03-29T15:01:27.999Z</time></trkpt><trkpt lat="45.63849476537169" lon="2.3946464705754145"><ele>783.7142857142857</ele><time>2026-03-29T15:01:41.999Z</time></trkpt><trkpt lat="45.638431581131606" lon="2.3946120817392575"><ele>785.4285714285714</ele><time>2026-03-29T15:01:48.999Z</time></trkpt><trkpt lat="45.63837870151321" lon="2.394560550500208"><ele>787.1428571428571</ele><time>2026-03-29T15:01:56.999Z</time></trkpt><trkpt lat="45.63831470146585" lon="2.3945638288394973"><ele>788.8571428571429</ele><time>2026-03-29T15:02:01.999Z</time></trkpt><trkpt lat="45.63829489063314" lon="2.3944431477673027"><ele>790.5714285714286</ele><time>2026-03-29T15:02:14.999Z</time></trkpt><trkpt lat="45.63832032471749" lon="2.394356938527238"><ele>792.2857142857142</ele><time>2026-03-29T15:02:27Z</time></trkpt><trkpt lat="45.638300927865366" lon="2.394263984213207"><ele>794.0</ele><time>2026-03-29T15:02:43Z</time></trkpt><trkpt lat="45.638276711459" lon="2.394175523312428"><ele>794.0</ele><time>2026-03-29T15:03:02Z</time></trkpt><trkpt lat="45.63822477134525" lon="2.3940810219652837"><ele>794.0</ele><time>2026-03-29T15:03:15Z</time></trkpt><trkpt lat="45.63825619396947" lon="2.393998083179116"><ele>794.0</ele><time>2026-03-29T15:03:23.999Z</time></trkpt><trkpt lat="45.63830705617475" lon="2.393928293640742"><ele>794.0</ele><time>2026-03-29T15:03:32.999Z</time></trkpt><trkpt lat="45.63829071862974" lon="2.3938280040407234"><ele>794.0</ele><time>2026-03-29T15:03:42.999Z</time></trkpt><trkpt lat="45.638287188159474" lon="2.3937346243553637"><ele>794.0</ele><time>2026-03-29T15:03:50.999Z</time></trkpt><trkpt lat="45.63829184595139" lon="2.3936372045449867"><ele>794.0</ele><time>2026-03-29T15:04:04.999Z</time></trkpt><trkpt lat="45.63826971566496" lon="2.393548537536573"><ele>794.5714285714286</ele><time>2026-03-29T15:04:10.999Z</time></trkpt><trkpt lat="45.63828143944278" lon="2.3934513767268175"><ele>795.1428571428571</ele><time>2026-03-29T15:04:24Z</time></trkpt><trkpt lat="45.63824469946476" lon="2.393377534677364"><ele>795.7142857142858</ele><time>2026-03-29T15:04:30Z</time></trkpt><trkpt lat="45.63819479162454" lon="2.3933034254870598"><ele>796.2857142857142</ele><time>2026-03-29T15:04:36Z</time></trkpt><trkpt lat="45.638150936049016" lon="2.3932342825227697"><ele>796.8571428571429</ele><time>2026-03-29T15:04:48Z</time></trkpt><trkpt lat="45.63810651937265" lon="2.3931653705804683"><ele>797.4285714285714</ele><time>2026-03-29T15:04:57Z</time></trkpt><trkpt lat="45.63804426175091" lon="2.3931482121905407"><ele>798.0</ele><time>2026-03-29T15:05:07Z</time></trkpt><trkpt lat="45.637970870795506" lon="2.393145146632755"><ele>798.0</ele><time>2026-03-29T15:05:18Z</time></trkpt><trkpt lat="45.63790489420339" lon="2.393155833371036"><ele>798.0</ele><time>2026-03-29T15:05:31Z</time></trkpt><trkpt lat="45.6378262818897" lon="2.3931581873098504"><ele>798.0</ele><time>2026-03-29T15:05:39.999Z</time></trkpt><trkpt lat="45.637756953350625" lon="2.393152753906961"><ele>798.0</ele><time>2026-03-29T15:05:48.999Z</time></trkpt><trkpt lat="45.63769241890909" lon="2.3931292549779277"><ele>798.0</ele><time>2026-03-29T15:05:56.999Z</time></trkpt><trkpt lat="45.63762882019532" lon="2.3930997926025066"><ele>798.0</ele><time>2026-03-29T15:06:04.999Z</time></trkpt><trkpt lat="45.63756455687554" lon="2.393081625830018"><ele>798.0</ele><time>2026-03-29T15:06:12.999Z</time></trkpt><trkpt lat="45.637499877198266" lon="2.3930754500936016"><ele>798.1666666666666</ele><time>2026-03-29T15:06:24.999Z</time></trkpt><trkpt lat="45.6374308460273" lon="2.393069656889985"><ele>798.3333333333333</ele><time>2026-03-29T15:06:35Z</time></trkpt><trkpt lat="45.637376836922606" lon="2.393117690243811"><ele>798.5</ele><time>2026-03-29T15:09:21.999Z</time></trkpt><trkpt lat="45.63734517953389" lon="2.3932261105337087"><ele>798.6666666666666</ele><time>2026-03-29T15:09:23.999Z</time></trkpt><trkpt lat="45.63730090410346" lon="2.3933504431335493"><ele>798.8333333333333</ele><time>2026-03-29T15:09:25.999Z</time></trkpt><trkpt lat="45.637262823484434" lon="2.393478624874826"><ele>799.0</ele><time>2026-03-29T15:09:27.999Z</time></trkpt><trkpt lat="45.637198941000555" lon="2.393589449293342"><ele>799.0</ele><time>2026-03-29T15:09:29.999Z</time></trkpt><trkpt lat="45.63716222067662" lon="2.393728197745767"><ele>799.0</ele><time>2026-03-29T15:09:31.999Z</time></trkpt><trkpt lat="45.637113591764226" lon="2.393849508439718"><ele>799.0</ele><time>2026-03-29T15:09:33.999Z</time></trkpt><trkpt lat="45.63704476010817" lon="2.3939716430533973"><ele>799.0</ele><time>2026-03-29T15:09:35.999Z</time></trkpt><trkpt lat="45.636982490134024" lon="2.3941039368656067"><ele>799.0</ele><time>2026-03-29T15:09:37.999Z</time></trkpt><trkpt lat="45.63693080882674" lon="2.394238315797664"><ele>799.3333333333333</ele><time>2026-03-29T15:09:39.999Z</time></trkpt><trkpt lat="45.636859898950604" lon="2.3943437064948583"><ele>799.6666666666666</ele><time>2026-03-29T15:09:41.999Z</time></trkpt><trkpt lat="45.636798311441744" lon="2.3944132287537907"><ele>800.0</ele><time>2026-03-29T15:09:44.999Z</time></trkpt><trkpt lat="45.63674807550753" lon="2.394508062286126"><ele>800.3333333333333</ele><time>2026-03-29T15:09:47.999Z</time></trkpt><trkpt lat="45.63666230179075" lon="2.394554433051045"><ele>800.6666666666666</ele><time>2026-03-29T15:09:50.999Z</time></trkpt><trkpt lat="45.63658660200509" lon="2.3946063530569637"><ele>801.0</ele><time>2026-03-29T15:09:52.999Z</time></trkpt><trkpt lat="45.63651181434486" lon="2.3947151961945967"><ele>801.0</ele><time>2026-03-29T15:09:54.999Z</time></trkpt><trkpt lat="45.63645399551654" lon="2.394825834979697"><ele>801.0</ele><time>2026-03-29T15:09:56.999Z</time></trkpt><trkpt lat="45.636402909630945" lon="2.394897684195287"><ele>801.0</ele><time>2026-03-29T15:09:58.999Z</time></trkpt><trkpt lat="45.63635605269293" lon="2.394993138109716"><ele>801.0</ele><time>2026-03-29T15:10:00.999Z</time></trkpt><trkpt lat="45.63629290460827" lon="2.3950595243362307"><ele>801.0</ele><time>2026-03-29T15:10:03.999Z</time></trkpt><trkpt lat="45.6362427079192" lon="2.3951354991443723"><ele>801.0</ele><time>2026-03-29T15:10:07.999Z</time></trkpt><trkpt lat="45.63618892794633" lon="2.395187698694714"><ele>801.1428571428571</ele><time>2026-03-29T15:10:11.999Z</time></trkpt><trkpt lat="45.636130950478744" lon="2.3952396542553056"><ele>801.2857142857142</ele><time>2026-03-29T15:10:15.999Z</time></trkpt><trkpt lat="45.63607721069376" lon="2.395322737361966"><ele>801.4285714285714</ele><time>2026-03-29T15:10:19.999Z</time></trkpt><trkpt lat="45.63601933330223" lon="2.395380276507835"><ele>801.5714285714286</ele><time>2026-03-29T15:10:22.999Z</time></trkpt><trkpt lat="45.63595979117486" lon="2.3954339469410693"><ele>801.7142857142858</ele><time>2026-03-29T15:10:26.999Z</time></trkpt><trkpt lat="45.635900094627225" lon="2.395471087092302"><ele>801.8571428571429</ele><time>2026-03-29T15:10:29.999Z</time></trkpt><trkpt lat="45.635834993147554" lon="2.395540738646605"><ele>802.0</ele><time>2026-03-29T15:10:33.999Z</time></trkpt><trkpt lat="45.635789963062095" lon="2.3956108028966714"><ele>802.0</ele><time>2026-03-29T15:10:37.999Z</time></trkpt><trkpt lat="45.63573404247208" lon="2.395673596000173"><ele>802.0</ele><time>2026-03-29T15:10:40.998Z</time></trkpt><trkpt lat="45.635676121056896" lon="2.395752715716318"><ele>802.0</ele><time>2026-03-29T15:10:44Z</time></trkpt><trkpt lat="45.63561641157704" lon="2.3957818560428543"><ele>802.0</ele><time>2026-03-29T15:10:48Z</time></trkpt><trkpt lat="45.63555810446122" lon="2.3958199294548406"><ele>802.0</ele><time>2026-03-29T15:10:52Z</time></trkpt><trkpt lat="45.635501307334984" lon="2.3958863352230155"><ele>802.0</ele><time>2026-03-29T15:10:57Z</time></trkpt><trkpt lat="45.63543549449297" lon="2.3959473287391653"><ele>802.0</ele><time>2026-03-29T15:11:00Z</time></trkpt><trkpt lat="45.63537936015068" lon="2.396013882369307"><ele>802.2857142857143</ele><time>2026-03-29T15:11:06Z</time></trkpt><trkpt lat="45.63530009186675" lon="2.3960442124924115"><ele>802.5714285714287</ele><time>2026-03-29T15:11:10Z</time></trkpt><trkpt lat="45.635219609173284" lon="2.3960404892012503"><ele>802.8571428571429</ele><time>2026-03-29T15:11:14Z</time></trkpt><trkpt lat="45.63514129362959" lon="2.3960034306945763"><ele>803.1428571428571</ele><time>2026-03-29T15:11:18Z</time></trkpt><trkpt lat="45.63508782028236" lon="2.3959469971079748"><ele>803.4285714285714</ele><time>2026-03-29T15:11:22Z</time></trkpt><trkpt lat="45.63504461667425" lon="2.395877703781059"><ele>803.7142857142857</ele><time>2026-03-29T15:11:25Z</time></trkpt><trkpt lat="45.63498961590366" lon="2.3958103232868733"><ele>804.0</ele><time>2026-03-29T15:11:29Z</time></trkpt><trkpt lat="45.634928886636686" lon="2.3957217547125893"><ele>804.0</ele><time>2026-03-29T15:11:34Z</time></trkpt><trkpt lat="45.63489937023603" lon="2.395635639644363"><ele>804.0</ele><time>2026-03-29T15:11:38Z</time></trkpt><trkpt lat="45.634829544690135" lon="2.395583444269708"><ele>804.0</ele><time>2026-03-29T15:11:42Z</time></trkpt><trkpt lat="45.63475730048142" lon="2.395564754611442"><ele>804.0</ele><time>2026-03-29T15:11:46Z</time></trkpt><trkpt lat="45.634696861273355" lon="2.395537370279747"><ele>804.0</ele><time>2026-03-29T15:11:50Z</time></trkpt><trkpt lat="45.63463411035308" lon="2.395490663233014"><ele>804.0</ele><time>2026-03-29T15:11:54Z</time></trkpt><trkpt lat="45.634554190455724" lon="2.3954451835608204"><ele>804.0</ele><time>2026-03-29T15:11:59Z</time></trkpt><trkpt lat="45.63449424074847" lon="2.3953942189849986"><ele>803.2857142857142</ele><time>2026-03-29T15:12:04Z</time></trkpt><trkpt lat="45.634437809651054" lon="2.395351082998301"><ele>802.5714285714287</ele><time>2026-03-29T15:12:07Z</time></trkpt><trkpt lat="45.63436111709237" lon="2.395305963464082"><ele>801.8571428571429</ele><time>2026-03-29T15:12:12Z</time></trkpt><trkpt lat="45.634286508524106" lon="2.3952779270188667"><ele>801.1428571428571</ele><time>2026-03-29T15:12:15.999Z</time></trkpt><trkpt lat="45.634215054540434" lon="2.3952568952605944"><ele>800.4285714285713</ele><time>2026-03-29T15:12:18.999Z</time></trkpt><trkpt lat="45.634147019710305" lon="2.3952647855598905"><ele>799.7142857142858</ele><time>2026-03-29T15:12:21.999Z</time></trkpt><trkpt lat="45.63407709140049" lon="2.3953079761010243"><ele>799.0</ele><time>2026-03-29T15:12:24.999Z</time></trkpt><trkpt lat="45.63400403702366" lon="2.3953571599755077"><ele>798.9999999999999</ele><time>2026-03-29T15:12:28.999Z</time></trkpt><trkpt lat="45.633918937182635" lon="2.395392467926003"><ele>799.0</ele><time>2026-03-29T15:12:32.999Z</time></trkpt><trkpt lat="45.63385311564067" lon="2.3954324698311282"><ele>799.0</ele><time>2026-03-29T15:12:34.999Z</time></trkpt><trkpt lat="45.63377913326858" lon="2.3954263386415215"><ele>799.0</ele><time>2026-03-29T15:12:37.999Z</time></trkpt><trkpt lat="45.6337031374916" lon="2.3954366623597387"><ele>798.9999999999999</ele><time>2026-03-29T15:12:40.999Z</time></trkpt><trkpt lat="45.63362052100206" lon="2.39539620776518"><ele>799.0</ele><time>2026-03-29T15:12:43.999Z</time></trkpt><trkpt lat="45.63355151063075" lon="2.3954055496460076"><ele>799.0</ele><time>2026-03-29T15:12:46.999Z</time></trkpt><trkpt lat="45.633480183849784" lon="2.395401942365623"><ele>799.0</ele><time>2026-03-29T15:12:50Z</time></trkpt><trkpt lat="45.63340543945294" lon="2.395389811580258"><ele>799.0</ele><time>2026-03-29T15:12:53Z</time></trkpt><trkpt lat="45.633319837247" lon="2.395380959188688"><ele>799.0</ele><time>2026-03-29T15:12:57Z</time></trkpt><trkpt lat="45.633253253343824" lon="2.3953666085738616"><ele>799.0</ele><time>2026-03-29T15:13:00Z</time></trkpt><trkpt lat="45.63318620998397" lon="2.3953935978027037"><ele>799.0</ele><time>2026-03-29T15:13:03Z</time></trkpt><trkpt lat="45.6331184584502" lon="2.3954266533274957"><ele>799.0</ele><time>2026-03-29T15:13:06Z</time></trkpt><trkpt lat="45.63304182262697" lon="2.3954398635106604"><ele>798.9999999999999</ele><time>2026-03-29T15:13:09Z</time></trkpt><trkpt lat="45.63295778638171" lon="2.3954423245295513"><ele>799.0</ele><time>2026-03-29T15:13:12Z</time></trkpt><trkpt lat="45.6328969870057" lon="2.3954671249187642"><ele>799.0</ele><time>2026-03-29T15:13:15Z</time></trkpt><trkpt lat="45.63282867961114" lon="2.395487594177475"><ele>799.0</ele><time>2026-03-29T15:13:17Z</time></trkpt><trkpt lat="45.632752393081624" lon="2.3955018300548816"><ele>798.9999999999999</ele><time>2026-03-29T15:13:20Z</time></trkpt><trkpt lat="45.63265708225535" lon="2.395519441325325"><ele>799.0</ele><time>2026-03-29T15:13:23Z</time></trkpt><trkpt lat="45.632581153675" lon="2.3955397375879945"><ele>798.5714285714286</ele><time>2026-03-29T15:14:08Z</time></trkpt><trkpt lat="45.63251007758487" lon="2.3955742152883506"><ele>798.1428571428571</ele><time>2026-03-29T15:14:12Z</time></trkpt><trkpt lat="45.63243289484889" lon="2.3955696340108403"><ele>797.7142857142857</ele><time>2026-03-29T15:14:15Z</time></trkpt><trkpt lat="45.63236987719769" lon="2.3955401801858924"><ele>797.2857142857142</ele><time>2026-03-29T15:14:18.999Z</time></trkpt><trkpt lat="45.63230673618895" lon="2.3955232717193633"><ele>796.8571428571429</ele><time>2026-03-29T15:14:22.999Z</time></trkpt><trkpt lat="45.632224148662466" lon="2.3955104946633727"><ele>796.4285714285713</ele><time>2026-03-29T15:14:25.999Z</time></trkpt><trkpt lat="45.63214372968107" lon="2.3954844849528114"><ele>796.0</ele><time>2026-03-29T15:14:28.999Z</time></trkpt><trkpt lat="45.632066656789696" lon="2.395501744737917"><ele>795.6666666666666</ele><time>2026-03-29T15:14:31.999Z</time></trkpt><trkpt lat="45.63199311608581" lon="2.3955023236685755"><ele>795.3333333333333</ele><time>2026-03-29T15:14:34.999Z</time></trkpt><trkpt lat="45.63190744371513" lon="2.395471219754193"><ele>795.0</ele><time>2026-03-29T15:14:38.999Z</time></trkpt><trkpt lat="45.631835916128054" lon="2.3953941784946573"><ele>794.6666666666667</ele><time>2026-03-29T15:14:41.999Z</time></trkpt><trkpt lat="45.631773281661964" lon="2.395368180929551"><ele>794.3333333333334</ele><time>2026-03-29T15:14:43.999Z</time></trkpt><trkpt lat="45.63171091796609" lon="2.3953965752913917"><ele>794.0</ele><time>2026-03-29T15:14:45.999Z</time></trkpt><trkpt lat="45.63163516097966" lon="2.3953669954425485"><ele>793.2857142857142</ele><time>2026-03-29T15:14:49.999Z</time></trkpt><trkpt lat="45.631570927104526" lon="2.395394447823808"><ele>792.5714285714286</ele><time>2026-03-29T15:14:52.999Z</time></trkpt><trkpt lat="45.6315056176199" lon="2.3954438081632534"><ele>791.8571428571429</ele><time>2026-03-29T15:14:57Z</time></trkpt><trkpt lat="45.63144000030302" lon="2.395510195958559"><ele>791.1428571428571</ele><time>2026-03-29T15:15:00Z</time></trkpt><trkpt lat="45.631389590582955" lon="2.3955709159274243"><ele>790.4285714285714</ele><time>2026-03-29T15:15:03Z</time></trkpt><trkpt lat="45.63132492712533" lon="2.395592444472423"><ele>789.7142857142857</ele><time>2026-03-29T15:15:06Z</time></trkpt><trkpt lat="45.63125404351384" lon="2.3956264155539713"><ele>789.0</ele><time>2026-03-29T15:15:09Z</time></trkpt><trkpt lat="45.63117905127813" lon="2.3956837195911853"><ele>787.1666666666666</ele><time>2026-03-29T15:15:12Z</time></trkpt><trkpt lat="45.63110099520595" lon="2.3957510768004906"><ele>785.3333333333333</ele><time>2026-03-29T15:15:15Z</time></trkpt><trkpt lat="45.63101925700935" lon="2.395791559314524"><ele>783.5</ele><time>2026-03-29T15:15:18Z</time></trkpt><trkpt lat="45.63093748895059" lon="2.3958186462714566"><ele>781.6666666666666</ele><time>2026-03-29T15:15:20Z</time></trkpt><trkpt lat="45.630848374992965" lon="2.395844514799564"><ele>779.8333333333333</ele><time>2026-03-29T15:15:22Z</time></trkpt><trkpt lat="45.63078038810717" lon="2.3958309924206005"><ele>778.0</ele><time>2026-03-29T15:15:24Z</time></trkpt><trkpt lat="45.63069328192511" lon="2.3957674208679056"><ele>777.9999999999999</ele><time>2026-03-29T15:15:27Z</time></trkpt><trkpt lat="45.63062448890934" lon="2.3957634081284964"><ele>778.0</ele><time>2026-03-29T15:15:30Z</time></trkpt><trkpt lat="45.63054271949008" lon="2.395730618539785"><ele>778.0</ele><time>2026-03-29T15:15:34Z</time></trkpt><trkpt lat="45.630460745651" lon="2.395730238112649"><ele>778.0</ele><time>2026-03-29T15:15:38Z</time></trkpt><trkpt lat="45.63038804756847" lon="2.3956513632709515"><ele>777.9999999999999</ele><time>2026-03-29T15:15:42Z</time></trkpt><trkpt lat="45.63034165070256" lon="2.3955646991646016"><ele>778.0</ele><time>2026-03-29T15:15:45Z</time></trkpt><trkpt lat="45.630294846119924" lon="2.395455999518502"><ele>777.0</ele><time>2026-03-29T15:15:48Z</time></trkpt><trkpt lat="45.630257532591884" lon="2.3953474936132313"><ele>776.0</ele><time>2026-03-29T15:15:51Z</time></trkpt><trkpt lat="45.63025184941561" lon="2.395252199005641"><ele>775.0</ele><time>2026-03-29T15:15:53Z</time></trkpt><trkpt lat="45.6302544113543" lon="2.3951534809604937"><ele>774.0</ele><time>2026-03-29T15:15:55Z</time></trkpt><trkpt lat="45.63023077153491" lon="2.3950645333659346"><ele>773.0</ele><time>2026-03-29T15:15:57Z</time></trkpt><trkpt lat="45.63020533790727" lon="2.394962854794755"><ele>772.0</ele><time>2026-03-29T15:15:59Z</time></trkpt><trkpt lat="45.63019181924421" lon="2.3948697940017754"><ele>771.0</ele><time>2026-03-29T15:16:01Z</time></trkpt><trkpt lat="45.63019132147448" lon="2.394775525530186"><ele>771.0</ele><time>2026-03-29T15:16:03Z</time></trkpt><trkpt lat="45.630174866695306" lon="2.394675805688518"><ele>771.0</ele><time>2026-03-29T15:16:05Z</time></trkpt><trkpt lat="45.630163959218045" lon="2.394585843438073"><ele>771.0</ele><time>2026-03-29T15:16:07Z</time></trkpt><trkpt lat="45.63017575093676" lon="2.394490473047707"><ele>771.0</ele><time>2026-03-29T15:16:10Z</time></trkpt><trkpt lat="45.63014303425557" lon="2.3943814528098866"><ele>771.0</ele><time>2026-03-29T15:16:12.999Z</time></trkpt><trkpt lat="45.63008479632949" lon="2.3943308409565613"><ele>771.0</ele><time>2026-03-29T15:16:18.999Z</time></trkpt><trkpt lat="45.63003689135994" lon="2.3944007362411672"><ele>771.0</ele><time>2026-03-29T15:16:23.999Z</time></trkpt><trkpt lat="45.6299722116276" lon="2.3944592651800387"><ele>771.0</ele><time>2026-03-29T15:16:28.999Z</time></trkpt><trkpt lat="45.6299064165695" lon="2.3945139780194635"><ele>771.0</ele><time>2026-03-29T15:16:32.999Z</time></trkpt><trkpt lat="45.62984061396691" lon="2.3945590408544097"><ele>771.0</ele><time>2026-03-29T15:16:36.999Z</time></trkpt><trkpt lat="45.62977248476454" lon="2.3946055002239404"><ele>771.0</ele><time>2026-03-29T15:16:40.999Z</time></trkpt><trkpt lat="45.6296984001978" lon="2.394618827389458"><ele>771.0</ele><time>2026-03-29T15:16:44.999Z</time></trkpt><trkpt lat="45.62962575902654" lon="2.394677992556656"><ele>771.0</ele><time>2026-03-29T15:16:49.999Z</time></trkpt><trkpt lat="45.62955181061391" lon="2.3947110776470644"><ele>771.0</ele><time>2026-03-29T15:16:53.999Z</time></trkpt><trkpt lat="45.62948979817153" lon="2.394732040031363"><ele>771.0</ele><time>2026-03-29T15:16:56.999Z</time></trkpt><trkpt lat="45.62942332420469" lon="2.3947268289489174"><ele>771.0</ele><time>2026-03-29T15:17:00Z</time></trkpt><trkpt lat="45.629350735946474" lon="2.3947307046025332"><ele>771.0</ele><time>2026-03-29T15:17:04Z</time></trkpt><trkpt lat="45.629268898027725" lon="2.394749877761925"><ele>771.0</ele><time>2026-03-29T15:17:08Z</time></trkpt><trkpt lat="45.629200160767034" lon="2.3947827636341787"><ele>771.0</ele><time>2026-03-29T15:17:13Z</time></trkpt><trkpt lat="45.629121343084115" lon="2.394801595966503"><ele>771.0</ele><time>2026-03-29T15:17:17Z</time></trkpt><trkpt lat="45.62903973912781" lon="2.394817442706487"><ele>770.6666666666666</ele><time>2026-03-29T15:17:54Z</time></trkpt><trkpt lat="45.628939939558" lon="2.3948345940497986"><ele>770.3333333333333</ele><time>2026-03-29T15:17:57Z</time></trkpt><trkpt lat="45.628842969844946" lon="2.394821592493229"><ele>770.0</ele><time>2026-03-29T15:18:00Z</time></trkpt><trkpt lat="45.62877849304458" lon="2.3948328952282423"><ele>769.6666666666666</ele><time>2026-03-29T15:18:01Z</time></trkpt><trkpt lat="45.62868729962479" lon="2.3948550972015137"><ele>769.3333333333333</ele><time>2026-03-29T15:18:03Z</time></trkpt><trkpt lat="45.62860066396648" lon="2.394875880503938"><ele>769.0</ele><time>2026-03-29T15:18:05Z</time></trkpt><trkpt lat="45.628503725437405" lon="2.3948888047155608"><ele>768.9999999999999</ele><time>2026-03-29T15:18:07Z</time></trkpt><trkpt lat="45.628440087361426" lon="2.394905543404122"><ele>769.0</ele><time>2026-03-29T15:18:11Z</time></trkpt><trkpt lat="45.62836543448222" lon="2.3948963527038787"><ele>769.0</ele><time>2026-03-29T15:18:12Z</time></trkpt><trkpt lat="45.6282692455264" lon="2.394928640998658"><ele>769.0</ele><time>2026-03-29T15:18:15Z</time></trkpt><trkpt lat="45.62819045919175" lon="2.394944801935141"><ele>768.9999999999999</ele><time>2026-03-29T15:18:17.999Z</time></trkpt><trkpt lat="45.62811661804813" lon="2.3949621411607085"><ele>769.0</ele><time>2026-03-29T15:18:20.999Z</time></trkpt><trkpt lat="45.628041411917664" lon="2.3949550057294666"><ele>769.0</ele><time>2026-03-29T15:18:23.999Z</time></trkpt><trkpt lat="45.62796359666009" lon="2.3949403285481727"><ele>769.0</ele><time>2026-03-29T15:18:27.999Z</time></trkpt><trkpt lat="45.62789811084771" lon="2.394923261629678"><ele>769.0</ele><time>2026-03-29T15:18:30.999Z</time></trkpt><trkpt lat="45.62783309728477" lon="2.3949081313223726"><ele>769.0</ele><time>2026-03-29T15:18:34.999Z</time></trkpt><trkpt lat="45.62778077829123" lon="2.3948572918730213"><ele>769.0</ele><time>2026-03-29T15:18:39.999Z</time></trkpt><trkpt lat="45.627720616868615" lon="2.39481896276742"><ele>769.0</ele><time>2026-03-29T15:18:44.999Z</time></trkpt><trkpt lat="45.62766224131254" lon="2.3947534718886816"><ele>769.0</ele><time>2026-03-29T15:18:47.999Z</time></trkpt><trkpt lat="45.62760370208666" lon="2.3947087890236944"><ele>768.8333333333333</ele><time>2026-03-29T15:18:51.999Z</time></trkpt><trkpt lat="45.62753535069188" lon="2.394672903867137"><ele>768.6666666666666</ele><time>2026-03-29T15:18:57.999Z</time></trkpt><trkpt lat="45.6274728348915" lon="2.394609451446988"><ele>768.5</ele><time>2026-03-29T15:19:02.999Z</time></trkpt><trkpt lat="45.62741178686446" lon="2.394556154732591"><ele>768.3333333333333</ele><time>2026-03-29T15:19:07Z</time></trkpt><trkpt lat="45.62734393258732" lon="2.3945072798830425"><ele>768.1666666666666</ele><time>2026-03-29T15:19:11Z</time></trkpt><trkpt lat="45.62728978708278" lon="2.394451030039451"><ele>768.0</ele><time>2026-03-29T15:19:14Z</time></trkpt><trkpt lat="45.627209480781715" lon="2.394378335747019"><ele>768.0</ele><time>2026-03-29T15:19:18Z</time></trkpt><trkpt lat="45.6271465811557" lon="2.3943295349575697"><ele>768.0</ele><time>2026-03-29T15:19:20Z</time></trkpt><trkpt lat="45.62708059554138" lon="2.394261050653359"><ele>768.0</ele><time>2026-03-29T15:19:23Z</time></trkpt><trkpt lat="45.62701192033284" lon="2.3942416803667506"><ele>768.0</ele><time>2026-03-29T15:19:25Z</time></trkpt><trkpt lat="45.62693078491847" lon="2.3942350468562474"><ele>768.0</ele><time>2026-03-29T15:19:28Z</time></trkpt><trkpt lat="45.626852869593705" lon="2.3942489416565915"><ele>768.0</ele><time>2026-03-29T15:19:32Z</time></trkpt><trkpt lat="45.6267855970787" lon="2.394267437855297"><ele>767.5</ele><time>2026-03-29T15:19:36Z</time></trkpt><trkpt lat="45.62671379373429" lon="2.39427403987945"><ele>767.0</ele><time>2026-03-29T15:19:40Z</time></trkpt><trkpt lat="45.626634058243624" lon="2.394276359233767"><ele>766.5</ele><time>2026-03-29T15:19:44Z</time></trkpt><trkpt lat="45.626553053675664" lon="2.3942775837367107"><ele>766.0</ele><time>2026-03-29T15:19:49Z</time></trkpt><trkpt lat="45.62648879195234" lon="2.3942703492165944"><ele>765.5</ele><time>2026-03-29T15:19:53Z</time></trkpt><trkpt lat="45.626413331589454" lon="2.3942720365483314"><ele>765.0</ele><time>2026-03-29T15:19:57Z</time></trkpt><trkpt lat="45.626336128966635" lon="2.394266796762186"><ele>765.0000000000001</ele><time>2026-03-29T15:20:02Z</time></trkpt><trkpt lat="45.6262613668716" lon="2.3942664326087137"><ele>765.0</ele><time>2026-03-29T15:20:07Z</time></trkpt><trkpt lat="45.62618479526847" lon="2.3942898831754578"><ele>765.0</ele><time>2026-03-29T15:20:12Z</time></trkpt><trkpt lat="45.6261216971785" lon="2.394296193217814"><ele>765.0</ele><time>2026-03-29T15:20:16Z</time></trkpt><trkpt lat="45.62605587838937" lon="2.3943300463494133"><ele>765.0</ele><time>2026-03-29T15:20:20.999Z</time></trkpt><trkpt lat="45.62597459632686" lon="2.3943471572380246"><ele>765.0000000000001</ele><time>2026-03-29T15:20:23.999Z</time></trkpt><trkpt lat="45.62591446533858" lon="2.3943177728558576"><ele>765.0</ele><time>2026-03-29T15:20:43.999Z</time></trkpt><trkpt lat="45.625840600135746" lon="2.3943084313323966"><ele>765.2857142857143</ele><time>2026-03-29T15:22:16Z</time></trkpt><trkpt lat="45.62577117807737" lon="2.39430380485804"><ele>765.5714285714286</ele><time>2026-03-29T15:22:19Z</time></trkpt><trkpt lat="45.625695247312116" lon="2.3942815004532414"><ele>765.8571428571429</ele><time>2026-03-29T15:22:22.999Z</time></trkpt><trkpt lat="45.625623196947856" lon="2.3942683189080776"><ele>766.1428571428571</ele><time>2026-03-29T15:22:26.999Z</time></trkpt><trkpt lat="45.625552201152246" lon="2.3942789549473864"><ele>766.4285714285714</ele><time>2026-03-29T15:22:29.999Z</time></trkpt><trkpt lat="45.62548395016124" lon="2.39429179236536"><ele>766.7142857142858</ele><time>2026-03-29T15:22:33.999Z</time></trkpt><trkpt lat="45.625419058736455" lon="2.3942476537432227"><ele>767.0</ele><time>2026-03-29T15:22:37.999Z</time></trkpt><trkpt lat="45.625363687903764" lon="2.3941880431754785"><ele>767.8571428571429</ele><time>2026-03-29T15:22:41.999Z</time></trkpt><trkpt lat="45.625299936111425" lon="2.394129295120398"><ele>768.7142857142858</ele><time>2026-03-29T15:22:46.999Z</time></trkpt><trkpt lat="45.62525473950643" lon="2.3940638129611975"><ele>769.5714285714286</ele><time>2026-03-29T15:22:50.999Z</time></trkpt><trkpt lat="45.62520044051935" lon="2.3939959630430394"><ele>770.4285714285714</ele><time>2026-03-29T15:22:56.999Z</time></trkpt><trkpt lat="45.62514733503405" lon="2.3939331484751"><ele>771.2857142857142</ele><time>2026-03-29T15:23:00.999Z</time></trkpt><trkpt lat="45.625096775133436" lon="2.3938707936970696"><ele>772.1428571428571</ele><time>2026-03-29T15:23:05.999Z</time></trkpt><trkpt lat="45.62503344458239" lon="2.393823997151224"><ele>773.0</ele><time>2026-03-29T15:23:09.999Z</time></trkpt><trkpt lat="45.62496790367331" lon="2.3937881896086095"><ele>773.5714285714286</ele><time>2026-03-29T15:23:14.999Z</time></trkpt><trkpt lat="45.62491969796352" lon="2.3937270239828496"><ele>774.1428571428571</ele><time>2026-03-29T15:23:20Z</time></trkpt><trkpt lat="45.62485263345427" lon="2.3936835423397036"><ele>774.7142857142858</ele><time>2026-03-29T15:23:25Z</time></trkpt><trkpt lat="45.624804532046234" lon="2.39361894550147"><ele>775.2857142857142</ele><time>2026-03-29T15:23:29Z</time></trkpt><trkpt lat="45.624740319610204" lon="2.3935717728661037"><ele>775.8571428571429</ele><time>2026-03-29T15:23:34Z</time></trkpt><trkpt lat="45.6246674627415" lon="2.393527911220852"><ele>776.4285714285714</ele><time>2026-03-29T15:23:39Z</time></trkpt><trkpt lat="45.624596830041284" lon="2.393494507140926"><ele>777.0</ele><time>2026-03-29T15:23:43Z</time></trkpt><trkpt lat="45.62454602091121" lon="2.3934358647811886"><ele>777.0</ele><time>2026-03-29T15:23:47Z</time></trkpt><trkpt lat="45.62448947766522" lon="2.3933902293348006"><ele>777.0</ele><time>2026-03-29T15:23:52Z</time></trkpt><trkpt lat="45.6244227669479" lon="2.3933390837307456"><ele>777.0</ele><time>2026-03-29T15:23:58Z</time></trkpt><trkpt lat="45.624363411561774" lon="2.393306481470856"><ele>777.0</ele><time>2026-03-29T15:24:03Z</time></trkpt><trkpt lat="45.624255727003586" lon="2.3931725545145524"><ele>777.0</ele><time>2026-03-29T15:24:29.999Z</time></trkpt><trkpt lat="45.624177654073" lon="2.3931397511737136"><ele>777.0</ele><time>2026-03-29T15:24:38.999Z</time></trkpt><trkpt lat="45.62410870232439" lon="2.3931032406648436"><ele>777.1428571428571</ele><time>2026-03-29T15:24:43.999Z</time></trkpt><trkpt lat="45.62404981627713" lon="2.3930456150262005"><ele>777.2857142857142</ele><time>2026-03-29T15:24:49.999Z</time></trkpt><trkpt lat="45.623999905523746" lon="2.3929623740713732"><ele>777.4285714285714</ele><time>2026-03-29T15:24:54.999Z</time></trkpt><trkpt lat="45.623939578877184" lon="2.3929137262775892"><ele>777.5714285714286</ele><time>2026-03-29T15:24:58.999Z</time></trkpt><trkpt lat="45.62388584585486" lon="2.3928458753424917"><ele>777.7142857142857</ele><time>2026-03-29T15:25:04.999Z</time></trkpt><trkpt lat="45.62382453078626" lon="2.3927988202644097"><ele>777.8571428571429</ele><time>2026-03-29T15:25:08.999Z</time></trkpt><trkpt lat="45.62375905313831" lon="2.392755665960244"><ele>778.0</ele><time>2026-03-29T15:25:13.999Z</time></trkpt><trkpt lat="45.623735506411926" lon="2.392664068368861"><ele>778.0</ele><time>2026-03-29T15:25:17.999Z</time></trkpt><trkpt lat="45.623771388902384" lon="2.3925650218512455"><ele>778.0</ele><time>2026-03-29T15:25:22.999Z</time></trkpt><trkpt lat="45.62380426819284" lon="2.3924619447641695"><ele>778.0</ele><time>2026-03-29T15:25:27Z</time></trkpt><trkpt lat="45.623811427462684" lon="2.3923706530785163"><ele>778.0</ele><time>2026-03-29T15:25:31Z</time></trkpt><trkpt lat="45.62382136462786" lon="2.392274793820564"><ele>778.0</ele><time>2026-03-29T15:25:37Z</time></trkpt><trkpt lat="45.623822944800686" lon="2.3921739853809547"><ele>778.0</ele><time>2026-03-29T15:25:42Z</time></trkpt><trkpt lat="45.62380708249155" lon="2.3920735352471776"><ele>778.0</ele><time>2026-03-29T15:25:48Z</time></trkpt><trkpt lat="45.62381848285617" lon="2.3919826851077746"><ele>777.6666666666666</ele><time>2026-03-29T15:26:03Z</time></trkpt><trkpt lat="45.62380327761247" lon="2.391879963214601"><ele>777.3333333333333</ele><time>2026-03-29T15:26:07Z</time></trkpt><trkpt lat="45.62380554258502" lon="2.391766389798121"><ele>777.0</ele><time>2026-03-29T15:26:11Z</time></trkpt><trkpt lat="45.62380230364039" lon="2.3916399866527978"><ele>776.6666666666667</ele><time>2026-03-29T15:26:15Z</time></trkpt><trkpt lat="45.623803459107855" lon="2.3915195613662843"><ele>776.3333333333334</ele><time>2026-03-29T15:26:18Z</time></trkpt><trkpt lat="45.623788564851154" lon="2.39142500841114"><ele>776.0</ele><time>2026-03-29T15:26:21Z</time></trkpt><trkpt lat="45.623774353660885" lon="2.3913270134007667"><ele>775.8571428571428</ele><time>2026-03-29T15:26:24Z</time></trkpt><trkpt lat="45.62376055706417" lon="2.391217476039114"><ele>775.7142857142858</ele><time>2026-03-29T15:26:27Z</time></trkpt><trkpt lat="45.623748424832364" lon="2.3911225189085874"><ele>775.5714285714286</ele><time>2026-03-29T15:26:30Z</time></trkpt><trkpt lat="45.62372934387131" lon="2.391025143696141"><ele>775.4285714285713</ele><time>2026-03-29T15:26:33Z</time></trkpt><trkpt lat="45.623706802385215" lon="2.3909242083891242"><ele>775.2857142857142</ele><time>2026-03-29T15:26:35.999Z</time></trkpt><trkpt lat="45.6236764890139" lon="2.39083328347223"><ele>775.1428571428571</ele><time>2026-03-29T15:26:38.999Z</time></trkpt><trkpt lat="45.62365748934206" lon="2.3907352434504294"><ele>775.0</ele><time>2026-03-29T15:26:41.999Z</time></trkpt><trkpt lat="45.6236228954942" lon="2.390626424174038"><ele>775.7142857142857</ele><time>2026-03-29T15:26:45.999Z</time></trkpt><trkpt lat="45.62359275203092" lon="2.3905373331268844"><ele>776.4285714285714</ele><time>2026-03-29T15:26:48.999Z</time></trkpt><trkpt lat="45.623564593267574" lon="2.390456521539669"><ele>777.1428571428571</ele><time>2026-03-29T15:26:51.999Z</time></trkpt><trkpt lat="45.62353956830128" lon="2.3903503302080904"><ele>777.8571428571429</ele><time>2026-03-29T15:26:55.999Z</time></trkpt><trkpt lat="45.6235127532132" lon="2.39026713385257"><ele>778.5714285714286</ele><time>2026-03-29T15:26:58.999Z</time></trkpt><trkpt lat="45.623481150556245" lon="2.3901667317652993"><ele>779.2857142857142</ele><time>2026-03-29T15:27:02.999Z</time></trkpt><trkpt lat="45.6234507674194" lon="2.390065209262358"><ele>780.0</ele><time>2026-03-29T15:27:06.999Z</time></trkpt><trkpt lat="45.623416015940045" lon="2.3899636721829607"><ele>780.0</ele><time>2026-03-29T15:27:10.999Z</time></trkpt><trkpt lat="45.62338646177596" lon="2.389877246894293"><ele>780.0</ele><time>2026-03-29T15:27:14.999Z</time></trkpt><trkpt lat="45.6233649752515" lon="2.389790447556495"><ele>780.0</ele><time>2026-03-29T15:27:18.999Z</time></trkpt><trkpt lat="45.62334175999544" lon="2.3896983880907694"><ele>780.0</ele><time>2026-03-29T15:27:22.999Z</time></trkpt><trkpt lat="45.623310323222086" lon="2.3896193645661685"><ele>780.0</ele><time>2026-03-29T15:27:26.999Z</time></trkpt><trkpt lat="45.623275451875784" lon="2.3895199813086867"><ele>780.0</ele><time>2026-03-29T15:27:31Z</time></trkpt><trkpt lat="45.62324814802551" lon="2.389426970043976"><ele>780.0</ele><time>2026-03-29T15:27:36Z</time></trkpt><trkpt lat="45.62322290596082" lon="2.3893422806989615"><ele>780.1428571428571</ele><time>2026-03-29T15:27:40Z</time></trkpt><trkpt lat="45.623196936873825" lon="2.389259445310688"><ele>780.2857142857142</ele><time>2026-03-29T15:27:44Z</time></trkpt><trkpt lat="45.62316529909852" lon="2.3891740267164407"><ele>780.4285714285714</ele><time>2026-03-29T15:27:54Z</time></trkpt><trkpt lat="45.62315098577681" lon="2.389084372150703"><ele>780.5714285714286</ele><time>2026-03-29T15:28:02Z</time></trkpt><trkpt lat="45.62311579365333" lon="2.3889980726343585"><ele>780.7142857142858</ele><time>2026-03-29T15:28:08Z</time></trkpt><trkpt lat="45.623099340084416" lon="2.3889096174868625"><ele>780.8571428571429</ele><time>2026-03-29T15:28:15Z</time></trkpt><trkpt lat="45.62307177820574" lon="2.3888174080394147"><ele>781.0</ele><time>2026-03-29T15:28:21Z</time></trkpt><trkpt lat="45.62306029962187" lon="2.3887239615971394"><ele>782.0</ele><time>2026-03-29T15:28:27Z</time></trkpt><trkpt lat="45.62304335167008" lon="2.3886309576952525"><ele>783.0</ele><time>2026-03-29T15:28:33.999Z</time></trkpt><trkpt lat="45.62302955140642" lon="2.388541559511314"><ele>784.0</ele><time>2026-03-29T15:28:39.999Z</time></trkpt><trkpt lat="45.62304229328895" lon="2.3884504818066197"><ele>785.0</ele><time>2026-03-29T15:28:45.999Z</time></trkpt><trkpt lat="45.62305844440038" lon="2.388345684975384"><ele>786.0</ele><time>2026-03-29T15:28:54.999Z</time></trkpt><trkpt lat="45.62307684210797" lon="2.388254444207268"><ele>787.0</ele><time>2026-03-29T15:29:11.999Z</time></trkpt><trkpt lat="45.6231148527147" lon="2.3881811551806043"><ele>788.0</ele><time>2026-03-29T15:29:18.999Z</time></trkpt><trkpt lat="45.623143179335386" lon="2.3880955619533597"><ele>790.4285714285714</ele><time>2026-03-29T15:29:25.999Z</time></trkpt><trkpt lat="45.62317070130067" lon="2.388006661581413"><ele>792.8571428571429</ele><time>2026-03-29T15:29:31.999Z</time></trkpt><trkpt lat="45.62320020791398" lon="2.387909453103516"><ele>795.2857142857142</ele><time>2026-03-29T15:29:41Z</time></trkpt><trkpt lat="45.62321546831815" lon="2.387809809525639"><ele>797.7142857142858</ele><time>2026-03-29T15:29:49Z</time></trkpt><trkpt lat="45.62325412955235" lon="2.38773845415646"><ele>800.1428571428571</ele><time>2026-03-29T15:30:04Z</time></trkpt><trkpt lat="45.6232648078364" lon="2.3876438413874075"><ele>802.5714285714286</ele><time>2026-03-29T15:30:13Z</time></trkpt><trkpt lat="45.62329833687617" lon="2.387567391210435"><ele>805.0</ele><time>2026-03-29T15:30:18Z</time></trkpt><trkpt lat="45.623300293852104" lon="2.38746135860722"><ele>805.0</ele><time>2026-03-29T15:30:31Z</time></trkpt><trkpt lat="45.62332659348512" lon="2.3873722823553742"><ele>805.0</ele><time>2026-03-29T15:30:37Z</time></trkpt><trkpt lat="45.62334056919382" lon="2.387269830701008"><ele>805.0</ele><time>2026-03-29T15:30:44Z</time></trkpt><trkpt lat="45.62337405528252" lon="2.387190469842966"><ele>805.0</ele><time>2026-03-29T15:30:50.999Z</time></trkpt><trkpt lat="45.62340879494977" lon="2.3870958347213116"><ele>805.0</ele><time>2026-03-29T15:30:58.999Z</time></trkpt><trkpt lat="45.62343386830617" lon="2.387013209298583"><ele>805.0</ele><time>2026-03-29T15:31:04.999Z</time></trkpt><trkpt lat="45.62345196972872" lon="2.386914705374354"><ele>805.0</ele><time>2026-03-29T15:31:11.999Z</time></trkpt><trkpt lat="45.62349766406098" lon="2.3868378755230397"><ele>805.7142857142857</ele><time>2026-03-29T15:31:21.999Z</time></trkpt><trkpt lat="45.62349817801447" lon="2.3867314854264867"><ele>806.4285714285714</ele><time>2026-03-29T15:31:30.999Z</time></trkpt><trkpt lat="45.623528355370766" lon="2.3866444376774583"><ele>807.1428571428571</ele><time>2026-03-29T15:31:43Z</time></trkpt><trkpt lat="45.62354750475144" lon="2.3865468286901566"><ele>807.8571428571429</ele><time>2026-03-29T15:31:51Z</time></trkpt><trkpt lat="45.6235247948661" lon="2.3864438595644044"><ele>808.5714285714286</ele><time>2026-03-29T15:31:57Z</time></trkpt><trkpt lat="45.62348932902419" lon="2.386358408648153"><ele>809.2857142857142</ele><time>2026-03-29T15:32:05Z</time></trkpt><trkpt lat="45.623440359115754" lon="2.386286883268275"><ele>810.0</ele><time>2026-03-29T15:32:15Z</time></trkpt><trkpt lat="45.62339078223579" lon="2.3862265141017103"><ele>809.9999999999999</ele><time>2026-03-29T15:32:22Z</time></trkpt><trkpt lat="45.62333375170906" lon="2.386175188727637"><ele>810.0</ele><time>2026-03-29T15:32:36Z</time></trkpt><trkpt lat="45.62325985851092" lon="2.386164977080037"><ele>810.0</ele><time>2026-03-29T15:32:54.999Z</time></trkpt><trkpt lat="45.62319072570629" lon="2.3861527672861658"><ele>810.0</ele><time>2026-03-29T15:33:22.999Z</time></trkpt><trkpt lat="45.62313425220083" lon="2.3860963246657447"><ele>810.0</ele><time>2026-03-29T15:33:30.999Z</time></trkpt><trkpt lat="45.62304900523416" lon="2.386101789425437"><ele>809.9999999999999</ele><time>2026-03-29T15:33:38.999Z</time></trkpt><trkpt lat="45.62299782319639" lon="2.386010542556191"><ele>810.0</ele><time>2026-03-29T15:33:44.999Z</time></trkpt><trkpt lat="45.62295501000671" lon="2.3859123015645594"><ele>809.9999999999999</ele><time>2026-03-29T15:33:56Z</time></trkpt><trkpt lat="45.622896492065045" lon="2.3858377031674554"><ele>810.0</ele><time>2026-03-29T15:34:06Z</time></trkpt><trkpt lat="45.62287421040604" lon="2.385732574073827"><ele>810.0</ele><time>2026-03-29T15:34:17Z</time></trkpt><trkpt lat="45.6228519841266" lon="2.3856292311830205"><ele>810.0</ele><time>2026-03-29T15:34:21Z</time></trkpt><trkpt lat="45.622837417393825" lon="2.3855229654702748"><ele>810.0</ele><time>2026-03-29T15:34:32Z</time></trkpt><trkpt lat="45.62283027465902" lon="2.3854234183553467"><ele>809.9999999999999</ele><time>2026-03-29T15:34:40Z</time></trkpt><trkpt lat="45.62283134859248" lon="2.385326622415972"><ele>810.0</ele><time>2026-03-29T15:34:47Z</time></trkpt><trkpt lat="45.62282708423778" lon="2.3852360367898875"><ele>810.5714285714286</ele><time>2026-03-29T15:34:54Z</time></trkpt><trkpt lat="45.62285519342467" lon="2.38513854877682"><ele>811.1428571428571</ele><time>2026-03-29T15:35:01.999Z</time></trkpt><trkpt lat="45.622887356697206" lon="2.3850570907981306"><ele>811.7142857142858</ele><time>2026-03-29T15:35:09.999Z</time></trkpt><trkpt lat="45.62290743597488" lon="2.384970407588636"><ele>812.2857142857142</ele><time>2026-03-29T15:35:16.999Z</time></trkpt><trkpt lat="45.62294128491255" lon="2.3848746144349118"><ele>812.8571428571429</ele><time>2026-03-29T15:35:27.999Z</time></trkpt><trkpt lat="45.62297178529757" lon="2.3847915977350413"><ele>813.4285714285714</ele><time>2026-03-29T15:35:35.999Z</time></trkpt><trkpt lat="45.6230097893761" lon="2.384693088462586"><ele>814.0</ele><time>2026-03-29T15:37:01Z</time></trkpt><trkpt lat="45.622937912670004" lon="2.384734333912122"><ele>816.1428571428572</ele><time>2026-03-29T15:38:26Z</time></trkpt><trkpt lat="45.62287876749447" lon="2.384660853956167"><ele>818.2857142857143</ele><time>2026-03-29T15:38:30Z</time></trkpt><trkpt lat="45.62280846486319" lon="2.3846438686428777"><ele>820.4285714285714</ele><time>2026-03-29T15:38:34Z</time></trkpt><trkpt lat="45.62274153122917" lon="2.384663936540612"><ele>822.5714285714287</ele><time>2026-03-29T15:38:38Z</time></trkpt><trkpt lat="45.622692237254896" lon="2.384724880132428"><ele>824.7142857142857</ele><time>2026-03-29T15:38:41Z</time></trkpt><trkpt lat="45.62263160235671" lon="2.384805692068912"><ele>826.8571428571429</ele><time>2026-03-29T15:38:45Z</time></trkpt><trkpt lat="45.62258835920988" lon="2.3848720321567343"><ele>829.0</ele><time>2026-03-29T15:38:48Z</time></trkpt><trkpt lat="45.62254003724275" lon="2.384945155592155"><ele>829.7142857142857</ele><time>2026-03-29T15:38:52Z</time></trkpt><trkpt lat="45.62248677714445" lon="2.3850237435903696"><ele>830.4285714285713</ele><time>2026-03-29T15:38:56Z</time></trkpt><trkpt lat="45.62244646175739" lon="2.3850972108013817"><ele>831.1428571428571</ele><time>2026-03-29T15:39:00Z</time></trkpt><trkpt lat="45.62239629393369" lon="2.3851658525353483"><ele>831.8571428571429</ele><time>2026-03-29T15:39:03Z</time></trkpt><trkpt lat="45.6223432898029" lon="2.385216153535359"><ele>832.5714285714286</ele><time>2026-03-29T15:39:06Z</time></trkpt><trkpt lat="45.62227972730564" lon="2.3852819893561636"><ele>833.2857142857143</ele><time>2026-03-29T15:39:09.999Z</time></trkpt><trkpt lat="45.62221613221831" lon="2.385342783376582"><ele>834.0</ele><time>2026-03-29T15:39:12.999Z</time></trkpt><trkpt lat="45.622144894763125" lon="2.3853676681227665"><ele>834.0</ele><time>2026-03-29T15:39:15.999Z</time></trkpt><trkpt lat="45.62207506825325" lon="2.3853773034967296"><ele>834.0</ele><time>2026-03-29T15:39:20.999Z</time></trkpt><trkpt lat="45.62200336901423" lon="2.3853417922666527"><ele>834.0</ele><time>2026-03-29T15:39:26.999Z</time></trkpt><trkpt lat="45.62193560613518" lon="2.3853150528902756"><ele>834.0</ele><time>2026-03-29T15:39:33.999Z</time></trkpt><trkpt lat="45.6218697467658" lon="2.3852786257067837"><ele>834.0</ele><time>2026-03-29T15:39:39.999Z</time></trkpt><trkpt lat="45.62182931750521" lon="2.3851979911727037"><ele>834.0</ele><time>2026-03-29T15:39:53.999Z</time></trkpt><trkpt lat="45.62175653991306" lon="2.385181653936832"><ele>834.0</ele><time>2026-03-29T15:40:02.999Z</time></trkpt><trkpt lat="45.62169521990077" lon="2.3851295012623788"><ele>834.4285714285714</ele><time>2026-03-29T15:40:13Z</time></trkpt><trkpt lat="45.62164002693559" lon="2.385058969265816"><ele>834.8571428571428</ele><time>2026-03-29T15:40:23Z</time></trkpt><trkpt lat="45.621575698754484" lon="2.385033103397719"><ele>835.2857142857142</ele><time>2026-03-29T15:40:32Z</time></trkpt><trkpt lat="45.62153146396834" lon="2.384957560790148"><ele>835.7142857142858</ele><time>2026-03-29T15:40:39Z</time></trkpt><trkpt lat="45.62146475598804" lon="2.384946665868544"><ele>836.1428571428571</ele><time>2026-03-29T15:40:46Z</time></trkpt><trkpt lat="45.621408774978306" lon="2.3848995317001607"><ele>836.5714285714286</ele><time>2026-03-29T15:40:55Z</time></trkpt><trkpt lat="45.62133418759281" lon="2.38485203679984"><ele>837.0</ele><time>2026-03-29T15:41:05Z</time></trkpt><trkpt lat="45.6212770566402" lon="2.3848114699573553"><ele>837.0</ele><time>2026-03-29T15:41:14Z</time></trkpt><trkpt lat="45.621227352040556" lon="2.3847475542349263"><ele>837.0</ele><time>2026-03-29T15:41:22.999Z</time></trkpt><trkpt lat="45.621164512248825" lon="2.384711532385834"><ele>837.0</ele><time>2026-03-29T15:41:29.999Z</time></trkpt><trkpt lat="45.62108853077756" lon="2.384663189803472"><ele>837.0</ele><time>2026-03-29T15:41:38.999Z</time></trkpt><trkpt lat="45.62102374776572" lon="2.384641978466131"><ele>837.0</ele><time>2026-03-29T15:41:47.999Z</time></trkpt><trkpt lat="45.62097149732371" lon="2.3845903683014695"><ele>837.0</ele><time>2026-03-29T15:41:53.999Z</time></trkpt><trkpt lat="45.620902503346365" lon="2.3845821682479813"><ele>837.0</ele><time>2026-03-29T15:42:08.999Z</time></trkpt><trkpt lat="45.620843789795295" lon="2.384533352514031"><ele>838.4285714285714</ele><time>2026-03-29T15:42:15Z</time></trkpt><trkpt lat="45.620769825228486" lon="2.3845405197189264"><ele>839.8571428571429</ele><time>2026-03-29T15:42:20Z</time></trkpt><trkpt lat="45.62070639124857" lon="2.384500561463182"><ele>841.2857142857142</ele><time>2026-03-29T15:42:26Z</time></trkpt><trkpt lat="45.620638207959864" lon="2.384521527125388"><ele>842.7142857142858</ele><time>2026-03-29T15:42:31Z</time></trkpt><trkpt lat="45.620582316768434" lon="2.3844701029547632"><ele>844.1428571428571</ele><time>2026-03-29T15:42:37Z</time></trkpt><trkpt lat="45.620520898103976" lon="2.384443233739169"><ele>845.5714285714286</ele><time>2026-03-29T15:42:45Z</time></trkpt><trkpt lat="45.62045419213106" lon="2.3844647198187348"><ele>847.0</ele><time>2026-03-29T15:42:49Z</time></trkpt><trkpt lat="45.62039095958444" lon="2.3844553120597074"><ele>847.0</ele><time>2026-03-29T15:42:58Z</time></trkpt><trkpt lat="45.620327285202386" lon="2.384485883788915"><ele>847.0</ele><time>2026-03-29T15:43:04Z</time></trkpt><trkpt lat="45.620261395164725" lon="2.3844722143823507"><ele>847.0</ele><time>2026-03-29T15:43:13Z</time></trkpt><trkpt lat="45.62019640181856" lon="2.3844705633912535"><ele>847.0</ele><time>2026-03-29T15:43:20.999Z</time></trkpt><trkpt lat="45.62011820968417" lon="2.3845054954029337"><ele>847.0</ele><time>2026-03-29T15:43:29.999Z</time></trkpt><trkpt lat="45.62005948024436" lon="2.3845617177218528"><ele>847.0</ele><time>2026-03-29T15:43:37.999Z</time></trkpt><trkpt lat="45.61999169512356" lon="2.384573752290724"><ele>847.0</ele><time>2026-03-29T15:43:44.999Z</time></trkpt><trkpt lat="45.6199261524891" lon="2.384570077939056"><ele>847.0</ele><time>2026-03-29T15:44:00.999Z</time></trkpt><trkpt lat="45.61986788432586" lon="2.3846303754470237"><ele>847.0</ele><time>2026-03-29T15:44:05.999Z</time></trkpt><trkpt lat="45.61980267110481" lon="2.3847019280788007"><ele>847.0</ele><time>2026-03-29T15:44:16.999Z</time></trkpt><trkpt lat="45.61975566911776" lon="2.3847677342150893"><ele>847.0</ele><time>2026-03-29T15:44:23Z</time></trkpt><trkpt lat="45.61968588598551" lon="2.384776706899817"><ele>847.0</ele><time>2026-03-29T15:44:29Z</time></trkpt><trkpt lat="45.61964531822516" lon="2.384849751185639"><ele>847.0</ele><time>2026-03-29T15:44:35Z</time></trkpt><trkpt lat="45.61958282876589" lon="2.384900241444039"><ele>847.0</ele><time>2026-03-29T15:44:45Z</time></trkpt><trkpt lat="45.619535078640126" lon="2.3849729495282745"><ele>847.0</ele><time>2026-03-29T15:44:52Z</time></trkpt><trkpt lat="45.6194867159788" lon="2.3850467610602033"><ele>847.0</ele><time>2026-03-29T15:45:00Z</time></trkpt><trkpt lat="45.61941403177916" lon="2.385084924006521"><ele>847.0</ele><time>2026-03-29T15:45:09Z</time></trkpt><trkpt lat="45.619359585698135" lon="2.3851376141984506"><ele>847.0</ele><time>2026-03-29T15:45:16Z</time></trkpt><trkpt lat="45.619303474427554" lon="2.385180276371629"><ele>847.0</ele><time>2026-03-29T15:45:23Z</time></trkpt><trkpt lat="45.61924476551538" lon="2.3852172634789706"><ele>847.0</ele><time>2026-03-29T15:45:30.999Z</time></trkpt><trkpt lat="45.61917802765736" lon="2.385218954925442"><ele>847.0</ele><time>2026-03-29T15:45:38.999Z</time></trkpt><trkpt lat="45.619115803158735" lon="2.3852583445238755"><ele>848.0</ele><time>2026-03-29T15:45:45.999Z</time></trkpt><trkpt lat="45.61905337434553" lon="2.3852462102097216"><ele>849.0</ele><time>2026-03-29T15:45:53.999Z</time></trkpt><trkpt lat="45.618990165178715" lon="2.385242432198172"><ele>850.0</ele><time>2026-03-29T15:46:00.999Z</time></trkpt><trkpt lat="45.61892316229891" lon="2.3852642139821576"><ele>851.0</ele><time>2026-03-29T15:46:09.999Z</time></trkpt><trkpt lat="45.61884303261568" lon="2.385257669756302"><ele>852.0</ele><time>2026-03-29T15:46:20.999Z</time></trkpt><trkpt lat="45.6187575886583" lon="2.38525471822904"><ele>853.0</ele><time>2026-03-29T15:46:26Z</time></trkpt><trkpt lat="45.61869117194983" lon="2.3852605469896093"><ele>854.0</ele><time>2026-03-29T15:46:30Z</time></trkpt><trkpt lat="45.61861435795006" lon="2.3852544959457718"><ele>854.0</ele><time>2026-03-29T15:46:34Z</time></trkpt><trkpt lat="45.61854061664972" lon="2.3852564653340242"><ele>854.0</ele><time>2026-03-29T15:46:38Z</time></trkpt><trkpt lat="45.61846424871017" lon="2.385239240517504"><ele>854.0</ele><time>2026-03-29T15:46:42Z</time></trkpt><trkpt lat="45.61838739651476" lon="2.385232679954556"><ele>854.0</ele><time>2026-03-29T15:46:46Z</time></trkpt><trkpt lat="45.61832150347395" lon="2.38519206432274"><ele>854.0</ele><time>2026-03-29T15:46:50Z</time></trkpt><trkpt lat="45.6182537153898" lon="2.3851523276172997"><ele>854.0</ele><time>2026-03-29T15:46:54Z</time></trkpt><trkpt lat="45.618189315343955" lon="2.3850993891202066"><ele>854.0</ele><time>2026-03-29T15:46:58Z</time></trkpt><trkpt lat="45.618134805073176" lon="2.3850521630740196"><ele>854.0</ele><time>2026-03-29T15:47:02Z</time></trkpt><trkpt lat="45.618076902533545" lon="2.38498558518746"><ele>854.0</ele><time>2026-03-29T15:47:06Z</time></trkpt><trkpt lat="45.618008227994295" lon="2.384934209895464"><ele>854.0</ele><time>2026-03-29T15:47:10Z</time></trkpt><trkpt lat="45.617950868947226" lon="2.3848817385273655"><ele>854.0</ele><time>2026-03-29T15:47:14Z</time></trkpt><trkpt lat="45.61789430826473" lon="2.3848217064240487"><ele>854.0</ele><time>2026-03-29T15:47:18Z</time></trkpt><trkpt lat="45.61783941929664" lon="2.38474940889127"><ele>854.0</ele><time>2026-03-29T15:47:22Z</time></trkpt><trkpt lat="45.617770792747365" lon="2.3846939417553106"><ele>854.0</ele><time>2026-03-29T15:47:27Z</time></trkpt><trkpt lat="45.61773034999544" lon="2.384614859362005"><ele>854.8333333333334</ele><time>2026-03-29T15:47:31Z</time></trkpt><trkpt lat="45.61766800614006" lon="2.3845590606158025"><ele>855.6666666666667</ele><time>2026-03-29T15:47:34.999Z</time></trkpt><trkpt lat="45.617607670239806" lon="2.38448862677282"><ele>856.5</ele><time>2026-03-29T15:47:38.999Z</time></trkpt><trkpt lat="45.61754222845903" lon="2.384423411630009"><ele>857.3333333333333</ele><time>2026-03-29T15:47:42.999Z</time></trkpt><trkpt lat="45.617477749788705" lon="2.3843503174467915"><ele>858.1666666666666</ele><time>2026-03-29T15:47:46.999Z</time></trkpt><trkpt lat="45.61741745836517" lon="2.3842909771153726"><ele>859.0</ele><time>2026-03-29T15:47:50.999Z</time></trkpt><trkpt lat="45.61734196450449" lon="2.384274528366901"><ele>858.9999999999999</ele><time>2026-03-29T15:47:54.999Z</time></trkpt><trkpt lat="45.6172720968309" lon="2.3842876177775367"><ele>859.0</ele><time>2026-03-29T15:47:58.999Z</time></trkpt><trkpt lat="45.61720972249519" lon="2.384319472557985"><ele>859.0</ele><time>2026-03-29T15:48:01.999Z</time></trkpt><trkpt lat="45.61714258715711" lon="2.384353134853481"><ele>859.0</ele><time>2026-03-29T15:48:04.999Z</time></trkpt><trkpt lat="45.6170620581503" lon="2.384392190808059"><ele>859.0</ele><time>2026-03-29T15:48:07.999Z</time></trkpt><trkpt lat="45.616988460366876" lon="2.3844132787461456"><ele>858.9999999999999</ele><time>2026-03-29T15:48:10.999Z</time></trkpt><trkpt lat="45.616920109166244" lon="2.3844514942593724"><ele>859.0</ele><time>2026-03-29T15:48:13.999Z</time></trkpt><trkpt lat="45.61685497799513" lon="2.384474556608715"><ele>855.0</ele><time>2026-03-29T15:48:16.999Z</time></trkpt><trkpt lat="45.61678447555149" lon="2.384451622490052"><ele>855.0</ele><time>2026-03-29T15:48:20.999Z</time></trkpt><trkpt lat="45.61677857423497" lon="2.384361918077291"><ele>855.0</ele><time>2026-03-29T15:48:22.999Z</time></trkpt><trkpt lat="45.6168065224826" lon="2.3842706373009235"><ele>855.0</ele><time>2026-03-29T15:48:26.999Z</time></trkpt></trkseg></trk></gpx>